PWSweather.com
Personal Weather Stations
Station Observations
CAPEBRETON
Mira Road, Sydney, NS

Mira RoadSydney, NS

Lat: 46.1207292, Lon: -60.1594642

Elevation: 175

Station Type: AcuRite Professional Weather Center

http://pwscapebreton.wix.com/weather-watcher

Latest ConditionsUpdated 9:55:47 PM GMT-04:56 Saturday, May 28, 2016
Currently Today's Max Today's Min Today's Average
Temperature 43.3°F6.3°C 67.1°F19.5°C 43.3°F6.3°C 52.9°F11.6°C
Dew Point 38.5°F3.6°C 56.0°F13.3°C 38.5°F3.6°C 47.8°F8.8°C
Winds 4.2 mph NNW6.8 kmh NNW 11.9 mph ESE19.2 kmh ESE - 2.9 mph 4.7 kmh
Wind Gusts 6.8 mph10.9 kmh 11.9 mph19.2 kmh - -
Humidity 83% 99% 66% 84%
Pressure 30.12 in1020.0 mb 30.13 in1020.3 mb 29.93 in1013.5 mb -
Precipitation - 0.30 in7.6 mm - -
Hour Temp Dew Point Humidity Winds Wind Gusts Pressure Precip Precip Rate Daily Precip Total
09:55 PM 43.3°F6.3°C 38.5°F3.6°C 83% 3.2 mph NNE5.1 kmh NNE 6.8 mph10.9 kmh 30.12 in1020.0 mb 0.00 in0.0 mm 0.00 in0.0 mm 0.30 in7.6 mm
09:54 PM 43.3°F6.3°C 38.5°F3.6°C 83% 4.7 mph NE7.6 kmh NE 6.8 mph10.9 kmh 30.12 in1020.0 mb 0.00 in0.0 mm 0.00 in0.0 mm 0.30 in7.6 mm
09:53 PM 43.3°F6.3°C 38.5°F3.6°C 83% 4.2 mph E6.8 kmh E 6.3 mph10.1 kmh 30.12 in1020.0 mb 0.00 in0.0 mm 0.00 in0.0 mm 0.30 in7.6 mm
09:52 PM 43.3°F6.3°C 38.5°F3.6°C 83% 5.3 mph NNW8.5 kmh NNW 6.3 mph10.1 kmh 30.12 in1020.0 mb 0.00 in0.0 mm 0.00 in0.0 mm 0.30 in7.6 mm
09:51 PM 43.3°F6.3°C 38.5°F3.6°C 83% 6.3 mph N10.1 kmh N 7.8 mph12.6 kmh 30.11 in1019.6 mb 0.00 in0.0 mm 0.00 in0.0 mm 0.30 in7.6 mm
09:50 PM 43.3°F6.3°C 38.5°F3.6°C 83% 3.2 mph NNE5.1 kmh NNE 7.8 mph12.6 kmh 30.11 in1019.6 mb 0.00 in0.0 mm 0.00 in0.0 mm 0.30 in7.6 mm
09:49 PM 43.3°F6.3°C 38.5°F3.6°C 83% 4.2 mph NNE6.8 kmh NNE 7.8 mph12.6 kmh 30.11 in1019.6 mb 0.00 in0.0 mm 0.00 in0.0 mm 0.30 in7.6 mm
09:48 PM 43.3°F6.3°C 38.5°F3.6°C 83% 6.3 mph NNE10.1 kmh NNE 7.8 mph12.6 kmh 30.11 in1019.6 mb 0.00 in0.0 mm 0.00 in0.0 mm 0.30 in7.6 mm
09:47 PM 43.3°F6.3°C 38.5°F3.6°C 83% 5.3 mph NNW8.5 kmh NNW 7.8 mph12.6 kmh 30.11 in1019.6 mb 0.00 in0.0 mm 0.00 in0.0 mm 0.30 in7.6 mm
09:46 PM 43.3°F6.3°C 38.5°F3.6°C 83% 3.2 mph NNW5.1 kmh NNW 7.8 mph12.6 kmh 30.11 in1019.6 mb 0.00 in0.0 mm 0.00 in0.0 mm 0.30 in7.6 mm
09:45 PM 43.3°F6.3°C 38.5°F3.6°C 83% 3.2 mph NNE5.1 kmh NNE 7.8 mph12.6 kmh 30.11 in1019.6 mb 0.00 in0.0 mm 0.00 in0.0 mm 0.30 in7.6 mm
09:44 PM 43.3°F6.3°C 38.5°F3.6°C 83% 3.7 mph N6.0 kmh N 7.8 mph12.6 kmh 30.11 in1019.6 mb 0.00 in0.0 mm 0.00 in0.0 mm 0.30 in7.6 mm
09:43 PM 43.3°F6.3°C 38.5°F3.6°C 83% 2.7 mph NNE4.3 kmh NNE 7.8 mph12.6 kmh 30.11 in1019.6 mb 0.00 in0.0 mm 0.00 in0.0 mm 0.30 in7.6 mm
09:42 PM 43.3°F6.3°C 38.5°F3.6°C 83% 4.7 mph NW7.6 kmh NW 7.8 mph12.6 kmh 30.11 in1019.6 mb 0.00 in0.0 mm 0.00 in0.0 mm 0.30 in7.6 mm
09:41 PM 43.3°F6.3°C 38.5°F3.6°C 83% 7.8 mph NNE12.6 kmh NNE 7.8 mph12.6 kmh 30.11 in1019.6 mb 0.00 in0.0 mm 0.00 in0.0 mm 0.30 in7.6 mm
09:40 PM 43.3°F6.3°C 38.5°F3.6°C 83% 4.2 mph NNE6.8 kmh NNE 6.3 mph10.1 kmh 30.11 in1019.6 mb 0.00 in0.0 mm 0.00 in0.0 mm 0.30 in7.6 mm
09:39 PM 43.5°F6.4°C 38.7°F3.7°C 83% 3.2 mph NNE5.1 kmh NNE 6.3 mph10.1 kmh 30.11 in1019.6 mb 0.00 in0.0 mm 0.00 in0.0 mm 0.30 in7.6 mm
09:38 PM 43.5°F6.4°C 38.7°F3.7°C 83% 2.7 mph ENE4.3 kmh ENE 6.3 mph10.1 kmh 30.11 in1019.6 mb 0.00 in0.0 mm 0.00 in0.0 mm 0.30 in7.6 mm
09:37 PM 43.5°F6.4°C 38.7°F3.7°C 83% 5.8 mph NW9.3 kmh NW 6.3 mph10.1 kmh 30.11 in1019.6 mb 0.00 in0.0 mm 0.00 in0.0 mm 0.30 in7.6 mm
09:36 PM 43.5°F6.4°C 38.7°F3.7°C 83% 3.2 mph ENE5.1 kmh ENE 6.3 mph10.1 kmh 30.11 in1019.6 mb 0.00 in0.0 mm 0.00 in0.0 mm 0.30 in7.6 mm
09:35 PM 43.5°F6.4°C 38.7°F3.7°C 83% 4.2 mph NNW6.8 kmh NNW 6.3 mph10.1 kmh 30.11 in1019.6 mb 0.00 in0.0 mm 0.00 in0.0 mm 0.30 in7.6 mm
09:34 PM 43.5°F6.4°C 38.7°F3.7°C 83% 3.7 mph NNE6.0 kmh NNE 6.3 mph10.1 kmh 30.11 in1019.6 mb 0.00 in0.0 mm 0.00 in0.0 mm 0.30 in7.6 mm
09:33 PM 43.5°F6.4°C 38.7°F3.7°C 83% 3.2 mph NNE5.1 kmh NNE 6.3 mph10.1 kmh 30.11 in1019.6 mb 0.00 in0.0 mm 0.00 in0.0 mm 0.30 in7.6 mm
09:32 PM 43.5°F6.4°C 38.7°F3.7°C 83% 5.8 mph NNE9.3 kmh NNE 6.3 mph10.1 kmh 30.11 in1019.6 mb 0.00 in0.0 mm 0.00 in0.0 mm 0.30 in7.6 mm
09:31 PM 43.5°F6.4°C 38.7°F3.7°C 83% 4.7 mph N7.6 kmh N 6.3 mph10.1 kmh 30.11 in1019.6 mb 0.00 in0.0 mm 0.00 in0.0 mm 0.30 in7.6 mm
09:30 PM 43.5°F6.4°C 38.7°F3.7°C 83% 3.7 mph N6.0 kmh N 6.3 mph10.1 kmh 30.11 in1019.6 mb 0.00 in0.0 mm 0.00 in0.0 mm 0.30 in7.6 mm
09:29 PM 43.5°F6.4°C 38.7°F3.7°C 83% 4.7 mph NW7.6 kmh NW 6.3 mph10.1 kmh 30.11 in1019.6 mb 0.00 in0.0 mm 0.00 in0.0 mm 0.30 in7.6 mm
09:28 PM 43.5°F6.4°C 38.7°F3.7°C 83% 4.2 mph NNE6.8 kmh NNE 6.3 mph10.1 kmh 30.11 in1019.6 mb 0.00 in0.0 mm 0.00 in0.0 mm 0.30 in7.6 mm
09:27 PM 43.5°F6.4°C 38.7°F3.7°C 83% 4.2 mph NNW6.8 kmh NNW 6.3 mph10.1 kmh 30.11 in1019.6 mb 0.00 in0.0 mm 0.00 in0.0 mm 0.30 in7.6 mm
09:26 PM 43.5°F6.4°C 38.7°F3.7°C 83% 3.7 mph NNE6.0 kmh NNE 5.8 mph9.3 kmh 30.11 in1019.6 mb 0.00 in0.0 mm 0.00 in0.0 mm 0.30 in7.6 mm
09:25 PM 43.5°F6.4°C 38.7°F3.7°C 83% 4.2 mph NNE6.8 kmh NNE 5.8 mph9.3 kmh 30.11 in1019.6 mb 0.00 in0.0 mm 0.00 in0.0 mm 0.30 in7.6 mm
09:24 PM 43.7°F6.5°C 38.9°F3.8°C 83% 4.2 mph N6.8 kmh N 8.9 mph14.3 kmh 30.11 in1019.6 mb 0.00 in0.0 mm 0.00 in0.0 mm 0.30 in7.6 mm
09:23 PM 43.7°F6.5°C 38.9°F3.8°C 83% 4.2 mph NNW6.8 kmh NNW 8.9 mph14.3 kmh 30.11 in1019.6 mb 0.00 in0.0 mm 0.00 in0.0 mm 0.30 in7.6 mm
09:22 PM 43.7°F6.5°C 38.9°F3.8°C 83% 3.7 mph WNW6.0 kmh WNW 8.9 mph14.3 kmh 30.11 in1019.6 mb 0.00 in0.0 mm 0.00 in0.0 mm 0.30 in7.6 mm
09:21 PM 43.7°F6.5°C 38.9°F3.8°C 83% 4.7 mph N7.6 kmh N 8.9 mph14.3 kmh 30.11 in1019.6 mb 0.00 in0.0 mm 0.00 in0.0 mm 0.30 in7.6 mm
09:20 PM 43.7°F6.5°C 38.9°F3.8°C 83% 3.2 mph NNE5.1 kmh NNE 8.9 mph14.3 kmh 30.11 in1019.6 mb 0.00 in0.0 mm 0.00 in0.0 mm 0.30 in7.6 mm
09:19 PM 43.9°F6.6°C 39.1°F3.9°C 83% 3.7 mph N6.0 kmh N 8.9 mph14.3 kmh 30.11 in1019.6 mb 0.00 in0.0 mm 0.00 in0.0 mm 0.30 in7.6 mm
09:18 PM 43.9°F6.6°C 39.1°F3.9°C 83% 3.2 mph N5.1 kmh N 8.9 mph14.3 kmh 30.11 in1019.6 mb 0.00 in0.0 mm 0.00 in0.0 mm 0.30 in7.6 mm
09:17 PM 43.9°F6.6°C 39.1°F3.9°C 83% 3.7 mph N6.0 kmh N 8.9 mph14.3 kmh 30.11 in1019.6 mb 0.00 in0.0 mm 0.00 in0.0 mm 0.30 in7.6 mm
09:16 PM 43.9°F6.6°C 39.1°F3.9°C 83% 3.7 mph N6.0 kmh N 8.9 mph14.3 kmh 30.11 in1019.6 mb 0.00 in0.0 mm 0.00 in0.0 mm 0.30 in7.6 mm
09:15 PM 43.9°F6.6°C 39.1°F3.9°C 83% 5.8 mph N9.3 kmh N 8.9 mph14.3 kmh 30.11 in1019.6 mb 0.00 in0.0 mm 0.00 in0.0 mm 0.30 in7.6 mm
09:14 PM 43.9°F6.6°C 39.1°F3.9°C 83% 4.2 mph NE6.8 kmh NE 7.3 mph11.7 kmh 30.11 in1019.6 mb 0.00 in0.0 mm 0.00 in0.0 mm 0.30 in7.6 mm
09:13 PM 43.9°F6.6°C 39.1°F3.9°C 83% 4.7 mph WNW7.6 kmh WNW 7.3 mph11.7 kmh 30.11 in1019.6 mb 0.00 in0.0 mm 0.00 in0.0 mm 0.30 in7.6 mm
09:12 PM 43.9°F6.6°C 39.1°F3.9°C 83% 3.2 mph W5.1 kmh W 7.3 mph11.7 kmh 30.11 in1019.6 mb 0.00 in0.0 mm 0.00 in0.0 mm 0.30 in7.6 mm
09:11 PM 43.9°F6.6°C 39.1°F3.9°C 83% 3.7 mph N6.0 kmh N 7.3 mph11.7 kmh 30.11 in1019.6 mb 0.00 in0.0 mm 0.00 in0.0 mm 0.30 in7.6 mm
09:10 PM 43.9°F6.6°C 39.1°F3.9°C 83% 4.7 mph ESE7.6 kmh ESE 7.3 mph11.7 kmh 30.11 in1019.6 mb 0.00 in0.0 mm 0.00 in0.0 mm 0.30 in7.6 mm
09:09 PM 43.9°F6.6°C 39.4°F4.1°C 84% 6.3 mph N10.1 kmh N 7.3 mph11.7 kmh 30.11 in1019.6 mb 0.00 in0.0 mm 0.00 in0.0 mm 0.30 in7.6 mm
09:08 PM 43.9°F6.6°C 39.4°F4.1°C 84% 3.2 mph NNW5.1 kmh NNW 8.3 mph13.4 kmh 30.11 in1019.6 mb 0.00 in0.0 mm 0.00 in0.0 mm 0.30 in7.6 mm
09:07 PM 43.9°F6.6°C 39.4°F4.1°C 84% 3.7 mph NE6.0 kmh NE 8.3 mph13.4 kmh 30.11 in1019.6 mb 0.00 in0.0 mm 0.00 in0.0 mm 0.30 in7.6 mm
09:06 PM 43.9°F6.6°C 39.4°F4.1°C 84% 4.2 mph NNE6.8 kmh NNE 8.3 mph13.4 kmh 30.11 in1019.6 mb 0.00 in0.0 mm 0.00 in0.0 mm 0.30 in7.6 mm
09:05 PM 43.9°F6.6°C 39.4°F4.1°C 84% 7.3 mph NW11.7 kmh NW 8.3 mph13.4 kmh 30.11 in1019.6 mb 0.00 in0.0 mm 0.00 in0.0 mm 0.30 in7.6 mm
09:04 PM 43.9°F6.6°C 39.4°F4.1°C 84% 4.2 mph NNE6.8 kmh NNE 8.3 mph13.4 kmh 30.11 in1019.6 mb 0.00 in0.0 mm 0.00 in0.0 mm 0.30 in7.6 mm
09:03 PM 43.9°F6.6°C 39.4°F4.1°C 84% 7.3 mph WNW11.7 kmh WNW 8.3 mph13.4 kmh 30.10 in1019.3 mb 0.00 in0.0 mm 0.00 in0.0 mm 0.30 in7.6 mm
09:02 PM 44.1°F6.7°C 39.6°F4.2°C 84% 4.2 mph NNE6.8 kmh NNE 8.3 mph13.4 kmh 30.10 in1019.3 mb 0.00 in0.0 mm 0.00 in0.0 mm 0.30 in7.6 mm
09:01 PM 44.1°F6.7°C 39.6°F4.2°C 84% 4.2 mph NNW6.8 kmh NNW 8.3 mph13.4 kmh 30.10 in1019.3 mb 0.00 in0.0 mm 0.00 in0.0 mm 0.30 in7.6 mm
09:00 PM 44.1°F6.7°C 39.6°F4.2°C 84% 3.2 mph NNE5.1 kmh NNE 8.3 mph13.4 kmh 30.10 in1019.3 mb 0.00 in0.0 mm 0.00 in0.0 mm 0.30 in7.6 mm
08:59 PM 44.1°F6.7°C 39.9°F4.4°C 85% 4.2 mph NE6.8 kmh NE 8.3 mph13.4 kmh 30.10 in1019.3 mb 0.00 in0.0 mm 0.00 in0.0 mm 0.30 in7.6 mm
08:58 PM 44.1°F6.7°C 39.9°F4.4°C 85% 8.3 mph NNE13.4 kmh NNE 8.3 mph13.4 kmh 30.10 in1019.3 mb 0.00 in0.0 mm 0.00 in0.0 mm 0.30 in7.6 mm
08:57 PM 44.1°F6.7°C 39.9°F4.4°C 85% 4.2 mph NE6.8 kmh NE 6.3 mph10.1 kmh 30.10 in1019.3 mb 0.00 in0.0 mm 0.00 in0.0 mm 0.30 in7.6 mm
08:56 PM 44.1°F6.7°C 39.9°F4.4°C 85% 5.3 mph NNW8.5 kmh NNW 6.8 mph10.9 kmh 30.10 in1019.3 mb 0.00 in0.0 mm 0.00 in0.0 mm 0.30 in7.6 mm
08:55 PM 44.1°F6.7°C 39.9°F4.4°C 85% 4.7 mph NNE7.6 kmh NNE 6.8 mph10.9 kmh 30.10 in1019.3 mb 0.00 in0.0 mm 0.00 in0.0 mm 0.30 in7.6 mm
08:54 PM 44.2°F6.8°C 40.0°F4.4°C 85% 3.7 mph NNW6.0 kmh NNW 6.8 mph10.9 kmh 30.10 in1019.3 mb 0.00 in0.0 mm 0.00 in0.0 mm 0.30 in7.6 mm
08:53 PM 44.2°F6.8°C 40.0°F4.4°C 85% 2.7 mph NNE4.3 kmh NNE 6.8 mph10.9 kmh 30.10 in1019.3 mb 0.00 in0.0 mm 0.00 in0.0 mm 0.30 in7.6 mm
08:52 PM 44.2°F6.8°C 40.0°F4.4°C 85% 5.3 mph NNW8.5 kmh NNW 6.8 mph10.9 kmh 30.10 in1019.3 mb 0.00 in0.0 mm 0.00 in0.0 mm 0.30 in7.6 mm
08:51 PM 44.2°F6.8°C 40.0°F4.4°C 85% 4.2 mph W6.8 kmh W 6.8 mph10.9 kmh 30.10 in1019.3 mb 0.00 in0.0 mm 0.00 in0.0 mm 0.30 in7.6 mm
08:50 PM 44.2°F6.8°C 40.0°F4.4°C 85% 4.2 mph NNW6.8 kmh NNW 6.8 mph10.9 kmh 30.09 in1019.0 mb 0.00 in0.0 mm 0.00 in0.0 mm 0.30 in7.6 mm
08:49 PM 44.4°F6.9°C 40.2°F4.6°C 85% 3.7 mph N6.0 kmh N 6.8 mph10.9 kmh 30.09 in1019.0 mb 0.00 in0.0 mm 0.00 in0.0 mm 0.30 in7.6 mm
08:48 PM 44.4°F6.9°C 40.2°F4.6°C 85% 5.8 mph N9.3 kmh N 6.8 mph10.9 kmh 30.09 in1019.0 mb 0.00 in0.0 mm 0.00 in0.0 mm 0.30 in7.6 mm
08:47 PM 44.4°F6.9°C 40.2°F4.6°C 85% 4.7 mph NNE7.6 kmh NNE 6.8 mph10.9 kmh 30.09 in1019.0 mb 0.00 in0.0 mm 0.00 in0.0 mm 0.30 in7.6 mm
08:46 PM 44.4°F6.9°C 40.2°F4.6°C 85% 6.8 mph NNW10.9 kmh NNW 6.8 mph10.9 kmh 30.09 in1019.0 mb 0.00 in0.0 mm 0.00 in0.0 mm 0.30 in7.6 mm
08:45 PM 44.6°F7.0°C 40.4°F4.7°C 85% 4.2 mph NNE6.8 kmh NNE 6.8 mph10.9 kmh 30.09 in1019.0 mb 0.00 in0.0 mm 0.00 in0.0 mm 0.30 in7.6 mm
08:44 PM 44.6°F7.0°C 40.7°F4.8°C 86% 5.8 mph NNE9.3 kmh NNE 9.4 mph15.1 kmh 30.09 in1019.0 mb 0.00 in0.0 mm 0.00 in0.0 mm 0.30 in7.6 mm
08:43 PM 44.8°F7.1°C 40.9°F4.9°C 86% 5.3 mph N8.5 kmh N 9.4 mph15.1 kmh 30.09 in1019.0 mb 0.00 in0.0 mm 0.00 in0.0 mm 0.30 in7.6 mm
08:42 PM 44.8°F7.1°C 40.9°F4.9°C 86% 4.2 mph N6.8 kmh N 9.4 mph15.1 kmh 30.09 in1019.0 mb 0.00 in0.0 mm 0.00 in0.0 mm 0.30 in7.6 mm
08:41 PM 45.0°F7.2°C 41.1°F5.1°C 86% 5.3 mph NNW8.5 kmh NNW 9.4 mph15.1 kmh 30.09 in1019.0 mb 0.00 in0.0 mm 0.00 in0.0 mm 0.30 in7.6 mm
08:40 PM 45.0°F7.2°C 41.1°F5.1°C 86% 4.7 mph NNW7.6 kmh NNW 9.4 mph15.1 kmh 30.09 in1019.0 mb 0.00 in0.0 mm 0.00 in0.0 mm 0.30 in7.6 mm
08:39 PM 45.0°F7.2°C 41.1°F5.1°C 86% 5.3 mph NNE8.5 kmh NNE 9.4 mph15.1 kmh 30.09 in1019.0 mb 0.00 in0.0 mm 0.00 in0.0 mm 0.30 in7.6 mm
08:38 PM 45.0°F7.2°C 41.1°F5.1°C 86% 6.3 mph N10.1 kmh N 9.4 mph15.1 kmh 30.09 in1019.0 mb 0.00 in0.0 mm 0.00 in0.0 mm 0.30 in7.6 mm
08:37 PM 45.1°F7.3°C 40.9°F4.9°C 85% 4.7 mph ENE7.6 kmh ENE 9.4 mph15.1 kmh 30.09 in1019.0 mb 0.00 in0.0 mm 0.00 in0.0 mm 0.30 in7.6 mm
08:36 PM 45.1°F7.3°C 40.9°F4.9°C 85% 4.7 mph N7.6 kmh N 9.4 mph15.1 kmh 30.09 in1019.0 mb 0.00 in0.0 mm 0.00 in0.0 mm 0.30 in7.6 mm
08:35 PM 45.1°F7.3°C 40.9°F4.9°C 85% 4.2 mph NNE6.8 kmh NNE 9.4 mph15.1 kmh 30.09 in1019.0 mb 0.00 in0.0 mm 0.00 in0.0 mm 0.30 in7.6 mm
08:34 PM 45.1°F7.3°C 40.9°F4.9°C 85% 9.4 mph WNW15.1 kmh WNW 9.4 mph15.1 kmh 30.09 in1019.0 mb 0.00 in0.0 mm 0.00 in0.0 mm 0.30 in7.6 mm
08:33 PM 45.3°F7.4°C 41.1°F5.1°C 85% 7.3 mph N11.7 kmh N 8.9 mph14.3 kmh 30.09 in1019.0 mb 0.00 in0.0 mm 0.00 in0.0 mm 0.30 in7.6 mm
08:32 PM 45.3°F7.4°C 41.1°F5.1°C 85% 6.8 mph WNW10.9 kmh WNW 8.9 mph14.3 kmh 30.09 in1019.0 mb 0.00 in0.0 mm 0.00 in0.0 mm 0.30 in7.6 mm
08:31 PM 45.5°F7.5°C 41.3°F5.2°C 85% 4.7 mph NNE7.6 kmh NNE 8.9 mph14.3 kmh 30.09 in1019.0 mb 0.00 in0.0 mm 0.00 in0.0 mm 0.30 in7.6 mm
08:30 PM 45.5°F7.5°C 41.3°F5.2°C 85% 4.2 mph NNE6.8 kmh NNE 8.9 mph14.3 kmh 30.09 in1019.0 mb 0.00 in0.0 mm 0.00 in0.0 mm 0.30 in7.6 mm
08:29 PM 45.5°F7.5°C 41.3°F5.2°C 85% 4.2 mph N6.8 kmh N 8.9 mph14.3 kmh 30.09 in1019.0 mb 0.00 in0.0 mm 0.00 in0.0 mm 0.30 in7.6 mm
08:28 PM 45.5°F7.5°C 41.3°F5.2°C 85% 3.7 mph NNE6.0 kmh NNE 8.9 mph14.3 kmh 30.09 in1019.0 mb 0.00 in0.0 mm 0.00 in0.0 mm 0.30 in7.6 mm
08:27 PM 45.5°F7.5°C 41.3°F5.2°C 85% 7.8 mph NNW12.6 kmh NNW 7.8 mph12.6 kmh 30.08 in1018.6 mb 0.00 in0.0 mm 0.00 in0.0 mm 0.30 in7.6 mm
08:26 PM 45.9°F7.7°C 41.6°F5.3°C 85% 6.3 mph NNE10.1 kmh NNE 7.3 mph11.7 kmh 30.08 in1018.6 mb 0.00 in0.0 mm 0.00 in0.0 mm 0.30 in7.6 mm
08:25 PM 45.9°F7.7°C 41.6°F5.3°C 85% 4.7 mph ESE7.6 kmh ESE 7.3 mph11.7 kmh 30.08 in1018.6 mb 0.00 in0.0 mm 0.00 in0.0 mm 0.30 in7.6 mm
08:24 PM 45.9°F7.7°C 41.6°F5.3°C 85% 4.7 mph NNW7.6 kmh NNW 7.3 mph11.7 kmh 30.08 in1018.6 mb 0.00 in0.0 mm 0.00 in0.0 mm 0.30 in7.6 mm
08:23 PM 46.0°F7.8°C 41.7°F5.4°C 85% 4.7 mph NW7.6 kmh NW 7.3 mph11.7 kmh 30.08 in1018.6 mb 0.00 in0.0 mm 0.00 in0.0 mm 0.30 in7.6 mm
08:22 PM 46.0°F7.8°C 41.7°F5.4°C 85% 4.2 mph N6.8 kmh N 7.8 mph12.6 kmh 30.08 in1018.6 mb 0.00 in0.0 mm 0.00 in0.0 mm 0.30 in7.6 mm
08:21 PM 46.2°F7.9°C 41.9°F5.5°C 85% 6.8 mph NNW10.9 kmh NNW 7.8 mph12.6 kmh 30.08 in1018.6 mb 0.00 in0.0 mm 0.00 in0.0 mm 0.30 in7.6 mm
08:20 PM 46.2°F7.9°C 41.9°F5.5°C 85% 3.2 mph N5.1 kmh N 7.8 mph12.6 kmh 30.08 in1018.6 mb 0.00 in0.0 mm 0.00 in0.0 mm 0.30 in7.6 mm
08:19 PM 46.2°F7.9°C 41.9°F5.5°C 85% 4.2 mph NNE6.8 kmh NNE 7.8 mph12.6 kmh 30.08 in1018.6 mb 0.00 in0.0 mm 0.00 in0.0 mm 0.30 in7.6 mm
08:18 PM 46.2°F7.9°C 41.9°F5.5°C 85% 2.7 mph NNE4.3 kmh NNE 7.8 mph12.6 kmh 30.08 in1018.6 mb 0.00 in0.0 mm 0.00 in0.0 mm 0.30 in7.6 mm
08:17 PM 46.2°F7.9°C 41.9°F5.5°C 85% 5.3 mph NNW8.5 kmh NNW 7.8 mph12.6 kmh 30.08 in1018.6 mb 0.00 in0.0 mm 0.00 in0.0 mm 0.30 in7.6 mm
08:16 PM 46.4°F8.0°C 41.8°F5.4°C 84% 4.2 mph NNW6.8 kmh NNW 7.8 mph12.6 kmh 30.08 in1018.6 mb 0.00 in0.0 mm 0.00 in0.0 mm 0.30 in7.6 mm
08:15 PM 46.4°F8.0°C 41.8°F5.4°C 84% 5.3 mph NNW8.5 kmh NNW 7.8 mph12.6 kmh 30.08 in1018.6 mb 0.00 in0.0 mm 0.00 in0.0 mm 0.30 in7.6 mm
08:14 PM 46.4°F8.0°C 41.8°F5.4°C 84% 4.2 mph N6.8 kmh N 7.8 mph12.6 kmh 30.06 in1017.9 mb 0.00 in0.0 mm 0.00 in0.0 mm 0.30 in7.6 mm
08:13 PM 46.4°F8.0°C 41.8°F5.4°C 84% 3.7 mph N6.0 kmh N 7.8 mph12.6 kmh 30.06 in1017.9 mb 0.00 in0.0 mm 0.00 in0.0 mm 0.30 in7.6 mm
08:12 PM 46.4°F8.0°C 41.8°F5.4°C 84% 7.8 mph NNE12.6 kmh NNE 7.8 mph12.6 kmh 30.06 in1017.9 mb 0.00 in0.0 mm 0.00 in0.0 mm 0.30 in7.6 mm
08:11 PM 46.6°F8.1°C 41.7°F5.4°C 83% 3.7 mph NNE6.0 kmh NNE 6.8 mph10.9 kmh 30.06 in1017.9 mb 0.00 in0.0 mm 0.00 in0.0 mm 0.30 in7.6 mm
08:10 PM 46.6°F8.1°C 41.7°F5.4°C 83% 5.8 mph NE9.3 kmh NE 6.8 mph10.9 kmh 30.06 in1017.9 mb 0.00 in0.0 mm 0.00 in0.0 mm 0.30 in7.6 mm
08:09 PM 46.6°F8.1°C 41.7°F5.4°C 83% 3.7 mph NW6.0 kmh NW 5.3 mph8.5 kmh 30.06 in1017.9 mb 0.00 in0.0 mm 0.00 in0.0 mm 0.30 in7.6 mm
08:08 PM 46.6°F8.1°C 41.7°F5.4°C 83% 4.2 mph NNW6.8 kmh NNW 5.3 mph8.5 kmh 30.06 in1017.9 mb 0.00 in0.0 mm 0.00 in0.0 mm 0.30 in7.6 mm
08:07 PM 46.6°F8.1°C 41.7°F5.4°C 83% 3.7 mph NNE6.0 kmh NNE 7.3 mph11.7 kmh 30.06 in1017.9 mb 0.00 in0.0 mm 0.00 in0.0 mm 0.30 in7.6 mm
08:06 PM 46.6°F8.1°C 41.7°F5.4°C 83% 3.2 mph NE5.1 kmh NE 7.3 mph11.7 kmh 30.06 in1017.9 mb 0.00 in0.0 mm 0.00 in0.0 mm 0.30 in7.6 mm
08:05 PM 46.6°F8.1°C 41.7°F5.4°C 83% 5.3 mph NNW8.5 kmh NNW 7.3 mph11.7 kmh 30.06 in1017.9 mb 0.00 in0.0 mm 0.00 in0.0 mm 0.30 in7.6 mm
08:04 PM 46.6°F8.1°C 41.4°F5.2°C 82% 4.7 mph NNE7.6 kmh NNE 7.3 mph11.7 kmh 30.06 in1017.9 mb 0.00 in0.0 mm 0.00 in0.0 mm 0.30 in7.6 mm
08:03 PM 46.6°F8.1°C 41.4°F5.2°C 82% 3.7 mph N6.0 kmh N 7.3 mph11.7 kmh 30.07 in1018.3 mb 0.00 in0.0 mm 0.00 in0.0 mm 0.30 in7.6 mm
08:02 PM 46.6°F8.1°C 41.4°F5.2°C 82% 3.2 mph NNE5.1 kmh NNE 7.3 mph11.7 kmh 30.07 in1018.3 mb 0.00 in0.0 mm 0.00 in0.0 mm 0.30 in7.6 mm
08:01 PM 46.8°F8.2°C 41.6°F5.3°C 82% 4.2 mph NNE6.8 kmh NNE 7.3 mph11.7 kmh 30.07 in1018.3 mb 0.00 in0.0 mm 0.00 in0.0 mm 0.30 in7.6 mm
08:00 PM 46.8°F8.2°C 41.6°F5.3°C 82% 4.7 mph NNW7.6 kmh NNW 7.3 mph11.7 kmh 30.07 in1018.3 mb 0.00 in0.0 mm 0.00 in0.0 mm 0.30 in7.6 mm
07:59 PM 46.8°F8.2°C 41.6°F5.3°C 82% 3.7 mph NNE6.0 kmh NNE 7.3 mph11.7 kmh 30.07 in1018.3 mb 0.00 in0.0 mm 0.00 in0.0 mm 0.30 in7.6 mm
07:58 PM 46.8°F8.2°C 41.3°F5.2°C 81% 3.2 mph NNE5.1 kmh NNE 7.3 mph11.7 kmh 30.07 in1018.3 mb 0.00 in0.0 mm 0.00 in0.0 mm 0.30 in7.6 mm
07:57 PM 46.9°F8.3°C 41.4°F5.2°C 81% 7.3 mph NNW11.7 kmh NNW 7.3 mph11.7 kmh 30.07 in1018.3 mb 0.00 in0.0 mm 0.00 in0.0 mm 0.30 in7.6 mm
07:56 PM 46.9°F8.3°C 41.4°F5.2°C 81% 4.7 mph N7.6 kmh N 6.8 mph10.9 kmh 30.07 in1018.3 mb 0.00 in0.0 mm 0.00 in0.0 mm 0.30 in7.6 mm
07:55 PM 46.9°F8.3°C 41.4°F5.2°C 81% 3.7 mph N6.0 kmh N 6.8 mph10.9 kmh 30.07 in1018.3 mb 0.00 in0.0 mm 0.00 in0.0 mm 0.30 in7.6 mm
07:54 PM 47.1°F8.4°C 41.6°F5.3°C 81% 5.8 mph NW9.3 kmh NW 6.8 mph10.9 kmh 30.07 in1018.3 mb 0.00 in0.0 mm 0.00 in0.0 mm 0.30 in7.6 mm
07:53 PM 47.1°F8.4°C 41.6°F5.3°C 81% 2.7 mph N4.3 kmh N 6.8 mph10.9 kmh 30.07 in1018.3 mb 0.00 in0.0 mm 0.00 in0.0 mm 0.30 in7.6 mm
07:52 PM 47.1°F8.4°C 41.6°F5.3°C 81% 3.7 mph NNW6.0 kmh NNW 6.8 mph10.9 kmh 30.07 in1018.3 mb 0.00 in0.0 mm 0.00 in0.0 mm 0.30 in7.6 mm
07:51 PM 47.1°F8.4°C 41.3°F5.2°C 80% 4.2 mph NNW6.8 kmh NNW 6.8 mph10.9 kmh 30.07 in1018.3 mb 0.00 in0.0 mm 0.00 in0.0 mm 0.30 in7.6 mm
07:50 PM 47.1°F8.4°C 41.3°F5.2°C 80% 2.7 mph N4.3 kmh N 6.8 mph10.9 kmh 30.06 in1017.9 mb 0.00 in0.0 mm 0.00 in0.0 mm 0.30 in7.6 mm
07:49 PM 47.1°F8.4°C 41.3°F5.2°C 80% 2.2 mph NNE3.5 kmh NNE 6.8 mph10.9 kmh 30.06 in1017.9 mb 0.00 in0.0 mm 0.00 in0.0 mm 0.30 in7.6 mm
07:48 PM 47.1°F8.4°C 41.3°F5.2°C 80% 3.2 mph NNE5.1 kmh NNE 6.8 mph10.9 kmh 30.06 in1017.9 mb 0.00 in0.0 mm 0.00 in0.0 mm 0.30 in7.6 mm
07:47 PM 47.3°F8.5°C 41.4°F5.2°C 80% 3.7 mph NW6.0 kmh NW 4.7 mph7.6 kmh 30.06 in1017.9 mb 0.00 in0.0 mm 0.00 in0.0 mm 0.30 in7.6 mm
07:46 PM 47.3°F8.5°C 41.4°F5.2°C 80% 3.7 mph NE6.0 kmh NE 4.7 mph7.6 kmh 30.06 in1017.9 mb 0.00 in0.0 mm 0.00 in0.0 mm 0.30 in7.6 mm
07:45 PM 47.3°F8.5°C 41.4°F5.2°C 80% 2.7 mph N4.3 kmh N 4.7 mph7.6 kmh 30.06 in1017.9 mb 0.00 in0.0 mm 0.00 in0.0 mm 0.30 in7.6 mm
07:44 PM 47.3°F8.5°C 41.4°F5.2°C 80% 3.2 mph NE5.1 kmh NE 4.7 mph7.6 kmh 30.06 in1017.9 mb 0.00 in0.0 mm 0.00 in0.0 mm 0.30 in7.6 mm
07:43 PM 47.3°F8.5°C 41.4°F5.2°C 80% 3.7 mph NW6.0 kmh NW 4.7 mph7.6 kmh 30.06 in1017.9 mb 0.00 in0.0 mm 0.00 in0.0 mm 0.30 in7.6 mm
07:42 PM 47.3°F8.5°C 41.4°F5.2°C 80% 2.7 mph NNE4.3 kmh NNE 4.7 mph7.6 kmh 30.06 in1017.9 mb 0.00 in0.0 mm 0.00 in0.0 mm 0.30 in7.6 mm
07:41 PM 47.3°F8.5°C 41.4°F5.2°C 80% 2.7 mph NNW4.3 kmh NNW 4.7 mph7.6 kmh 30.06 in1017.9 mb 0.00 in0.0 mm 0.00 in0.0 mm 0.30 in7.6 mm
07:40 PM 47.3°F8.5°C 41.4°F5.2°C 80% 3.2 mph NW5.1 kmh NW 4.7 mph7.6 kmh 30.06 in1017.9 mb 0.00 in0.0 mm 0.00 in0.0 mm 0.30 in7.6 mm
07:39 PM 47.3°F8.5°C 41.4°F5.2°C 80% 2.7 mph W4.3 kmh W 4.7 mph7.6 kmh 30.06 in1017.9 mb 0.00 in0.0 mm 0.00 in0.0 mm 0.30 in7.6 mm
07:38 PM 47.3°F8.5°C 41.4°F5.2°C 80% 3.2 mph NW5.1 kmh NW 4.7 mph7.6 kmh 30.06 in1017.9 mb 0.00 in0.0 mm 0.00 in0.0 mm 0.30 in7.6 mm
07:37 PM 47.3°F8.5°C 41.4°F5.2°C 80% 3.2 mph N5.1 kmh N 4.7 mph7.6 kmh 30.06 in1017.9 mb 0.00 in0.0 mm 0.00 in0.0 mm 0.30 in7.6 mm
07:36 PM 47.3°F8.5°C 41.4°F5.2°C 80% 4.7 mph NNW7.6 kmh NNW 7.3 mph11.7 kmh 30.06 in1017.9 mb 0.00 in0.0 mm 0.00 in0.0 mm 0.30 in7.6 mm
07:35 PM 47.3°F8.5°C 41.4°F5.2°C 80% 4.7 mph NNE7.6 kmh NNE 7.3 mph11.7 kmh 30.06 in1017.9 mb 0.00 in0.0 mm 0.00 in0.0 mm 0.30 in7.6 mm
07:34 PM 47.3°F8.5°C 41.4°F5.2°C 80% 4.2 mph N6.8 kmh N 7.3 mph11.7 kmh 30.06 in1017.9 mb 0.00 in0.0 mm 0.00 in0.0 mm 0.30 in7.6 mm
07:33 PM 47.3°F8.5°C 41.4°F5.2°C 80% 3.2 mph NW5.1 kmh NW 8.3 mph13.4 kmh 30.06 in1017.9 mb 0.00 in0.0 mm 0.00 in0.0 mm 0.30 in7.6 mm
07:32 PM 47.3°F8.5°C 41.4°F5.2°C 80% 3.7 mph N6.0 kmh N 8.3 mph13.4 kmh 30.06 in1017.9 mb 0.00 in0.0 mm 0.00 in0.0 mm 0.30 in7.6 mm
07:31 PM 47.5°F8.6°C 41.6°F5.3°C 80% 3.2 mph NNW5.1 kmh NNW 8.3 mph13.4 kmh 30.06 in1017.9 mb 0.00 in0.0 mm 0.00 in0.0 mm 0.30 in7.6 mm
07:30 PM 47.5°F8.6°C 41.6°F5.3°C 80% 4.7 mph NNW7.6 kmh NNW 8.3 mph13.4 kmh 30.06 in1017.9 mb 0.00 in0.0 mm 0.00 in0.0 mm 0.30 in7.6 mm
07:29 PM 47.5°F8.6°C 41.6°F5.3°C 80% 4.7 mph NW7.6 kmh NW 8.3 mph13.4 kmh 30.06 in1017.9 mb 0.00 in0.0 mm 0.00 in0.0 mm 0.30 in7.6 mm
07:28 PM 47.5°F8.6°C 41.6°F5.3°C 80% 3.2 mph N5.1 kmh N 8.3 mph13.4 kmh 30.06 in1017.9 mb 0.00 in0.0 mm 0.00 in0.0 mm 0.30 in7.6 mm
07:27 PM 47.5°F8.6°C 41.3°F5.2°C 79% 2.7 mph N4.3 kmh N 8.3 mph13.4 kmh 30.05 in1017.6 mb 0.00 in0.0 mm 0.00 in0.0 mm 0.30 in7.6 mm
07:26 PM 47.5°F8.6°C 41.3°F5.2°C 79% 4.2 mph NNE6.8 kmh NNE 8.3 mph13.4 kmh 30.05 in1017.6 mb 0.00 in0.0 mm 0.00 in0.0 mm 0.30 in7.6 mm
07:25 PM 47.7°F8.7°C 41.5°F5.3°C 79% 6.3 mph NNW10.1 kmh NNW 8.3 mph13.4 kmh 30.05 in1017.6 mb 0.00 in0.0 mm 0.00 in0.0 mm 0.30 in7.6 mm
07:24 PM 47.7°F8.7°C 41.5°F5.3°C 79% 5.3 mph NNW8.5 kmh NNW 8.3 mph13.4 kmh 30.05 in1017.6 mb 0.00 in0.0 mm 0.00 in0.0 mm 0.30 in7.6 mm
07:23 PM 47.7°F8.7°C 41.5°F5.3°C 79% 6.3 mph NNW10.1 kmh NNW 6.8 mph10.9 kmh 30.05 in1017.6 mb 0.00 in0.0 mm 0.00 in0.0 mm 0.30 in7.6 mm
07:22 PM 47.7°F8.7°C 41.5°F5.3°C 79% 4.2 mph NNW6.8 kmh NNW 6.8 mph10.9 kmh 30.05 in1017.6 mb 0.00 in0.0 mm 0.00 in0.0 mm 0.30 in7.6 mm
07:21 PM 47.7°F8.7°C 41.5°F5.3°C 79% 5.8 mph NE9.3 kmh NE 6.8 mph10.9 kmh 30.05 in1017.6 mb 0.00 in0.0 mm 0.00 in0.0 mm 0.30 in7.6 mm
07:20 PM 47.8°F8.8°C 41.6°F5.3°C 79% 4.7 mph E7.6 kmh E 6.8 mph10.9 kmh 30.05 in1017.6 mb 0.00 in0.0 mm 0.00 in0.0 mm 0.30 in7.6 mm
07:19 PM 47.8°F8.8°C 41.6°F5.3°C 79% 3.2 mph NNW5.1 kmh NNW 6.3 mph10.1 kmh 30.05 in1017.6 mb 0.00 in0.0 mm 0.00 in0.0 mm 0.30 in7.6 mm
07:18 PM 47.8°F8.8°C 41.6°F5.3°C 79% 5.8 mph NNW9.3 kmh NNW 6.3 mph10.1 kmh 30.05 in1017.6 mb 0.00 in0.0 mm 0.00 in0.0 mm 0.30 in7.6 mm
07:17 PM 47.8°F8.8°C 41.6°F5.3°C 79% 4.2 mph NW6.8 kmh NW 7.8 mph12.6 kmh 30.05 in1017.6 mb 0.00 in0.0 mm 0.00 in0.0 mm 0.30 in7.6 mm
07:16 PM 47.8°F8.8°C 41.6°F5.3°C 79% 5.8 mph NNW9.3 kmh NNW 7.8 mph12.6 kmh 30.05 in1017.6 mb 0.00 in0.0 mm 0.00 in0.0 mm 0.30 in7.6 mm
07:15 PM 48.0°F8.9°C 41.8°F5.4°C 79% 5.3 mph WNW8.5 kmh WNW 7.8 mph12.6 kmh 30.05 in1017.6 mb 0.00 in0.0 mm 0.00 in0.0 mm 0.30 in7.6 mm
07:14 PM 48.0°F8.9°C 41.5°F5.3°C 78% 3.2 mph ESE5.1 kmh ESE 7.8 mph12.6 kmh 30.05 in1017.6 mb 0.00 in0.0 mm 0.00 in0.0 mm 0.30 in7.6 mm
07:13 PM 48.0°F8.9°C 41.5°F5.3°C 78% 6.3 mph NNW10.1 kmh NNW 7.8 mph12.6 kmh 30.05 in1017.6 mb 0.00 in0.0 mm 0.00 in0.0 mm 0.30 in7.6 mm
07:12 PM 48.0°F8.9°C 41.5°F5.3°C 78% 4.2 mph N6.8 kmh N 7.8 mph12.6 kmh 30.05 in1017.6 mb 0.00 in0.0 mm 0.00 in0.0 mm 0.30 in7.6 mm
07:11 PM 48.2°F9.0°C 41.7°F5.4°C 78% 3.2 mph NNW5.1 kmh NNW 7.8 mph12.6 kmh 30.05 in1017.6 mb 0.00 in0.0 mm 0.00 in0.0 mm 0.30 in7.6 mm
07:10 PM 48.2°F9.0°C 41.7°F5.4°C 78% 3.7 mph N6.0 kmh N 7.8 mph12.6 kmh 30.05 in1017.6 mb 0.00 in0.0 mm 0.00 in0.0 mm 0.30 in7.6 mm
07:09 PM 48.2°F9.0°C 41.7°F5.4°C 78% 6.3 mph NNW10.1 kmh NNW 7.8 mph12.6 kmh 30.05 in1017.6 mb 0.00 in0.0 mm 0.00 in0.0 mm 0.30 in7.6 mm
07:08 PM 48.2°F9.0°C 41.7°F5.4°C 78% 3.7 mph NNE6.0 kmh NNE 7.8 mph12.6 kmh 30.05 in1017.6 mb 0.00 in0.0 mm 0.00 in0.0 mm 0.30 in7.6 mm
07:07 PM 48.4°F9.1°C 41.9°F5.5°C 78% 7.8 mph N12.6 kmh N 7.8 mph12.6 kmh 30.05 in1017.6 mb 0.00 in0.0 mm 0.00 in0.0 mm 0.30 in7.6 mm
07:06 PM 48.6°F9.2°C 41.7°F5.4°C 77% 4.7 mph NNW7.6 kmh NNW 6.3 mph10.1 kmh 30.05 in1017.6 mb 0.00 in0.0 mm 0.00 in0.0 mm 0.30 in7.6 mm
07:05 PM 48.6°F9.2°C 41.7°F5.4°C 77% 2.7 mph N4.3 kmh N 6.3 mph10.1 kmh 30.05 in1017.6 mb 0.00 in0.0 mm 0.00 in0.0 mm 0.30 in7.6 mm
07:04 PM 48.6°F9.2°C 41.7°F5.4°C 77% 5.3 mph NNW8.5 kmh NNW 6.8 mph10.9 kmh 30.05 in1017.6 mb 0.00 in0.0 mm 0.00 in0.0 mm 0.30 in7.6 mm
07:03 PM 48.7°F9.3°C 41.8°F5.4°C 77% 3.7 mph N6.0 kmh N 6.8 mph10.9 kmh 30.04 in1017.3 mb 0.00 in0.0 mm 0.00 in0.0 mm 0.30 in7.6 mm
07:02 PM 48.7°F9.3°C 41.8°F5.4°C 77% 4.2 mph NNW6.8 kmh NNW 6.8 mph10.9 kmh 30.04 in1017.3 mb 0.00 in0.0 mm 0.00 in0.0 mm 0.30 in7.6 mm
07:01 PM 48.7°F9.3°C 41.8°F5.4°C 77% 2.7 mph NNW4.3 kmh NNW 6.8 mph10.9 kmh 30.04 in1017.3 mb 0.00 in0.0 mm 0.00 in0.0 mm 0.30 in7.6 mm
07:00 PM 48.7°F9.3°C 41.8°F5.4°C 77% 4.2 mph WNW6.8 kmh WNW 6.8 mph10.9 kmh 30.04 in1017.3 mb 0.00 in0.0 mm 0.00 in0.0 mm 0.30 in7.6 mm
06:59 PM 48.7°F9.3°C 41.8°F5.4°C 77% 3.7 mph NNW6.0 kmh NNW 6.8 mph10.9 kmh 30.04 in1017.3 mb 0.00 in0.0 mm 0.00 in0.0 mm 0.30 in7.6 mm
06:58 PM 48.7°F9.3°C 41.8°F5.4°C 77% 6.3 mph NNW10.1 kmh NNW 6.8 mph10.9 kmh 30.04 in1017.3 mb 0.00 in0.0 mm 0.00 in0.0 mm 0.30 in7.6 mm
06:57 PM 48.7°F9.3°C 41.8°F5.4°C 77% 5.8 mph NNW9.3 kmh NNW 6.8 mph10.9 kmh 30.04 in1017.3 mb 0.00 in0.0 mm 0.00 in0.0 mm 0.30 in7.6 mm
06:56 PM 48.7°F9.3°C 41.8°F5.4°C 77% 3.7 mph NW6.0 kmh NW 6.8 mph10.9 kmh 30.04 in1017.3 mb 0.00 in0.0 mm 0.00 in0.0 mm 0.30 in7.6 mm
06:55 PM 48.9°F9.4°C 41.7°F5.4°C 76% 5.8 mph NNE9.3 kmh NNE 6.8 mph10.9 kmh 30.04 in1017.3 mb 0.00 in0.0 mm 0.00 in0.0 mm 0.30 in7.6 mm
06:54 PM 48.9°F9.4°C 41.7°F5.4°C 76% 4.2 mph NW6.8 kmh NW 6.8 mph10.9 kmh 30.04 in1017.3 mb 0.00 in0.0 mm 0.00 in0.0 mm 0.30 in7.6 mm
06:53 PM 48.9°F9.4°C 41.7°F5.4°C 76% 6.8 mph E10.9 kmh E 6.8 mph10.9 kmh 30.04 in1017.3 mb 0.00 in0.0 mm 0.00 in0.0 mm 0.30 in7.6 mm
06:52 PM 49.1°F9.5°C 41.9°F5.5°C 76% 4.7 mph NNE7.6 kmh NNE 6.3 mph10.1 kmh 30.04 in1017.3 mb 0.00 in0.0 mm 0.00 in0.0 mm 0.30 in7.6 mm
06:51 PM 49.1°F9.5°C 41.9°F5.5°C 76% 6.3 mph NNW10.1 kmh NNW 6.3 mph10.1 kmh 30.04 in1017.3 mb 0.00 in0.0 mm 0.00 in0.0 mm 0.30 in7.6 mm
06:50 PM 49.1°F9.5°C 41.9°F5.5°C 76% 2.7 mph NE4.3 kmh NE 6.3 mph10.1 kmh 30.04 in1017.3 mb 0.00 in0.0 mm 0.00 in0.0 mm 0.30 in7.6 mm
06:49 PM 49.1°F9.5°C 41.9°F5.5°C 76% 4.7 mph ESE7.6 kmh ESE 6.3 mph10.1 kmh 30.04 in1017.3 mb 0.00 in0.0 mm 0.00 in0.0 mm 0.30 in7.6 mm
06:48 PM 49.1°F9.5°C 41.5°F5.3°C 75% 3.7 mph NNW6.0 kmh NNW 6.3 mph10.1 kmh 30.04 in1017.3 mb 0.00 in0.0 mm 0.00 in0.0 mm 0.30 in7.6 mm
06:47 PM 49.3°F9.6°C 41.7°F5.4°C 75% 3.2 mph NE5.1 kmh NE 6.3 mph10.1 kmh 30.04 in1017.3 mb 0.00 in0.0 mm 0.00 in0.0 mm 0.30 in7.6 mm
06:46 PM 49.3°F9.6°C 41.7°F5.4°C 75% 3.2 mph N5.1 kmh N 6.3 mph10.1 kmh 30.04 in1017.3 mb 0.00 in0.0 mm 0.00 in0.0 mm 0.30 in7.6 mm
06:45 PM 49.3°F9.6°C 41.7°F5.4°C 75% 4.2 mph WNW6.8 kmh WNW 6.3 mph10.1 kmh 30.04 in1017.3 mb 0.00 in0.0 mm 0.00 in0.0 mm 0.30 in7.6 mm
06:44 PM 49.5°F9.7°C 41.9°F5.5°C 75% 5.3 mph NNW8.5 kmh NNW 6.3 mph10.1 kmh 30.04 in1017.3 mb 0.00 in0.0 mm 0.00 in0.0 mm 0.30 in7.6 mm
06:43 PM 49.5°F9.7°C 41.9°F5.5°C 75% 4.2 mph NNW6.8 kmh NNW 5.3 mph8.5 kmh 30.04 in1017.3 mb 0.00 in0.0 mm 0.00 in0.0 mm 0.30 in7.6 mm
06:42 PM 49.6°F9.8°C 42.0°F5.6°C 75% 4.2 mph N6.8 kmh N 6.8 mph10.9 kmh 30.04 in1017.3 mb 0.00 in0.0 mm 0.00 in0.0 mm 0.30 in7.6 mm
06:41 PM 49.8°F9.9°C 41.9°F5.5°C 74% 3.2 mph NE5.1 kmh NE 6.8 mph10.9 kmh 30.04 in1017.3 mb 0.00 in0.0 mm 0.00 in0.0 mm 0.30 in7.6 mm
06:40 PM 49.8°F9.9°C 41.9°F5.5°C 74% 4.7 mph NNW7.6 kmh NNW 6.8 mph10.9 kmh 30.04 in1017.3 mb 0.00 in0.0 mm 0.00 in0.0 mm 0.30 in7.6 mm
06:39 PM 50.0°F10.0°C 42.0°F5.6°C 74% 5.3 mph NNW8.5 kmh NNW 9.9 mph15.9 kmh 30.04 in1017.3 mb 0.00 in0.0 mm 0.00 in0.0 mm 0.30 in7.6 mm
06:38 PM 50.0°F10.0°C 42.0°F5.6°C 74% 3.2 mph WNW5.1 kmh WNW 9.9 mph15.9 kmh 30.03 in1016.9 mb 0.00 in0.0 mm 0.00 in0.0 mm 0.30 in7.6 mm
06:37 PM 50.0°F10.0°C 42.0°F5.6°C 74% 3.2 mph NW5.1 kmh NW 9.9 mph15.9 kmh 30.03 in1016.9 mb 0.00 in0.0 mm 0.00 in0.0 mm 0.30 in7.6 mm
06:36 PM 50.0°F10.0°C 42.0°F5.6°C 74% 2.7 mph N4.3 kmh N 9.9 mph15.9 kmh 30.03 in1016.9 mb 0.00 in0.0 mm 0.00 in0.0 mm 0.30 in7.6 mm
06:35 PM 50.0°F10.0°C 42.0°F5.6°C 74% 3.7 mph NNW6.0 kmh NNW 9.9 mph15.9 kmh 30.03 in1016.9 mb 0.00 in0.0 mm 0.00 in0.0 mm 0.30 in7.6 mm
06:34 PM 50.0°F10.0°C 42.0°F5.6°C 74% 4.7 mph NNW7.6 kmh NNW 9.9 mph15.9 kmh 30.03 in1016.9 mb 0.00 in0.0 mm 0.00 in0.0 mm 0.30 in7.6 mm
06:33 PM 50.2°F10.1°C 41.9°F5.5°C 73% 3.7 mph NW6.0 kmh NW 9.9 mph15.9 kmh 30.03 in1016.9 mb 0.00 in0.0 mm 0.00 in0.0 mm 0.30 in7.6 mm
06:32 PM 50.2°F10.1°C 41.9°F5.5°C 73% 5.3 mph N8.5 kmh N 9.9 mph15.9 kmh 30.03 in1016.9 mb 0.00 in0.0 mm 0.00 in0.0 mm 0.30 in7.6 mm
06:31 PM 50.5°F10.3°C 42.2°F5.7°C 73% 4.2 mph N6.8 kmh N 9.9 mph15.9 kmh 30.03 in1016.9 mb 0.00 in0.0 mm 0.00 in0.0 mm 0.30 in7.6 mm
06:30 PM 50.7°F10.4°C 42.4°F5.8°C 73% 5.3 mph W8.5 kmh W 9.9 mph15.9 kmh 30.03 in1016.9 mb 0.00 in0.0 mm 0.00 in0.0 mm 0.30 in7.6 mm
06:29 PM 50.9°F10.5°C 42.6°F5.9°C 73% 5.3 mph NNW8.5 kmh NNW 5.8 mph9.3 kmh 30.03 in1016.9 mb 0.00 in0.0 mm 0.00 in0.0 mm 0.30 in7.6 mm
06:23 PM 51.6°F10.9°C 42.9°F6.1°C 72% 4.7 mph NNW7.6 kmh NNW 5.8 mph9.3 kmh 30.02 in1016.6 mb 0.00 in0.0 mm 0.00 in0.0 mm 0.30 in7.6 mm
06:22 PM 51.6°F10.9°C 42.9°F6.1°C 72% 3.7 mph N6.0 kmh N 5.8 mph9.3 kmh 30.02 in1016.6 mb 0.00 in0.0 mm 0.00 in0.0 mm 0.30 in7.6 mm
06:21 PM 51.6°F10.9°C 42.9°F6.1°C 72% 2.2 mph N3.5 kmh N 5.8 mph9.3 kmh 30.02 in1016.6 mb 0.00 in0.0 mm 0.00 in0.0 mm 0.30 in7.6 mm
06:20 PM 51.8°F11.0°C 43.1°F6.2°C 72% 5.8 mph N9.3 kmh N 5.8 mph9.3 kmh 30.02 in1016.6 mb 0.00 in0.0 mm 0.00 in0.0 mm 0.30 in7.6 mm
06:19 PM 51.8°F11.0°C 43.1°F6.2°C 72% 3.2 mph NNW5.1 kmh NNW 5.8 mph9.3 kmh 30.02 in1016.6 mb 0.00 in0.0 mm 0.00 in0.0 mm 0.30 in7.6 mm
06:18 PM 51.8°F11.0°C 43.1°F6.2°C 72% 3.2 mph NNW5.1 kmh NNW 6.8 mph10.9 kmh 30.02 in1016.6 mb 0.00 in0.0 mm 0.00 in0.0 mm 0.30 in7.6 mm
06:17 PM 51.8°F11.0°C 43.1°F6.2°C 72% 2.2 mph NNW3.5 kmh NNW 6.8 mph10.9 kmh 30.02 in1016.6 mb 0.00 in0.0 mm 0.00 in0.0 mm 0.30 in7.6 mm
06:16 PM 51.8°F11.0°C 43.1°F6.2°C 72% 3.7 mph WNW6.0 kmh WNW 6.8 mph10.9 kmh 30.02 in1016.6 mb 0.00 in0.0 mm 0.00 in0.0 mm 0.30 in7.6 mm
06:15 PM 51.8°F11.0°C 42.7°F5.9°C 71% 4.2 mph NW6.8 kmh NW 6.8 mph10.9 kmh 30.02 in1016.6 mb 0.00 in0.0 mm 0.00 in0.0 mm 0.30 in7.6 mm
06:14 PM 52.0°F11.1°C 42.9°F6.1°C 71% 5.3 mph NW8.5 kmh NW 6.8 mph10.9 kmh 30.01 in1016.3 mb 0.00 in0.0 mm 0.00 in0.0 mm 0.30 in7.6 mm
06:13 PM 52.2°F11.2°C 43.1°F6.2°C 71% 3.7 mph N6.0 kmh N 6.8 mph10.9 kmh 30.01 in1016.3 mb 0.00 in0.0 mm 0.00 in0.0 mm 0.30 in7.6 mm
06:12 PM 52.2°F11.2°C 43.1°F6.2°C 71% 4.2 mph NW6.8 kmh NW 6.8 mph10.9 kmh 30.01 in1016.3 mb 0.00 in0.0 mm 0.00 in0.0 mm 0.30 in7.6 mm
06:11 PM 52.3°F11.3°C 43.2°F6.2°C 71% 3.7 mph NNW6.0 kmh NNW 6.8 mph10.9 kmh 30.01 in1016.3 mb 0.00 in0.0 mm 0.00 in0.0 mm 0.30 in7.6 mm
06:10 PM 52.3°F11.3°C 43.2°F6.2°C 71% 4.7 mph WNW7.6 kmh WNW 6.8 mph10.9 kmh 30.01 in1016.3 mb 0.00 in0.0 mm 0.00 in0.0 mm 0.30 in7.6 mm
06:09 PM 52.3°F11.3°C 43.2°F6.2°C 71% 4.2 mph NNW6.8 kmh NNW 6.8 mph10.9 kmh 30.01 in1016.3 mb 0.00 in0.0 mm 0.00 in0.0 mm 0.30 in7.6 mm
06:08 PM 52.5°F11.4°C 43.4°F6.3°C 71% 6.8 mph NNW10.9 kmh NNW 6.8 mph10.9 kmh 30.01 in1016.3 mb 0.00 in0.0 mm 0.00 in0.0 mm 0.30 in7.6 mm
06:07 PM 52.7°F11.5°C 43.6°F6.4°C 71% 3.7 mph NNW6.0 kmh NNW 6.3 mph10.1 kmh 30.01 in1016.3 mb 0.00 in0.0 mm 0.00 in0.0 mm 0.30 in7.6 mm
06:06 PM 52.7°F11.5°C 43.6°F6.4°C 71% 3.7 mph NNE6.0 kmh NNE 7.3 mph11.7 kmh 30.01 in1016.3 mb 0.00 in0.0 mm 0.00 in0.0 mm 0.30 in7.6 mm
06:05 PM 52.7°F11.5°C 43.6°F6.4°C 71% 2.7 mph NNW4.3 kmh NNW 8.9 mph14.3 kmh 30.01 in1016.3 mb 0.00 in0.0 mm 0.00 in0.0 mm 0.30 in7.6 mm
06:04 PM 52.7°F11.5°C 43.6°F6.4°C 71% 2.7 mph NNW4.3 kmh NNW 8.9 mph14.3 kmh 30.01 in1016.3 mb 0.00 in0.0 mm 0.00 in0.0 mm 0.30 in7.6 mm
06:03 PM 52.7°F11.5°C 43.6°F6.4°C 71% 2.7 mph NNW4.3 kmh NNW 8.9 mph14.3 kmh 30.01 in1016.3 mb 0.00 in0.0 mm 0.00 in0.0 mm 0.30 in7.6 mm
06:02 PM 52.5°F11.4°C 43.4°F6.3°C 71% 2.7 mph NNE4.3 kmh NNE 8.9 mph14.3 kmh 30.00 in1015.9 mb 0.00 in0.0 mm 0.00 in0.0 mm 0.30 in7.6 mm
06:01 PM 52.5°F11.4°C 43.4°F6.3°C 71% 2.7 mph N4.3 kmh N 8.9 mph14.3 kmh 30.00 in1015.9 mb 0.00 in0.0 mm 0.00 in0.0 mm 0.30 in7.6 mm
06:00 PM 52.5°F11.4°C 43.4°F6.3°C 71% 2.2 mph NNE3.5 kmh NNE 8.9 mph14.3 kmh 30.00 in1015.9 mb 0.00 in0.0 mm 0.00 in0.0 mm 0.30 in7.6 mm
05:59 PM 52.5°F11.4°C 43.0°F6.1°C 70% 3.7 mph NNW6.0 kmh NNW 8.9 mph14.3 kmh 30.00 in1015.9 mb 0.00 in0.0 mm 0.00 in0.0 mm 0.30 in7.6 mm
05:58 PM 52.5°F11.4°C 43.0°F6.1°C 70% 2.7 mph E4.3 kmh E 8.9 mph14.3 kmh 30.00 in1015.9 mb 0.00 in0.0 mm 0.00 in0.0 mm 0.30 in7.6 mm
05:57 PM 52.7°F11.5°C 43.2°F6.2°C 70% 6.3 mph NNW10.1 kmh NNW 8.9 mph14.3 kmh 30.00 in1015.9 mb 0.00 in0.0 mm 0.00 in0.0 mm 0.30 in7.6 mm
05:56 PM 52.9°F11.6°C 43.4°F6.3°C 70% 3.7 mph NW6.0 kmh NW 8.9 mph14.3 kmh 30.00 in1015.9 mb 0.00 in0.0 mm 0.00 in0.0 mm 0.30 in7.6 mm
05:55 PM 53.1°F11.7°C 43.6°F6.4°C 70% 7.3 mph NNW11.7 kmh NNW 7.3 mph11.7 kmh 30.00 in1015.9 mb 0.00 in0.0 mm 0.00 in0.0 mm 0.30 in7.6 mm
05:54 PM 53.4°F11.9°C 43.9°F6.6°C 70% 7.3 mph W11.7 kmh W 7.3 mph11.7 kmh 30.00 in1015.9 mb 0.00 in0.0 mm 0.00 in0.0 mm 0.30 in7.6 mm
05:53 PM 53.4°F11.9°C 43.9°F6.6°C 70% 3.2 mph NNE5.1 kmh NNE 6.3 mph10.1 kmh 30.00 in1015.9 mb 0.00 in0.0 mm 0.00 in0.0 mm 0.30 in7.6 mm
05:52 PM 53.4°F11.9°C 43.9°F6.6°C 70% 3.7 mph NE6.0 kmh NE 6.8 mph10.9 kmh 30.00 in1015.9 mb 0.00 in0.0 mm 0.00 in0.0 mm 0.30 in7.6 mm
05:51 PM 53.4°F11.9°C 43.9°F6.6°C 70% 3.2 mph NNE5.1 kmh NNE 6.8 mph10.9 kmh 29.99 in1015.6 mb 0.00 in0.0 mm 0.00 in0.0 mm 0.30 in7.6 mm
05:50 PM 53.6°F12.0°C 44.1°F6.7°C 70% 5.8 mph WNW9.3 kmh WNW 6.8 mph10.9 kmh 29.99 in1015.6 mb 0.00 in0.0 mm 0.00 in0.0 mm 0.30 in7.6 mm
05:49 PM 53.6°F12.0°C 44.1°F6.7°C 70% 4.2 mph NW6.8 kmh NW 6.8 mph10.9 kmh 29.99 in1015.6 mb 0.00 in0.0 mm 0.00 in0.0 mm 0.30 in7.6 mm
05:48 PM 53.8°F12.1°C 44.2°F6.8°C 70% 5.8 mph N9.3 kmh N 6.8 mph10.9 kmh 29.99 in1015.6 mb 0.00 in0.0 mm 0.00 in0.0 mm 0.30 in7.6 mm
05:47 PM 53.8°F12.1°C 44.2°F6.8°C 70% 3.7 mph ENE6.0 kmh ENE 6.8 mph10.9 kmh 29.99 in1015.6 mb 0.00 in0.0 mm 0.00 in0.0 mm 0.30 in7.6 mm
05:46 PM 53.8°F12.1°C 44.2°F6.8°C 70% 6.3 mph NNW10.1 kmh NNW 6.8 mph10.9 kmh 29.99 in1015.6 mb 0.00 in0.0 mm 0.00 in0.0 mm 0.30 in7.6 mm
05:45 PM 53.8°F12.1°C 44.2°F6.8°C 70% 5.3 mph NW8.5 kmh NW 6.8 mph10.9 kmh 29.99 in1015.6 mb 0.00 in0.0 mm 0.00 in0.0 mm 0.30 in7.6 mm
05:44 PM 54.0°F12.2°C 44.4°F6.9°C 70% 4.7 mph N7.6 kmh N 6.8 mph10.9 kmh 29.99 in1015.6 mb 0.00 in0.0 mm 0.00 in0.0 mm 0.30 in7.6 mm
05:43 PM 54.0°F12.2°C 44.4°F6.9°C 70% 3.2 mph ESE5.1 kmh ESE 6.8 mph10.9 kmh 29.99 in1015.6 mb 0.00 in0.0 mm 0.00 in0.0 mm 0.30 in7.6 mm
05:42 PM 54.0°F12.2°C 44.4°F6.9°C 70% 6.8 mph NNW10.9 kmh NNW 7.3 mph11.7 kmh 29.99 in1015.6 mb 0.00 in0.0 mm 0.00 in0.0 mm 0.30 in7.6 mm
05:41 PM 54.0°F12.2°C 44.4°F6.9°C 70% 3.7 mph NE6.0 kmh NE 7.3 mph11.7 kmh 29.99 in1015.6 mb 0.00 in0.0 mm 0.00 in0.0 mm 0.30 in7.6 mm
05:40 PM 54.0°F12.2°C 44.4°F6.9°C 70% 3.2 mph NNE5.1 kmh NNE 7.8 mph12.6 kmh 29.99 in1015.6 mb 0.00 in0.0 mm 0.00 in0.0 mm 0.30 in7.6 mm
05:39 PM 54.0°F12.2°C 44.4°F6.9°C 70% 4.2 mph NNE6.8 kmh NNE 8.9 mph14.3 kmh 29.99 in1015.6 mb 0.00 in0.0 mm 0.00 in0.0 mm 0.30 in7.6 mm
05:38 PM 54.0°F12.2°C 44.4°F6.9°C 70% 3.2 mph NNW5.1 kmh NNW 8.9 mph14.3 kmh 29.99 in1015.6 mb 0.00 in0.0 mm 0.00 in0.0 mm 0.30 in7.6 mm
05:37 PM 54.0°F12.2°C 44.4°F6.9°C 70% 4.2 mph NNW6.8 kmh NNW 8.9 mph14.3 kmh 29.99 in1015.6 mb 0.00 in0.0 mm 0.00 in0.0 mm 0.30 in7.6 mm
05:36 PM 54.1°F12.3°C 44.5°F6.9°C 70% 4.2 mph NNW6.8 kmh NNW 8.9 mph14.3 kmh 29.99 in1015.6 mb 0.00 in0.0 mm 0.00 in0.0 mm 0.30 in7.6 mm
05:35 PM 54.1°F12.3°C 44.5°F6.9°C 70% 6.3 mph NNW10.1 kmh NNW 8.9 mph14.3 kmh 29.99 in1015.6 mb 0.00 in0.0 mm 0.00 in0.0 mm 0.30 in7.6 mm
05:34 PM 54.1°F12.3°C 44.5°F6.9°C 70% 3.2 mph N5.1 kmh N 8.9 mph14.3 kmh 29.99 in1015.6 mb 0.00 in0.0 mm 0.00 in0.0 mm 0.30 in7.6 mm
05:33 PM 54.1°F12.3°C 44.2°F6.8°C 69% 4.2 mph NNE6.8 kmh NNE 8.9 mph14.3 kmh 29.99 in1015.6 mb 0.00 in0.0 mm 0.00 in0.0 mm 0.30 in7.6 mm
05:32 PM 54.3°F12.4°C 44.3°F6.8°C 69% 7.3 mph NW11.7 kmh NW 8.9 mph14.3 kmh 29.99 in1015.6 mb 0.00 in0.0 mm 0.00 in0.0 mm 0.30 in7.6 mm
05:31 PM 54.3°F12.4°C 44.3°F6.8°C 69% 7.3 mph NW11.7 kmh NW 8.9 mph14.3 kmh 29.99 in1015.6 mb 0.00 in0.0 mm 0.00 in0.0 mm 0.30 in7.6 mm
05:30 PM 54.7°F12.6°C 44.7°F7.1°C 69% 7.8 mph NW12.6 kmh NW 8.9 mph14.3 kmh 29.99 in1015.6 mb 0.00 in0.0 mm 0.00 in0.0 mm 0.30 in7.6 mm
05:29 PM 54.9°F12.7°C 44.9°F7.2°C 69% 4.7 mph WNW7.6 kmh WNW 7.8 mph12.6 kmh 29.99 in1015.6 mb 0.00 in0.0 mm 0.00 in0.0 mm 0.30 in7.6 mm
05:28 PM 54.9°F12.7°C 44.9°F7.2°C 69% 4.7 mph NNW7.6 kmh NNW 7.8 mph12.6 kmh 29.99 in1015.6 mb 0.00 in0.0 mm 0.00 in0.0 mm 0.30 in7.6 mm
05:27 PM 55.0°F12.8°C 45.0°F7.2°C 69% 3.7 mph NNW6.0 kmh NNW 9.9 mph15.9 kmh 29.98 in1015.2 mb 0.00 in0.0 mm 0.00 in0.0 mm 0.30 in7.6 mm
05:26 PM 55.2°F12.9°C 45.2°F7.3°C 69% 7.3 mph WNW11.7 kmh WNW 9.9 mph15.9 kmh 29.98 in1015.2 mb 0.00 in0.0 mm 0.00 in0.0 mm 0.30 in7.6 mm
05:25 PM 55.6°F13.1°C 45.6°F7.6°C 69% 4.7 mph E7.6 kmh E 9.9 mph15.9 kmh 29.98 in1015.2 mb 0.00 in0.0 mm 0.00 in0.0 mm 0.30 in7.6 mm
05:24 PM 55.6°F13.1°C 45.6°F7.6°C 69% 3.2 mph N5.1 kmh N 9.9 mph15.9 kmh 29.98 in1015.2 mb 0.00 in0.0 mm 0.00 in0.0 mm 0.30 in7.6 mm
05:23 PM 55.8°F13.2°C 45.8°F7.7°C 69% 2.7 mph NNW4.3 kmh NNW 9.9 mph15.9 kmh 29.98 in1015.2 mb 0.00 in0.0 mm 0.00 in0.0 mm 0.30 in7.6 mm
05:22 PM 55.9°F13.3°C 45.9°F7.7°C 69% 5.3 mph WNW8.5 kmh WNW 9.9 mph15.9 kmh 29.98 in1015.2 mb 0.00 in0.0 mm 0.00 in0.0 mm 0.30 in7.6 mm
05:21 PM 55.9°F13.3°C 45.9°F7.7°C 69% 4.7 mph NW7.6 kmh NW 9.9 mph15.9 kmh 29.98 in1015.2 mb 0.00 in0.0 mm 0.00 in0.0 mm 0.30 in7.6 mm
05:20 PM 55.9°F13.3°C 45.9°F7.7°C 69% 4.2 mph NNE6.8 kmh NNE 9.9 mph15.9 kmh 29.98 in1015.2 mb 0.00 in0.0 mm 0.00 in0.0 mm 0.30 in7.6 mm
05:19 PM 56.1°F13.4°C 46.1°F7.8°C 69% 4.7 mph NNW7.6 kmh NNW 9.9 mph15.9 kmh 29.98 in1015.2 mb 0.00 in0.0 mm 0.00 in0.0 mm 0.30 in7.6 mm
05:18 PM 56.3°F13.5°C 46.3°F7.9°C 69% 2.7 mph NNE4.3 kmh NNE 9.9 mph15.9 kmh 29.98 in1015.2 mb 0.00 in0.0 mm 0.00 in0.0 mm 0.30 in7.6 mm
05:17 PM 56.5°F13.6°C 46.8°F8.2°C 70% 4.7 mph NW7.6 kmh NW 5.8 mph9.3 kmh 29.98 in1015.2 mb 0.00 in0.0 mm 0.00 in0.0 mm 0.30 in7.6 mm
05:16 PM 56.5°F13.6°C 46.8°F8.2°C 70% 2.7 mph ENE4.3 kmh ENE 5.8 mph9.3 kmh 29.98 in1015.2 mb 0.00 in0.0 mm 0.00 in0.0 mm 0.30 in7.6 mm
05:15 PM 56.7°F13.7°C 47.0°F8.3°C 70% 2.7 mph NE4.3 kmh NE 5.8 mph9.3 kmh 29.98 in1015.2 mb 0.00 in0.0 mm 0.00 in0.0 mm 0.30 in7.6 mm
05:14 PM 56.8°F13.8°C 47.1°F8.4°C 70% 4.2 mph NNW6.8 kmh NNW 5.8 mph9.3 kmh 29.98 in1015.2 mb 0.00 in0.0 mm 0.00 in0.0 mm 0.30 in7.6 mm
05:13 PM 56.8°F13.8°C 47.1°F8.4°C 70% 3.2 mph NE5.1 kmh NE 5.8 mph9.3 kmh 29.98 in1015.2 mb 0.00 in0.0 mm 0.00 in0.0 mm 0.30 in7.6 mm
05:12 PM 57.0°F13.9°C 47.3°F8.5°C 70% 3.2 mph N5.1 kmh N 5.8 mph9.3 kmh 29.98 in1015.2 mb 0.00 in0.0 mm 0.00 in0.0 mm 0.30 in7.6 mm
05:11 PM 57.0°F13.9°C 47.3°F8.5°C 70% 1.7 mph NNE2.7 kmh NNE 5.8 mph9.3 kmh 29.98 in1015.2 mb 0.00 in0.0 mm 0.00 in0.0 mm 0.30 in7.6 mm
05:10 PM 57.2°F14.0°C 47.5°F8.6°C 70% 2.2 mph NE3.5 kmh NE 5.8 mph9.3 kmh 29.98 in1015.2 mb 0.00 in0.0 mm 0.00 in0.0 mm 0.30 in7.6 mm
05:09 PM 57.2°F14.0°C 47.5°F8.6°C 70% 4.2 mph NNE6.8 kmh NNE 5.8 mph9.3 kmh 29.98 in1015.2 mb 0.00 in0.0 mm 0.00 in0.0 mm 0.30 in7.6 mm
05:08 PM 57.2°F14.0°C 47.9°F8.8°C 71% 3.7 mph NNE6.0 kmh NNE 5.8 mph9.3 kmh 29.98 in1015.2 mb 0.00 in0.0 mm 0.00 in0.0 mm 0.30 in7.6 mm
05:07 PM 57.2°F14.0°C 47.9°F8.8°C 71% 2.7 mph NNE4.3 kmh NNE 5.8 mph9.3 kmh 29.98 in1015.2 mb 0.00 in0.0 mm 0.00 in0.0 mm 0.30 in7.6 mm
05:06 PM 57.2°F14.0°C 47.9°F8.8°C 71% 3.7 mph NW6.0 kmh NW 5.8 mph9.3 kmh 29.98 in1015.2 mb 0.00 in0.0 mm 0.00 in0.0 mm 0.30 in7.6 mm
05:05 PM 57.6°F14.2°C 48.3°F9.1°C 71% 5.8 mph NW9.3 kmh NW 5.8 mph9.3 kmh 29.98 in1015.2 mb 0.00 in0.0 mm 0.00 in0.0 mm 0.30 in7.6 mm
05:04 PM 57.7°F14.3°C 48.4°F9.1°C 71% 3.2 mph ENE5.1 kmh ENE 6.3 mph10.1 kmh 29.98 in1015.2 mb 0.00 in0.0 mm 0.00 in0.0 mm 0.30 in7.6 mm
05:03 PM 57.7°F14.3°C 48.4°F9.1°C 71% 2.2 mph NE3.5 kmh NE 6.3 mph10.1 kmh 29.97 in1014.9 mb 0.00 in0.0 mm 0.00 in0.0 mm 0.30 in7.6 mm
05:02 PM 57.6°F14.2°C 48.3°F9.1°C 71% 2.7 mph NE4.3 kmh NE 6.3 mph10.1 kmh 29.97 in1014.9 mb 0.00 in0.0 mm 0.00 in0.0 mm 0.30 in7.6 mm
05:01 PM 57.6°F14.2°C 48.3°F9.1°C 71% 3.2 mph NNE5.1 kmh NNE 6.3 mph10.1 kmh 29.97 in1014.9 mb 0.00 in0.0 mm 0.00 in0.0 mm 0.30 in7.6 mm
05:00 PM 57.6°F14.2°C 48.3°F9.1°C 71% 3.7 mph WNW6.0 kmh WNW 6.3 mph10.1 kmh 29.97 in1014.9 mb 0.00 in0.0 mm 0.00 in0.0 mm 0.30 in7.6 mm
04:59 PM 57.6°F14.2°C 48.3°F9.1°C 71% 3.7 mph NNW6.0 kmh NNW 6.3 mph10.1 kmh 29.97 in1014.9 mb 0.00 in0.0 mm 0.00 in0.0 mm 0.30 in7.6 mm
04:58 PM 57.4°F14.1°C 48.1°F8.9°C 71% 4.7 mph N7.6 kmh N 6.3 mph10.1 kmh 29.97 in1014.9 mb 0.00 in0.0 mm 0.00 in0.0 mm 0.30 in7.6 mm
04:57 PM 57.6°F14.2°C 48.3°F9.1°C 71% 5.3 mph E8.5 kmh E 6.3 mph10.1 kmh 29.97 in1014.9 mb 0.00 in0.0 mm 0.00 in0.0 mm 0.30 in7.6 mm
04:56 PM 57.6°F14.2°C 48.3°F9.1°C 71% 5.8 mph NW9.3 kmh NW 6.3 mph10.1 kmh 29.97 in1014.9 mb 0.00 in0.0 mm 0.00 in0.0 mm 0.30 in7.6 mm
04:54 PM 58.5°F14.7°C 49.5°F9.7°C 72% 6.3 mph NW10.1 kmh NW 6.3 mph10.1 kmh 29.97 in1014.9 mb 0.00 in0.0 mm 0.00 in0.0 mm 0.30 in7.6 mm
04:48 PM 58.5°F14.7°C 49.5°F9.7°C 72% 5.8 mph NNW9.3 kmh NNW 7.8 mph12.6 kmh 29.97 in1014.9 mb 0.00 in0.0 mm 0.00 in0.0 mm 0.30 in7.6 mm
04:47 PM 58.5°F14.7°C 49.5°F9.7°C 72% 3.2 mph NNW5.1 kmh NNW 7.8 mph12.6 kmh 29.97 in1014.9 mb 0.00 in0.0 mm 0.00 in0.0 mm 0.30 in7.6 mm
04:46 PM 58.5°F14.7°C 49.5°F9.7°C 72% 2.7 mph NNE4.3 kmh NNE 7.8 mph12.6 kmh 29.97 in1014.9 mb 0.00 in0.0 mm 0.00 in0.0 mm 0.30 in7.6 mm
04:45 PM 58.5°F14.7°C 49.5°F9.7°C 72% 3.2 mph NNW5.1 kmh NNW 7.8 mph12.6 kmh 29.97 in1014.9 mb 0.00 in0.0 mm 0.00 in0.0 mm 0.30 in7.6 mm
04:44 PM 58.6°F14.8°C 49.6°F9.8°C 72% 3.2 mph N5.1 kmh N 7.8 mph12.6 kmh 29.97 in1014.9 mb 0.00 in0.0 mm 0.00 in0.0 mm 0.30 in7.6 mm
04:43 PM 58.6°F14.8°C 49.6°F9.8°C 72% 2.7 mph NW4.3 kmh NW 7.8 mph12.6 kmh 29.97 in1014.9 mb 0.00 in0.0 mm 0.00 in0.0 mm 0.30 in7.6 mm
04:42 PM 58.6°F14.8°C 49.6°F9.8°C 72% 2.7 mph NNE4.3 kmh NNE 7.8 mph12.6 kmh 29.97 in1014.9 mb 0.00 in0.0 mm 0.00 in0.0 mm 0.30 in7.6 mm
04:41 PM 58.6°F14.8°C 49.2°F9.6°C 71% 5.8 mph NNW9.3 kmh NNW 7.8 mph12.6 kmh 29.97 in1014.9 mb 0.00 in0.0 mm 0.00 in0.0 mm 0.30 in7.6 mm
04:40 PM 58.6°F14.8°C 49.2°F9.6°C 71% 3.7 mph NNE6.0 kmh NNE 7.8 mph12.6 kmh 29.97 in1014.9 mb 0.00 in0.0 mm 0.00 in0.0 mm 0.30 in7.6 mm
04:39 PM 58.6°F14.8°C 49.2°F9.6°C 71% 5.8 mph WNW9.3 kmh WNW 7.8 mph12.6 kmh 29.97 in1014.9 mb 0.00 in0.0 mm 0.00 in0.0 mm 0.30 in7.6 mm
04:38 PM 59.0°F15.0°C 49.6°F9.8°C 71% 5.8 mph NNE9.3 kmh NNE 5.8 mph9.3 kmh 29.97 in1014.9 mb 0.00 in0.0 mm 0.00 in0.0 mm 0.30 in7.6 mm
04:37 PM 59.4°F15.2°C 49.6°F9.8°C 70% 3.2 mph NNE5.1 kmh NNE 5.3 mph8.5 kmh 29.97 in1014.9 mb 0.00 in0.0 mm 0.00 in0.0 mm 0.30 in7.6 mm
04:36 PM 59.7°F15.4°C 49.9°F9.9°C 70% 5.3 mph WNW8.5 kmh WNW 5.3 mph8.5 kmh 29.97 in1014.9 mb 0.00 in0.0 mm 0.00 in0.0 mm 0.30 in7.6 mm
04:35 PM 59.9°F15.5°C 50.1°F10.1°C 70% 4.2 mph NW6.8 kmh NW 4.7 mph7.6 kmh 29.97 in1014.9 mb 0.00 in0.0 mm 0.00 in0.0 mm 0.30 in7.6 mm
04:34 PM 59.9°F15.5°C 50.1°F10.1°C 70% 2.2 mph N3.5 kmh N 4.7 mph7.6 kmh 29.97 in1014.9 mb 0.00 in0.0 mm 0.00 in0.0 mm 0.30 in7.6 mm
04:33 PM 59.9°F15.5°C 49.7°F9.8°C 69% 4.7 mph W7.6 kmh W 4.7 mph7.6 kmh 29.97 in1014.9 mb 0.00 in0.0 mm 0.00 in0.0 mm 0.30 in7.6 mm
04:32 PM 60.3°F15.7°C 50.1°F10.1°C 69% 2.2 mph N3.5 kmh N 4.2 mph6.8 kmh 29.97 in1014.9 mb 0.00 in0.0 mm 0.00 in0.0 mm 0.30 in7.6 mm
04:31 PM 60.3°F15.7°C 50.1°F10.1°C 69% 2.7 mph NNE4.3 kmh NNE 4.2 mph6.8 kmh 29.97 in1014.9 mb 0.00 in0.0 mm 0.00 in0.0 mm 0.30 in7.6 mm
04:30 PM 60.4°F15.8°C 50.2°F10.1°C 69% 2.2 mph NE3.5 kmh NE 4.2 mph6.8 kmh 29.97 in1014.9 mb 0.00 in0.0 mm 0.00 in0.0 mm 0.30 in7.6 mm
04:29 PM 60.4°F15.8°C 50.2°F10.1°C 69% 3.7 mph NE6.0 kmh NE 4.2 mph6.8 kmh 29.97 in1014.9 mb 0.00 in0.0 mm 0.00 in0.0 mm 0.30 in7.6 mm
04:28 PM 60.6°F15.9°C 50.4°F10.2°C 69% 2.7 mph N4.3 kmh N 4.2 mph6.8 kmh 29.97 in1014.9 mb 0.00 in0.0 mm 0.00 in0.0 mm 0.30 in7.6 mm
04:27 PM 60.6°F15.9°C 50.8°F10.4°C 70% 2.2 mph NNE3.5 kmh NNE 3.2 mph5.1 kmh 29.97 in1014.9 mb 0.00 in0.0 mm 0.00 in0.0 mm 0.30 in7.6 mm
04:26 PM 60.6°F15.9°C 50.8°F10.4°C 70% 1.7 mph NNE2.7 kmh NNE 4.2 mph6.8 kmh 29.97 in1014.9 mb 0.00 in0.0 mm 0.00 in0.0 mm 0.30 in7.6 mm
04:25 PM 60.6°F15.9°C 51.1°F10.6°C 71% 2.2 mph ENE3.5 kmh ENE 4.2 mph6.8 kmh 29.97 in1014.9 mb 0.00 in0.0 mm 0.00 in0.0 mm 0.30 in7.6 mm
04:24 PM 60.3°F15.7°C 50.9°F10.5°C 71% 1.7 mph NE2.7 kmh NE 4.2 mph6.8 kmh 29.97 in1014.9 mb 0.00 in0.0 mm 0.00 in0.0 mm 0.30 in7.6 mm
04:23 PM 60.1°F15.6°C 51.0°F10.6°C 72% Calm Calm 4.2 mph6.8 kmh 29.97 in1014.9 mb 0.00 in0.0 mm 0.00 in0.0 mm 0.30 in7.6 mm
04:22 PM 59.9°F15.5°C 50.8°F10.4°C 72% 1.1 mph NE1.8 kmh NE 4.2 mph6.8 kmh 29.97 in1014.9 mb 0.00 in0.0 mm 0.00 in0.0 mm 0.30 in7.6 mm
04:21 PM 60.1°F15.6°C 50.7°F10.4°C 71% 2.2 mph NE3.5 kmh NE 4.2 mph6.8 kmh 29.97 in1014.9 mb 0.00 in0.0 mm 0.00 in0.0 mm 0.30 in7.6 mm
04:20 PM 60.1°F15.6°C 50.7°F10.4°C 71% 1.7 mph NW2.7 kmh NW 4.2 mph6.8 kmh 29.97 in1014.9 mb 0.00 in0.0 mm 0.00 in0.0 mm 0.30 in7.6 mm
04:19 PM 59.9°F15.5°C 50.5°F10.3°C 71% 2.7 mph N4.3 kmh N 4.2 mph6.8 kmh 29.97 in1014.9 mb 0.00 in0.0 mm 0.00 in0.0 mm 0.30 in7.6 mm
04:18 PM 59.9°F15.5°C 50.5°F10.3°C 71% 2.2 mph NNE3.5 kmh NNE 4.7 mph7.6 kmh 29.97 in1014.9 mb 0.00 in0.0 mm 0.00 in0.0 mm 0.30 in7.6 mm
04:17 PM 59.7°F15.4°C 50.7°F10.4°C 72% 3.2 mph NW5.1 kmh NW 5.8 mph9.3 kmh 29.97 in1014.9 mb 0.00 in0.0 mm 0.00 in0.0 mm 0.30 in7.6 mm
04:16 PM 59.7°F15.4°C 51.0°F10.6°C 73% 2.2 mph NNW3.5 kmh NNW 5.8 mph9.3 kmh 29.97 in1014.9 mb 0.00 in0.0 mm 0.00 in0.0 mm 0.30 in7.6 mm
04:15 PM 59.7°F15.4°C 50.7°F10.4°C 72% 2.2 mph N3.5 kmh N 5.8 mph9.3 kmh 29.97 in1014.9 mb 0.00 in0.0 mm 0.00 in0.0 mm 0.30 in7.6 mm
04:14 PM 59.5°F15.3°C 50.5°F10.3°C 72% 3.2 mph W5.1 kmh W 5.8 mph9.3 kmh 29.96 in1014.6 mb 0.00 in0.0 mm 0.00 in0.0 mm 0.30 in7.6 mm
04:13 PM 59.5°F15.3°C 50.5°F10.3°C 72% 1.1 mph NE1.8 kmh NE 5.8 mph9.3 kmh 29.96 in1014.6 mb 0.00 in0.0 mm 0.00 in0.0 mm 0.30 in7.6 mm
04:12 PM 59.4°F15.2°C 50.4°F10.2°C 72% 1.7 mph NNE2.7 kmh NNE 5.8 mph9.3 kmh 29.96 in1014.6 mb 0.00 in0.0 mm 0.00 in0.0 mm 0.30 in7.6 mm
04:11 PM 59.0°F15.0°C 50.0°F10.0°C 72% 2.2 mph NNE3.5 kmh NNE 5.8 mph9.3 kmh 29.96 in1014.6 mb 0.00 in0.0 mm 0.00 in0.0 mm 0.30 in7.6 mm
04:10 PM 59.0°F15.0°C 50.0°F10.0°C 72% 3.2 mph NNE5.1 kmh NNE 5.8 mph9.3 kmh 29.96 in1014.6 mb 0.00 in0.0 mm 0.00 in0.0 mm 0.30 in7.6 mm
04:09 PM 59.0°F15.0°C 50.4°F10.2°C 73% 3.7 mph NNE6.0 kmh NNE 5.8 mph9.3 kmh 29.96 in1014.6 mb 0.00 in0.0 mm 0.00 in0.0 mm 0.30 in7.6 mm
04:08 PM 59.0°F15.0°C 50.4°F10.2°C 73% 2.7 mph NW4.3 kmh NW 5.8 mph9.3 kmh 29.96 in1014.6 mb 0.00 in0.0 mm 0.00 in0.0 mm 0.30 in7.6 mm
04:07 PM 59.0°F15.0°C 50.4°F10.2°C 73% 5.8 mph NW9.3 kmh NW 5.8 mph9.3 kmh 29.96 in1014.6 mb 0.00 in0.0 mm 0.00 in0.0 mm 0.30 in7.6 mm
04:06 PM 59.0°F15.0°C 50.4°F10.2°C 73% 3.2 mph NNW5.1 kmh NNW 4.7 mph7.6 kmh 29.96 in1014.6 mb 0.00 in0.0 mm 0.00 in0.0 mm 0.30 in7.6 mm
04:05 PM 59.0°F15.0°C 50.4°F10.2°C 73% 3.7 mph NW6.0 kmh NW 4.7 mph7.6 kmh 29.96 in1014.6 mb 0.00 in0.0 mm 0.00 in0.0 mm 0.30 in7.6 mm
04:04 PM 59.0°F15.0°C 50.4°F10.2°C 73% 3.2 mph SE5.1 kmh SE 5.3 mph8.5 kmh 29.96 in1014.6 mb 0.00 in0.0 mm 0.00 in0.0 mm 0.30 in7.6 mm
04:03 PM 59.0°F15.0°C 50.4°F10.2°C 73% 4.7 mph W7.6 kmh W 5.3 mph8.5 kmh 29.96 in1014.6 mb 0.00 in0.0 mm 0.00 in0.0 mm 0.30 in7.6 mm
04:02 PM 59.0°F15.0°C 50.4°F10.2°C 73% 3.7 mph N6.0 kmh N 5.3 mph8.5 kmh 29.97 in1014.9 mb 0.00 in0.0 mm 0.00 in0.0 mm 0.30 in7.6 mm
04:01 PM 59.0°F15.0°C 50.4°F10.2°C 73% 2.7 mph NE4.3 kmh NE 5.3 mph8.5 kmh 29.97 in1014.9 mb 0.00 in0.0 mm 0.00 in0.0 mm 0.30 in7.6 mm
04:00 PM 59.0°F15.0°C 50.7°F10.4°C 74% 4.2 mph NW6.8 kmh NW 5.3 mph8.5 kmh 29.97 in1014.9 mb 0.00 in0.0 mm 0.00 in0.0 mm 0.30 in7.6 mm
03:59 PM 59.0°F15.0°C 50.7°F10.4°C 74% 1.7 mph WNW2.7 kmh WNW 5.3 mph8.5 kmh 29.97 in1014.9 mb 0.00 in0.0 mm 0.00 in0.0 mm 0.30 in7.6 mm
03:58 PM 59.0°F15.0°C 50.7°F10.4°C 74% 2.7 mph NW4.3 kmh NW 5.3 mph8.5 kmh 29.97 in1014.9 mb 0.00 in0.0 mm 0.00 in0.0 mm 0.30 in7.6 mm
03:57 PM 59.0°F15.0°C 50.7°F10.4°C 74% 2.2 mph NNE3.5 kmh NNE 5.3 mph8.5 kmh 29.97 in1014.9 mb 0.00 in0.0 mm 0.00 in0.0 mm 0.30 in7.6 mm
03:56 PM 59.0°F15.0°C 50.4°F10.2°C 73% 1.7 mph NE2.7 kmh NE 5.3 mph8.5 kmh 29.97 in1014.9 mb 0.00 in0.0 mm 0.00 in0.0 mm 0.30 in7.6 mm
03:55 PM 59.0°F15.0°C 50.4°F10.2°C 73% 3.7 mph NNW6.0 kmh NNW 5.3 mph8.5 kmh 29.97 in1014.9 mb 0.00 in0.0 mm 0.00 in0.0 mm 0.30 in7.6 mm
03:54 PM 59.0°F15.0°C 50.4°F10.2°C 73% 5.3 mph NW8.5 kmh NW 5.3 mph8.5 kmh 29.97 in1014.9 mb 0.00 in0.0 mm 0.00 in0.0 mm 0.30 in7.6 mm
03:53 PM 59.2°F15.1°C 50.5°F10.3°C 73% 4.2 mph NNE6.8 kmh NNE 4.7 mph7.6 kmh 29.97 in1014.9 mb 0.00 in0.0 mm 0.00 in0.0 mm 0.30 in7.6 mm
03:52 PM 59.5°F15.3°C 50.8°F10.4°C 73% 4.2 mph N6.8 kmh N 4.2 mph6.8 kmh 29.97 in1014.9 mb 0.00 in0.0 mm 0.00 in0.0 mm 0.30 in7.6 mm
03:51 PM 59.7°F15.4°C 51.0°F10.6°C 73% 2.2 mph NNE3.5 kmh NNE 4.2 mph6.8 kmh 29.96 in1014.6 mb 0.00 in0.0 mm 0.00 in0.0 mm 0.30 in7.6 mm
03:50 PM 59.9°F15.5°C 51.2°F10.7°C 73% 2.2 mph NNW3.5 kmh NNW 4.2 mph6.8 kmh 29.96 in1014.6 mb 0.00 in0.0 mm 0.00 in0.0 mm 0.30 in7.6 mm
03:49 PM 59.9°F15.5°C 51.2°F10.7°C 73% 2.2 mph NE3.5 kmh NE 4.2 mph6.8 kmh 29.96 in1014.6 mb 0.00 in0.0 mm 0.00 in0.0 mm 0.30 in7.6 mm
03:48 PM 60.1°F15.6°C 51.4°F10.8°C 73% 2.7 mph NE4.3 kmh NE 4.2 mph6.8 kmh 29.96 in1014.6 mb 0.00 in0.0 mm 0.00 in0.0 mm 0.30 in7.6 mm
03:47 PM 60.3°F15.7°C 51.6°F10.9°C 73% 2.2 mph NNW3.5 kmh NNW 3.7 mph6.0 kmh 29.96 in1014.6 mb 0.00 in0.0 mm 0.00 in0.0 mm 0.30 in7.6 mm
03:46 PM 60.4°F15.8°C 51.7°F10.9°C 73% 2.7 mph NNE4.3 kmh NNE 3.7 mph6.0 kmh 29.96 in1014.6 mb 0.00 in0.0 mm 0.00 in0.0 mm 0.30 in7.6 mm
03:45 PM 60.4°F15.8°C 51.7°F10.9°C 73% 2.2 mph NNW3.5 kmh NNW 3.7 mph6.0 kmh 29.96 in1014.6 mb 0.00 in0.0 mm 0.00 in0.0 mm 0.30 in7.6 mm
03:44 PM 60.4°F15.8°C 51.7°F10.9°C 73% 3.7 mph NNE6.0 kmh NNE 3.7 mph6.0 kmh 29.96 in1014.6 mb 0.00 in0.0 mm 0.00 in0.0 mm 0.30 in7.6 mm
03:43 PM 60.4°F15.8°C 51.7°F10.9°C 73% 2.2 mph NW3.5 kmh NW 2.7 mph4.3 kmh 29.96 in1014.6 mb 0.00 in0.0 mm 0.00 in0.0 mm 0.30 in7.6 mm
03:42 PM 60.4°F15.8°C 51.7°F10.9°C 73% 1.7 mph ENE2.7 kmh ENE 2.7 mph4.3 kmh 29.96 in1014.6 mb 0.00 in0.0 mm 0.00 in0.0 mm 0.30 in7.6 mm
03:41 PM 60.4°F15.8°C 51.7°F10.9°C 73% 2.7 mph NE4.3 kmh NE 2.7 mph4.3 kmh 29.96 in1014.6 mb 0.00 in0.0 mm 0.00 in0.0 mm 0.30 in7.6 mm
03:40 PM 60.4°F15.8°C 51.7°F10.9°C 73% 2.2 mph WNW3.5 kmh WNW 2.7 mph4.3 kmh 29.96 in1014.6 mb 0.00 in0.0 mm 0.00 in0.0 mm 0.30 in7.6 mm
03:39 PM 60.4°F15.8°C 51.7°F10.9°C 73% Calm Calm 3.2 mph5.1 kmh 29.96 in1014.6 mb 0.00 in0.0 mm 0.00 in0.0 mm 0.30 in7.6 mm
03:38 PM 60.4°F15.8°C 51.7°F10.9°C 73% 1.1 mph N1.8 kmh N 3.2 mph5.1 kmh 29.95 in1014.2 mb 0.00 in0.0 mm 0.00 in0.0 mm 0.30 in7.6 mm
03:37 PM 60.4°F15.8°C 51.7°F10.9°C 73% 1.7 mph NNW2.7 kmh NNW 3.2 mph5.1 kmh 29.95 in1014.2 mb 0.00 in0.0 mm 0.00 in0.0 mm 0.30 in7.6 mm
03:36 PM 60.4°F15.8°C 51.7°F10.9°C 73% 1.7 mph WNW2.7 kmh WNW 4.2 mph6.8 kmh 29.95 in1014.2 mb 0.00 in0.0 mm 0.00 in0.0 mm 0.30 in7.6 mm
03:35 PM 60.4°F15.8°C 51.7°F10.9°C 73% 1.7 mph WNW2.7 kmh WNW 4.2 mph6.8 kmh 29.95 in1014.2 mb 0.00 in0.0 mm 0.00 in0.0 mm 0.30 in7.6 mm
03:34 PM 60.4°F15.8°C 51.7°F10.9°C 73% 1.7 mph NNE2.7 kmh NNE 4.2 mph6.8 kmh 29.95 in1014.2 mb 0.00 in0.0 mm 0.00 in0.0 mm 0.30 in7.6 mm
03:33 PM 60.4°F15.8°C 51.7°F10.9°C 73% 2.2 mph NNW3.5 kmh NNW 4.2 mph6.8 kmh 29.95 in1014.2 mb 0.00 in0.0 mm 0.00 in0.0 mm 0.30 in7.6 mm
03:32 PM 60.4°F15.8°C 51.3°F10.7°C 72% 1.7 mph NW2.7 kmh NW 4.7 mph7.6 kmh 29.95 in1014.2 mb 0.00 in0.0 mm 0.00 in0.0 mm 0.30 in7.6 mm
03:31 PM 60.6°F15.9°C 51.5°F10.8°C 72% 1.1 mph N1.8 kmh N 4.7 mph7.6 kmh 29.95 in1014.2 mb 0.00 in0.0 mm 0.00 in0.0 mm 0.30 in7.6 mm
03:30 PM 60.6°F15.9°C 51.5°F10.8°C 72% 2.2 mph NW3.5 kmh NW 4.7 mph7.6 kmh 29.95 in1014.2 mb 0.00 in0.0 mm 0.00 in0.0 mm 0.30 in7.6 mm
03:29 PM 60.6°F15.9°C 51.5°F10.8°C 72% 2.7 mph NW4.3 kmh NW 4.7 mph7.6 kmh 29.95 in1014.2 mb 0.00 in0.0 mm 0.00 in0.0 mm 0.30 in7.6 mm
03:28 PM 60.6°F15.9°C 51.5°F10.8°C 72% 2.2 mph NW3.5 kmh NW 4.7 mph7.6 kmh 29.95 in1014.2 mb 0.00 in0.0 mm 0.00 in0.0 mm 0.30 in7.6 mm
03:27 PM 60.6°F15.9°C 51.1°F10.6°C 71% 2.7 mph NW4.3 kmh NW 7.8 mph12.6 kmh 29.95 in1014.2 mb 0.00 in0.0 mm 0.00 in0.0 mm 0.30 in7.6 mm
03:26 PM 60.6°F15.9°C 51.1°F10.6°C 71% 2.7 mph NW4.3 kmh NW 7.8 mph12.6 kmh 29.95 in1014.2 mb 0.00 in0.0 mm 0.00 in0.0 mm 0.30 in7.6 mm
03:25 PM 60.6°F15.9°C 51.1°F10.6°C 71% 2.7 mph N4.3 kmh N 7.8 mph12.6 kmh 29.95 in1014.2 mb 0.00 in0.0 mm 0.00 in0.0 mm 0.30 in7.6 mm
03:24 PM 60.8°F16.0°C 51.3°F10.7°C 71% 3.2 mph NNE5.1 kmh NNE 7.8 mph12.6 kmh 29.95 in1014.2 mb 0.00 in0.0 mm 0.00 in0.0 mm 0.30 in7.6 mm
03:23 PM 60.8°F16.0°C 51.3°F10.7°C 71% 2.2 mph WNW3.5 kmh WNW 7.8 mph12.6 kmh 29.95 in1014.2 mb 0.00 in0.0 mm 0.00 in0.0 mm 0.30 in7.6 mm
03:22 PM 60.8°F16.0°C 51.3°F10.7°C 71% 3.7 mph NE6.0 kmh NE 7.8 mph12.6 kmh 29.95 in1014.2 mb 0.00 in0.0 mm 0.00 in0.0 mm 0.30 in7.6 mm
03:21 PM 60.8°F16.0°C 51.3°F10.7°C 71% 2.7 mph NNW4.3 kmh NNW 7.8 mph12.6 kmh 29.95 in1014.2 mb 0.00 in0.0 mm 0.00 in0.0 mm 0.30 in7.6 mm
03:20 PM 60.8°F16.0°C 51.3°F10.7°C 71% 3.2 mph W5.1 kmh W 7.8 mph12.6 kmh 29.95 in1014.2 mb 0.00 in0.0 mm 0.00 in0.0 mm 0.30 in7.6 mm
03:19 PM 61.0°F16.1°C 51.5°F10.8°C 71% 3.2 mph NW5.1 kmh NW 7.8 mph12.6 kmh 29.95 in1014.2 mb 0.00 in0.0 mm 0.00 in0.0 mm 0.30 in7.6 mm
03:18 PM 61.0°F16.1°C 51.5°F10.8°C 71% 4.7 mph NNW7.6 kmh NNW 7.8 mph12.6 kmh 29.95 in1014.2 mb 0.00 in0.0 mm 0.00 in0.0 mm 0.30 in7.6 mm
03:17 PM 61.2°F16.2°C 52.1°F11.2°C 72% 2.7 mph N4.3 kmh N 4.7 mph7.6 kmh 29.95 in1014.2 mb 0.00 in0.0 mm 0.00 in0.0 mm 0.30 in7.6 mm
03:16 PM 61.3°F16.3°C 52.2°F11.2°C 72% 3.2 mph WNW5.1 kmh WNW 4.7 mph7.6 kmh 29.95 in1014.2 mb 0.00 in0.0 mm 0.00 in0.0 mm 0.30 in7.6 mm
03:15 PM 61.3°F16.3°C 52.2°F11.2°C 72% 2.2 mph E3.5 kmh E 2.7 mph4.3 kmh 29.95 in1014.2 mb 0.00 in0.0 mm 0.00 in0.0 mm 0.30 in7.6 mm
03:14 PM 61.3°F16.3°C 52.2°F11.2°C 72% 1.7 mph SE2.7 kmh SE 2.7 mph4.3 kmh 29.95 in1014.2 mb 0.00 in0.0 mm 0.00 in0.0 mm 0.30 in7.6 mm
03:13 PM 61.3°F16.3°C 52.2°F11.2°C 72% 1.1 mph SE1.8 kmh SE 2.7 mph4.3 kmh 29.95 in1014.2 mb 0.00 in0.0 mm 0.00 in0.0 mm 0.30 in7.6 mm
03:12 PM 61.3°F16.3°C 52.2°F11.2°C 72% 1.7 mph NW2.7 kmh NW 2.7 mph4.3 kmh 29.95 in1014.2 mb 0.00 in0.0 mm 0.00 in0.0 mm 0.30 in7.6 mm
03:11 PM 61.5°F16.4°C 52.4°F11.3°C 72% Calm Calm 2.7 mph4.3 kmh 29.95 in1014.2 mb 0.00 in0.0 mm 0.00 in0.0 mm 0.30 in7.6 mm
03:10 PM 61.5°F16.4°C 52.4°F11.3°C 72% 1.1 mph W1.8 kmh W 2.7 mph4.3 kmh 29.95 in1014.2 mb 0.00 in0.0 mm 0.00 in0.0 mm 0.30 in7.6 mm
03:09 PM 61.5°F16.4°C 52.4°F11.3°C 72% 2.2 mph WNW3.5 kmh WNW 3.2 mph5.1 kmh 29.95 in1014.2 mb 0.00 in0.0 mm 0.00 in0.0 mm 0.30 in7.6 mm
03:08 PM 61.5°F16.4°C 52.4°F11.3°C 72% 2.2 mph NW3.5 kmh NW 3.2 mph5.1 kmh 29.95 in1014.2 mb 0.00 in0.0 mm 0.00 in0.0 mm 0.30 in7.6 mm
03:07 PM 61.5°F16.4°C 52.8°F11.6°C 73% Calm Calm 3.7 mph6.0 kmh 29.95 in1014.2 mb 0.00 in0.0 mm 0.00 in0.0 mm 0.30 in7.6 mm
03:06 PM 61.5°F16.4°C 52.4°F11.3°C 72% Calm Calm 3.7 mph6.0 kmh 29.95 in1014.2 mb 0.00 in0.0 mm 0.00 in0.0 mm 0.30 in7.6 mm
03:05 PM 61.5°F16.4°C 52.0°F11.1°C 71% 1.1 mph NNW1.8 kmh NNW 4.7 mph7.6 kmh 29.95 in1014.2 mb 0.00 in0.0 mm 0.00 in0.0 mm 0.30 in7.6 mm
03:04 PM 61.5°F16.4°C 52.0°F11.1°C 71% 2.7 mph W4.3 kmh W 4.7 mph7.6 kmh 29.95 in1014.2 mb 0.00 in0.0 mm 0.00 in0.0 mm 0.30 in7.6 mm
03:03 PM 61.5°F16.4°C 52.0°F11.1°C 71% 2.2 mph NW3.5 kmh NW 4.7 mph7.6 kmh 29.95 in1014.2 mb 0.00 in0.0 mm 0.00 in0.0 mm 0.30 in7.6 mm
03:02 PM 61.5°F16.4°C 52.0°F11.1°C 71% 1.7 mph NW2.7 kmh NW 5.8 mph9.3 kmh 29.95 in1014.2 mb 0.00 in0.0 mm 0.00 in0.0 mm 0.30 in7.6 mm
03:01 PM 61.5°F16.4°C 52.0°F11.1°C 71% 2.7 mph NNW4.3 kmh NNW 5.8 mph9.3 kmh 29.95 in1014.2 mb 0.00 in0.0 mm 0.00 in0.0 mm 0.30 in7.6 mm
03:00 PM 61.5°F16.4°C 52.0°F11.1°C 71% 2.7 mph NNW4.3 kmh NNW 5.8 mph9.3 kmh 29.95 in1014.2 mb 0.00 in0.0 mm 0.00 in0.0 mm 0.30 in7.6 mm
02:59 PM 61.5°F16.4°C 52.0°F11.1°C 71% 2.2 mph NW3.5 kmh NW 5.8 mph9.3 kmh 29.95 in1014.2 mb 0.00 in0.0 mm 0.00 in0.0 mm 0.30 in7.6 mm
02:58 PM 61.5°F16.4°C 52.0°F11.1°C 71% 2.7 mph W4.3 kmh W 5.8 mph9.3 kmh 29.95 in1014.2 mb 0.00 in0.0 mm 0.00 in0.0 mm 0.30 in7.6 mm
02:57 PM 61.5°F16.4°C 52.0°F11.1°C 71% 3.7 mph NW6.0 kmh NW 5.8 mph9.3 kmh 29.95 in1014.2 mb 0.00 in0.0 mm 0.00 in0.0 mm 0.30 in7.6 mm
02:56 PM 61.5°F16.4°C 52.0°F11.1°C 71% 3.2 mph NNE5.1 kmh NNE 5.8 mph9.3 kmh 29.95 in1014.2 mb 0.00 in0.0 mm 0.00 in0.0 mm 0.30 in7.6 mm
02:55 PM 61.5°F16.4°C 52.0°F11.1°C 71% 4.7 mph NNW7.6 kmh NNW 5.8 mph9.3 kmh 29.95 in1014.2 mb 0.00 in0.0 mm 0.00 in0.0 mm 0.30 in7.6 mm
02:54 PM 61.5°F16.4°C 52.0°F11.1°C 71% 3.2 mph N5.1 kmh N 5.8 mph9.3 kmh 29.95 in1014.2 mb 0.00 in0.0 mm 0.00 in0.0 mm 0.30 in7.6 mm
02:53 PM 61.7°F16.5°C 52.2°F11.2°C 71% 3.2 mph NNW5.1 kmh NNW 5.8 mph9.3 kmh 29.95 in1014.2 mb 0.00 in0.0 mm 0.00 in0.0 mm 0.30 in7.6 mm
02:52 PM 61.7°F16.5°C 52.2°F11.2°C 71% 2.7 mph NNE4.3 kmh NNE 4.2 mph6.8 kmh 29.95 in1014.2 mb 0.00 in0.0 mm 0.00 in0.0 mm 0.30 in7.6 mm
02:51 PM 61.7°F16.5°C 52.2°F11.2°C 71% 2.7 mph NNE4.3 kmh NNE 4.2 mph6.8 kmh 29.94 in1013.9 mb 0.00 in0.0 mm 0.00 in0.0 mm 0.30 in7.6 mm
02:50 PM 61.7°F16.5°C 52.2°F11.2°C 71% 3.2 mph NNW5.1 kmh NNW 4.2 mph6.8 kmh 29.94 in1013.9 mb 0.00 in0.0 mm 0.00 in0.0 mm 0.30 in7.6 mm
02:49 PM 61.5°F16.4°C 52.0°F11.1°C 71% 2.2 mph NNW3.5 kmh NNW 4.2 mph6.8 kmh 29.94 in1013.9 mb 0.00 in0.0 mm 0.00 in0.0 mm 0.30 in7.6 mm
02:48 PM 61.5°F16.4°C 52.0°F11.1°C 71% 2.2 mph NNW3.5 kmh NNW 6.8 mph10.9 kmh 29.94 in1013.9 mb 0.00 in0.0 mm 0.00 in0.0 mm 0.30 in7.6 mm
02:47 PM 61.5°F16.4°C 52.0°F11.1°C 71% 2.2 mph NNE3.5 kmh NNE 6.8 mph10.9 kmh 29.94 in1013.9 mb 0.00 in0.0 mm 0.00 in0.0 mm 0.30 in7.6 mm
02:46 PM 61.5°F16.4°C 52.0°F11.1°C 71% 2.2 mph NE3.5 kmh NE 6.8 mph10.9 kmh 29.94 in1013.9 mb 0.00 in0.0 mm 0.00 in0.0 mm 0.30 in7.6 mm
02:45 PM 61.5°F16.4°C 52.0°F11.1°C 71% 2.7 mph NW4.3 kmh NW 6.8 mph10.9 kmh 29.94 in1013.9 mb 0.00 in0.0 mm 0.00 in0.0 mm 0.30 in7.6 mm
02:44 PM 61.5°F16.4°C 52.0°F11.1°C 71% 1.7 mph NNW2.7 kmh NNW 6.8 mph10.9 kmh 29.94 in1013.9 mb 0.00 in0.0 mm 0.00 in0.0 mm 0.30 in7.6 mm
02:43 PM 61.5°F16.4°C 52.0°F11.1°C 71% 2.7 mph NNW4.3 kmh NNW 6.8 mph10.9 kmh 29.94 in1013.9 mb 0.00 in0.0 mm 0.00 in0.0 mm 0.30 in7.6 mm
02:42 PM 61.5°F16.4°C 52.0°F11.1°C 71% 2.2 mph WNW3.5 kmh WNW 6.8 mph10.9 kmh 29.94 in1013.9 mb 0.00 in0.0 mm 0.00 in0.0 mm 0.30 in7.6 mm
02:41 PM 61.3°F16.3°C 51.8°F11.0°C 71% 2.2 mph NE3.5 kmh NE 6.8 mph10.9 kmh 29.94 in1013.9 mb 0.00 in0.0 mm 0.00 in0.0 mm 0.30 in7.6 mm
02:40 PM 61.3°F16.3°C 51.4°F10.8°C 70% 2.2 mph NNE3.5 kmh NNE 6.8 mph10.9 kmh 29.94 in1013.9 mb 0.00 in0.0 mm 0.00 in0.0 mm 0.30 in7.6 mm
02:39 PM 61.7°F16.5°C 51.8°F11.0°C 70% 1.7 mph NNW2.7 kmh NNW 6.8 mph10.9 kmh 29.94 in1013.9 mb 0.00 in0.0 mm 0.00 in0.0 mm 0.30 in7.6 mm
02:38 PM 61.9°F16.6°C 52.0°F11.1°C 70% 6.8 mph NW10.9 kmh NW 6.8 mph10.9 kmh 29.94 in1013.9 mb 0.00 in0.0 mm 0.00 in0.0 mm 0.30 in7.6 mm
02:37 PM 62.1°F16.7°C 52.2°F11.2°C 70% 3.2 mph N5.1 kmh N 4.7 mph7.6 kmh 29.94 in1013.9 mb 0.00 in0.0 mm 0.00 in0.0 mm 0.30 in7.6 mm
02:36 PM 62.1°F16.7°C 52.2°F11.2°C 70% 2.2 mph NW3.5 kmh NW 4.7 mph7.6 kmh 29.94 in1013.9 mb 0.00 in0.0 mm 0.00 in0.0 mm 0.30 in7.6 mm
02:35 PM 62.1°F16.7°C 52.2°F11.2°C 70% 1.1 mph NW1.8 kmh NW 4.7 mph7.6 kmh 29.94 in1013.9 mb 0.00 in0.0 mm 0.00 in0.0 mm 0.30 in7.6 mm
02:34 PM 62.1°F16.7°C 52.2°F11.2°C 70% 3.7 mph WNW6.0 kmh WNW 4.7 mph7.6 kmh 29.94 in1013.9 mb 0.00 in0.0 mm 0.00 in0.0 mm 0.30 in7.6 mm
02:33 PM 62.1°F16.7°C 52.2°F11.2°C 70% 3.2 mph NW5.1 kmh NW 4.7 mph7.6 kmh 29.94 in1013.9 mb 0.00 in0.0 mm 0.00 in0.0 mm 0.30 in7.6 mm
02:32 PM 62.2°F16.8°C 52.7°F11.5°C 71% 2.7 mph NW4.3 kmh NW 4.7 mph7.6 kmh 29.94 in1013.9 mb 0.00 in0.0 mm 0.00 in0.0 mm 0.30 in7.6 mm
02:31 PM 62.2°F16.8°C 52.7°F11.5°C 71% 1.7 mph NNW2.7 kmh NNW 4.7 mph7.6 kmh 29.94 in1013.9 mb 0.00 in0.0 mm 0.00 in0.0 mm 0.30 in7.6 mm
02:30 PM 62.2°F16.8°C 52.7°F11.5°C 71% 2.7 mph NNW4.3 kmh NNW 4.7 mph7.6 kmh 29.94 in1013.9 mb 0.00 in0.0 mm 0.00 in0.0 mm 0.30 in7.6 mm
02:29 PM 62.2°F16.8°C 52.7°F11.5°C 71% 2.7 mph NW4.3 kmh NW 4.7 mph7.6 kmh 29.94 in1013.9 mb 0.00 in0.0 mm 0.00 in0.0 mm 0.30 in7.6 mm
02:28 PM 62.4°F16.9°C 52.9°F11.6°C 71% 2.2 mph NNE3.5 kmh NNE 4.7 mph7.6 kmh 29.94 in1013.9 mb 0.00 in0.0 mm 0.00 in0.0 mm 0.30 in7.6 mm
02:27 PM 62.4°F16.9°C 52.5°F11.4°C 70% 2.2 mph NNW3.5 kmh NNW 4.7 mph7.6 kmh 29.94 in1013.9 mb 0.00 in0.0 mm 0.00 in0.0 mm 0.30 in7.6 mm
02:26 PM 62.4°F16.9°C 52.5°F11.4°C 70% 2.2 mph NNE3.5 kmh NNE 4.7 mph7.6 kmh 29.94 in1013.9 mb 0.00 in0.0 mm 0.00 in0.0 mm 0.30 in7.6 mm
02:25 PM 62.6°F17.0°C 52.7°F11.5°C 70% 2.2 mph NNE3.5 kmh NNE 4.7 mph7.6 kmh 29.94 in1013.9 mb 0.00 in0.0 mm 0.00 in0.0 mm 0.30 in7.6 mm
02:24 PM 62.8°F17.1°C 52.9°F11.6°C 70% 2.7 mph NNW4.3 kmh NNW 4.7 mph7.6 kmh 29.94 in1013.9 mb 0.00 in0.0 mm 0.00 in0.0 mm 0.30 in7.6 mm
02:23 PM 62.8°F17.1°C 52.9°F11.6°C 70% 3.7 mph NW6.0 kmh NW 4.7 mph7.6 kmh 29.94 in1013.9 mb 0.00 in0.0 mm 0.00 in0.0 mm 0.30 in7.6 mm
02:22 PM 63.1°F17.3°C 53.2°F11.8°C 70% 2.2 mph W3.5 kmh W 3.7 mph6.0 kmh 29.94 in1013.9 mb 0.00 in0.0 mm 0.00 in0.0 mm 0.30 in7.6 mm
02:21 PM 63.3°F17.4°C 53.3°F11.8°C 70% 3.2 mph NNW5.1 kmh NNW 3.7 mph6.0 kmh 29.94 in1013.9 mb 0.00 in0.0 mm 0.00 in0.0 mm 0.30 in7.6 mm
02:20 PM 63.3°F17.4°C 53.3°F11.8°C 70% 2.2 mph NW3.5 kmh NW 3.7 mph6.0 kmh 29.94 in1013.9 mb 0.00 in0.0 mm 0.00 in0.0 mm 0.30 in7.6 mm
02:19 PM 63.3°F17.4°C 53.3°F11.8°C 70% 2.2 mph NNW3.5 kmh NNW 3.7 mph6.0 kmh 29.94 in1013.9 mb 0.00 in0.0 mm 0.00 in0.0 mm 0.30 in7.6 mm
02:18 PM 63.3°F17.4°C 53.3°F11.8°C 70% 2.7 mph NNW4.3 kmh NNW 3.7 mph6.0 kmh 29.94 in1013.9 mb 0.00 in0.0 mm 0.00 in0.0 mm 0.30 in7.6 mm
02:17 PM 63.5°F17.5°C 53.5°F11.9°C 70% 1.7 mph NW2.7 kmh NW 3.7 mph6.0 kmh 29.94 in1013.9 mb 0.00 in0.0 mm 0.00 in0.0 mm 0.30 in7.6 mm
02:16 PM 63.7°F17.6°C 53.7°F12.1°C 70% 1.7 mph WNW2.7 kmh WNW 3.7 mph6.0 kmh 29.94 in1013.9 mb 0.00 in0.0 mm 0.00 in0.0 mm 0.30 in7.6 mm
02:15 PM 63.7°F17.6°C 53.7°F12.1°C 70% 2.2 mph WNW3.5 kmh WNW 3.7 mph6.0 kmh 29.94 in1013.9 mb 0.00 in0.0 mm 0.00 in0.0 mm 0.30 in7.6 mm
02:14 PM 63.9°F17.7°C 53.9°F12.2°C 70% 2.7 mph NW4.3 kmh NW 3.7 mph6.0 kmh 29.94 in1013.9 mb 0.00 in0.0 mm 0.00 in0.0 mm 0.30 in7.6 mm
02:13 PM 63.9°F17.7°C 53.9°F12.2°C 70% 2.2 mph NW3.5 kmh NW 3.7 mph6.0 kmh 29.94 in1013.9 mb 0.00 in0.0 mm 0.00 in0.0 mm 0.30 in7.6 mm
02:12 PM 63.9°F17.7°C 53.9°F12.2°C 70% 1.7 mph NNE2.7 kmh NNE 2.7 mph4.3 kmh 29.94 in1013.9 mb 0.00 in0.0 mm 0.00 in0.0 mm 0.30 in7.6 mm
02:11 PM 64.0°F17.8°C 54.0°F12.2°C 70% 2.2 mph WNW3.5 kmh WNW 3.2 mph5.1 kmh 29.94 in1013.9 mb 0.00 in0.0 mm 0.00 in0.0 mm 0.30 in7.6 mm
02:10 PM 64.0°F17.8°C 54.0°F12.2°C 70% 1.7 mph WNW2.7 kmh WNW 3.2 mph5.1 kmh 29.94 in1013.9 mb 0.00 in0.0 mm 0.00 in0.0 mm 0.30 in7.6 mm
02:09 PM 63.9°F17.7°C 53.9°F12.2°C 70% 1.1 mph WNW1.8 kmh WNW 3.2 mph5.1 kmh 29.94 in1013.9 mb 0.00 in0.0 mm 0.00 in0.0 mm 0.30 in7.6 mm
02:08 PM 63.9°F17.7°C 53.5°F11.9°C 69% 1.1 mph W1.8 kmh W 3.2 mph5.1 kmh 29.94 in1013.9 mb 0.00 in0.0 mm 0.00 in0.0 mm 0.30 in7.6 mm
02:07 PM 64.0°F17.8°C 53.6°F12.0°C 69% 2.2 mph NNW3.5 kmh NNW 3.2 mph5.1 kmh 29.94 in1013.9 mb 0.00 in0.0 mm 0.00 in0.0 mm 0.30 in7.6 mm
02:06 PM 64.2°F17.9°C 53.8°F12.1°C 69% 1.7 mph NNW2.7 kmh NNW 3.2 mph5.1 kmh 29.94 in1013.9 mb 0.00 in0.0 mm 0.00 in0.0 mm 0.30 in7.6 mm
02:05 PM 64.4°F18.0°C 54.0°F12.2°C 69% 2.7 mph NW4.3 kmh NW 3.2 mph5.1 kmh 29.94 in1013.9 mb 0.00 in0.0 mm 0.00 in0.0 mm 0.30 in7.6 mm
02:04 PM 64.4°F18.0°C 54.0°F12.2°C 69% Calm Calm 3.2 mph5.1 kmh 29.94 in1013.9 mb 0.00 in0.0 mm 0.00 in0.0 mm 0.30 in7.6 mm
02:03 PM 64.4°F18.0°C 54.0°F12.2°C 69% 1.1 mph NNW1.8 kmh NNW 3.2 mph5.1 kmh 29.94 in1013.9 mb 0.00 in0.0 mm 0.00 in0.0 mm 0.30 in7.6 mm
02:02 PM 64.6°F18.1°C 54.2°F12.3°C 69% 1.7 mph W2.7 kmh W 3.2 mph5.1 kmh 29.94 in1013.9 mb 0.00 in0.0 mm 0.00 in0.0 mm 0.30 in7.6 mm
02:01 PM 64.6°F18.1°C 54.2°F12.3°C 69% 3.2 mph NNW5.1 kmh NNW 3.2 mph5.1 kmh 29.94 in1013.9 mb 0.00 in0.0 mm 0.00 in0.0 mm 0.30 in7.6 mm
02:00 PM 64.6°F18.1°C 54.2°F12.3°C 69% 1.7 mph NW2.7 kmh NW 3.2 mph5.1 kmh 29.94 in1013.9 mb 0.00 in0.0 mm 0.00 in0.0 mm 0.30 in7.6 mm
01:59 PM 64.4°F18.0°C 54.0°F12.2°C 69% Calm Calm 3.2 mph5.1 kmh 29.94 in1013.9 mb 0.00 in0.0 mm 0.00 in0.0 mm 0.30 in7.6 mm
01:58 PM 64.4°F18.0°C 54.0°F12.2°C 69% 1.7 mph W2.7 kmh W 3.2 mph5.1 kmh 29.94 in1013.9 mb 0.00 in0.0 mm 0.00 in0.0 mm 0.30 in7.6 mm
01:57 PM 64.0°F17.8°C 54.0°F12.2°C 70% 1.7 mph NW2.7 kmh NW 3.2 mph5.1 kmh 29.94 in1013.9 mb 0.00 in0.0 mm 0.00 in0.0 mm 0.30 in7.6 mm
01:56 PM 63.5°F17.5°C 53.9°F12.2°C 71% 1.7 mph WNW2.7 kmh WNW 3.7 mph6.0 kmh 29.94 in1013.9 mb 0.00 in0.0 mm 0.00 in0.0 mm 0.30 in7.6 mm
01:55 PM 63.1°F17.3°C 53.5°F11.9°C 71% 1.1 mph NNE1.8 kmh NNE 3.7 mph6.0 kmh 29.94 in1013.9 mb 0.00 in0.0 mm 0.00 in0.0 mm 0.30 in7.6 mm
01:54 PM 63.1°F17.3°C 53.2°F11.8°C 70% 2.2 mph WSW3.5 kmh WSW 4.2 mph6.8 kmh 29.94 in1013.9 mb 0.00 in0.0 mm 0.00 in0.0 mm 0.30 in7.6 mm
01:53 PM 63.3°F17.4°C 53.3°F11.8°C 70% 2.7 mph W4.3 kmh W 4.2 mph6.8 kmh 29.94 in1013.9 mb 0.00 in0.0 mm 0.00 in0.0 mm 0.30 in7.6 mm
01:52 PM 63.5°F17.5°C 53.5°F11.9°C 70% 1.7 mph W2.7 kmh W 4.2 mph6.8 kmh 29.94 in1013.9 mb 0.00 in0.0 mm 0.00 in0.0 mm 0.30 in7.6 mm
01:51 PM 63.5°F17.5°C 53.5°F11.9°C 70% 3.2 mph W5.1 kmh W 4.2 mph6.8 kmh 29.94 in1013.9 mb 0.00 in0.0 mm 0.00 in0.0 mm 0.30 in7.6 mm
01:50 PM 63.7°F17.6°C 53.7°F12.1°C 70% 3.2 mph NW5.1 kmh NW 4.2 mph6.8 kmh 29.94 in1013.9 mb 0.00 in0.0 mm 0.00 in0.0 mm 0.30 in7.6 mm
01:49 PM 63.7°F17.6°C 53.7°F12.1°C 70% 2.2 mph NNW3.5 kmh NNW 4.2 mph6.8 kmh 29.94 in1013.9 mb 0.00 in0.0 mm 0.00 in0.0 mm 0.30 in7.6 mm
01:48 PM 63.7°F17.6°C 53.7°F12.1°C 70% 2.7 mph WNW4.3 kmh WNW 4.2 mph6.8 kmh 29.94 in1013.9 mb 0.00 in0.0 mm 0.00 in0.0 mm 0.30 in7.6 mm
01:47 PM 63.9°F17.7°C 53.9°F12.2°C 70% 1.1 mph SE1.8 kmh SE 4.2 mph6.8 kmh 29.94 in1013.9 mb 0.00 in0.0 mm 0.00 in0.0 mm 0.30 in7.6 mm
01:46 PM 64.8°F18.2°C 54.8°F12.7°C 70% 2.2 mph SSW3.5 kmh SSW 4.2 mph6.8 kmh 29.94 in1013.9 mb 0.00 in0.0 mm 0.00 in0.0 mm 0.30 in7.6 mm
01:45 PM 64.8°F18.2°C 54.8°F12.7°C 70% 2.7 mph W4.3 kmh W 4.2 mph6.8 kmh 29.94 in1013.9 mb 0.00 in0.0 mm 0.00 in0.0 mm 0.30 in7.6 mm
01:44 PM 64.2°F17.9°C 54.2°F12.3°C 70% 2.7 mph W4.3 kmh W 3.7 mph6.0 kmh 29.94 in1013.9 mb 0.00 in0.0 mm 0.00 in0.0 mm 0.30 in7.6 mm
01:43 PM 63.7°F17.6°C 53.3°F11.8°C 69% 3.2 mph WNW5.1 kmh WNW 5.8 mph9.3 kmh 29.94 in1013.9 mb 0.00 in0.0 mm 0.00 in0.0 mm 0.30 in7.6 mm
01:42 PM 63.7°F17.6°C 53.3°F11.8°C 69% 2.7 mph NNE4.3 kmh NNE 5.8 mph9.3 kmh 29.94 in1013.9 mb 0.00 in0.0 mm 0.00 in0.0 mm 0.30 in7.6 mm
01:41 PM 63.9°F17.7°C 53.5°F11.9°C 69% 2.7 mph WNW4.3 kmh WNW 5.8 mph9.3 kmh 29.94 in1013.9 mb 0.00 in0.0 mm 0.00 in0.0 mm 0.30 in7.6 mm
01:40 PM 63.9°F17.7°C 53.5°F11.9°C 69% 2.7 mph N4.3 kmh N 5.8 mph9.3 kmh 29.94 in1013.9 mb 0.00 in0.0 mm 0.00 in0.0 mm 0.30 in7.6 mm
01:39 PM 63.7°F17.6°C 53.7°F12.1°C 70% 2.2 mph NNE3.5 kmh NNE 5.8 mph9.3 kmh 29.94 in1013.9 mb 0.00 in0.0 mm 0.00 in0.0 mm 0.30 in7.6 mm
01:38 PM 63.7°F17.6°C 53.7°F12.1°C 70% 2.2 mph NNE3.5 kmh NNE 5.8 mph9.3 kmh 29.93 in1013.5 mb 0.00 in0.0 mm 0.00 in0.0 mm 0.30 in7.6 mm
01:37 PM 63.7°F17.6°C 53.7°F12.1°C 70% 2.2 mph NW3.5 kmh NW 5.8 mph9.3 kmh 29.93 in1013.5 mb 0.00 in0.0 mm 0.00 in0.0 mm 0.30 in7.6 mm
01:36 PM 63.3°F17.4°C 53.7°F12.1°C 71% 2.2 mph W3.5 kmh W 5.8 mph9.3 kmh 29.93 in1013.5 mb 0.00 in0.0 mm 0.00 in0.0 mm 0.30 in7.6 mm
01:35 PM 63.1°F17.3°C 53.5°F11.9°C 71% 1.7 mph NW2.7 kmh NW 5.8 mph9.3 kmh 29.93 in1013.5 mb 0.00 in0.0 mm 0.00 in0.0 mm 0.30 in7.6 mm
01:34 PM 63.1°F17.3°C 53.5°F11.9°C 71% 3.7 mph NNE6.0 kmh NNE 5.8 mph9.3 kmh 29.93 in1013.5 mb 0.00 in0.0 mm 0.00 in0.0 mm 0.30 in7.6 mm
01:33 PM 63.3°F17.4°C 53.3°F11.8°C 70% 5.8 mph NNE9.3 kmh NNE 5.8 mph9.3 kmh 29.93 in1013.5 mb 0.00 in0.0 mm 0.00 in0.0 mm 0.30 in7.6 mm
01:32 PM 63.5°F17.5°C 53.5°F11.9°C 70% 3.2 mph W5.1 kmh W 3.2 mph5.1 kmh 29.93 in1013.5 mb 0.00 in0.0 mm 0.00 in0.0 mm 0.30 in7.6 mm
01:31 PM 63.5°F17.5°C 53.5°F11.9°C 70% 2.7 mph W4.3 kmh W 3.2 mph5.1 kmh 29.93 in1013.5 mb 0.00 in0.0 mm 0.00 in0.0 mm 0.30 in7.6 mm
01:30 PM 63.7°F17.6°C 53.7°F12.1°C 70% 2.7 mph W4.3 kmh W 3.2 mph5.1 kmh 29.93 in1013.5 mb 0.00 in0.0 mm 0.00 in0.0 mm 0.30 in7.6 mm
01:29 PM 63.9°F17.7°C 53.9°F12.2°C 70% 2.2 mph NW3.5 kmh NW 3.7 mph6.0 kmh 29.93 in1013.5 mb 0.00 in0.0 mm 0.00 in0.0 mm 0.30 in7.6 mm
01:28 PM 64.0°F17.8°C 54.0°F12.2°C 70% 3.2 mph W5.1 kmh W 3.7 mph6.0 kmh 29.93 in1013.5 mb 0.00 in0.0 mm 0.00 in0.0 mm 0.30 in7.6 mm
01:27 PM 63.9°F17.7°C 53.9°F12.2°C 70% 2.2 mph NNE3.5 kmh NNE 4.2 mph6.8 kmh 29.93 in1013.5 mb 0.00 in0.0 mm 0.00 in0.0 mm 0.30 in7.6 mm
01:26 PM 63.7°F17.6°C 54.1°F12.3°C 71% 2.2 mph NE3.5 kmh NE 4.2 mph6.8 kmh 29.93 in1013.5 mb 0.00 in0.0 mm 0.00 in0.0 mm 0.30 in7.6 mm
01:25 PM 63.3°F17.4°C 53.7°F12.1°C 71% 1.7 mph NW2.7 kmh NW 4.2 mph6.8 kmh 29.93 in1013.5 mb 0.00 in0.0 mm 0.00 in0.0 mm 0.30 in7.6 mm
01:24 PM 63.3°F17.4°C 53.3°F11.8°C 70% 2.2 mph NNW3.5 kmh NNW 4.2 mph6.8 kmh 29.93 in1013.5 mb 0.00 in0.0 mm 0.00 in0.0 mm 0.30 in7.6 mm
01:23 PM 63.5°F17.5°C 53.5°F11.9°C 70% 2.7 mph NW4.3 kmh NW 4.2 mph6.8 kmh 29.93 in1013.5 mb 0.00 in0.0 mm 0.00 in0.0 mm 0.30 in7.6 mm
01:22 PM 63.5°F17.5°C 53.9°F12.2°C 71% 2.7 mph NNW4.3 kmh NNW 4.2 mph6.8 kmh 29.93 in1013.5 mb 0.00 in0.0 mm 0.00 in0.0 mm 0.30 in7.6 mm
01:21 PM 63.3°F17.4°C 53.7°F12.1°C 71% 1.7 mph NNW2.7 kmh NNW 4.2 mph6.8 kmh 29.93 in1013.5 mb 0.00 in0.0 mm 0.00 in0.0 mm 0.30 in7.6 mm
01:20 PM 63.3°F17.4°C 53.7°F12.1°C 71% 2.2 mph WNW3.5 kmh WNW 4.2 mph6.8 kmh 29.93 in1013.5 mb 0.00 in0.0 mm 0.00 in0.0 mm 0.30 in7.6 mm
01:19 PM 63.3°F17.4°C 53.7°F12.1°C 71% 3.2 mph WNW5.1 kmh WNW 4.2 mph6.8 kmh 29.93 in1013.5 mb 0.00 in0.0 mm 0.00 in0.0 mm 0.30 in7.6 mm
01:18 PM 63.3°F17.4°C 53.7°F12.1°C 71% 2.7 mph NNW4.3 kmh NNW 4.2 mph6.8 kmh 29.93 in1013.5 mb 0.00 in0.0 mm 0.00 in0.0 mm 0.30 in7.6 mm
01:17 PM 63.5°F17.5°C 53.9°F12.2°C 71% 4.2 mph N6.8 kmh N 4.2 mph6.8 kmh 29.93 in1013.5 mb 0.00 in0.0 mm 0.00 in0.0 mm 0.30 in7.6 mm
01:16 PM 63.5°F17.5°C 53.9°F12.2°C 71% 3.7 mph NNE6.0 kmh NNE 4.2 mph6.8 kmh 29.93 in1013.5 mb 0.00 in0.0 mm 0.00 in0.0 mm 0.30 in7.6 mm
01:15 PM 63.5°F17.5°C 53.9°F12.2°C 71% 2.2 mph NW3.5 kmh NW 4.2 mph6.8 kmh 29.93 in1013.5 mb 0.00 in0.0 mm 0.00 in0.0 mm 0.30 in7.6 mm
01:14 PM 63.3°F17.4°C 53.7°F12.1°C 71% 2.7 mph NNW4.3 kmh NNW 4.2 mph6.8 kmh 29.93 in1013.5 mb 0.00 in0.0 mm 0.00 in0.0 mm 0.30 in7.6 mm
01:13 PM 63.3°F17.4°C 53.7°F12.1°C 71% 3.7 mph NW6.0 kmh NW 4.2 mph6.8 kmh 29.93 in1013.5 mb 0.00 in0.0 mm 0.00 in0.0 mm 0.30 in7.6 mm
01:12 PM 63.1°F17.3°C 53.5°F11.9°C 71% 2.2 mph WNW3.5 kmh WNW 3.7 mph6.0 kmh 29.93 in1013.5 mb 0.00 in0.0 mm 0.00 in0.0 mm 0.30 in7.6 mm
01:11 PM 63.3°F17.4°C 53.3°F11.8°C 70% 2.2 mph NW3.5 kmh NW 3.7 mph6.0 kmh 29.93 in1013.5 mb 0.00 in0.0 mm 0.00 in0.0 mm 0.30 in7.6 mm
01:10 PM 63.3°F17.4°C 53.3°F11.8°C 70% 3.7 mph NW6.0 kmh NW 3.7 mph6.0 kmh 29.93 in1013.5 mb 0.00 in0.0 mm 0.00 in0.0 mm 0.30 in7.6 mm
01:09 PM 63.5°F17.5°C 53.5°F11.9°C 70% 2.2 mph NNE3.5 kmh NNE 3.7 mph6.0 kmh 29.93 in1013.5 mb 0.00 in0.0 mm 0.00 in0.0 mm 0.30 in7.6 mm
01:08 PM 63.5°F17.5°C 53.5°F11.9°C 70% 2.2 mph NNE3.5 kmh NNE 4.2 mph6.8 kmh 29.93 in1013.5 mb 0.00 in0.0 mm 0.00 in0.0 mm 0.30 in7.6 mm
01:07 PM 63.5°F17.5°C 53.5°F11.9°C 70% 2.7 mph NNE4.3 kmh NNE 4.2 mph6.8 kmh 29.93 in1013.5 mb 0.00 in0.0 mm 0.00 in0.0 mm 0.30 in7.6 mm
01:06 PM 63.9°F17.7°C 53.9°F12.2°C 70% 2.2 mph WNW3.5 kmh WNW 4.2 mph6.8 kmh 29.93 in1013.5 mb 0.00 in0.0 mm 0.00 in0.0 mm 0.30 in7.6 mm
01:05 PM 63.9°F17.7°C 53.9°F12.2°C 70% 3.2 mph NW5.1 kmh NW 4.2 mph6.8 kmh 29.93 in1013.5 mb 0.00 in0.0 mm 0.00 in0.0 mm 0.30 in7.6 mm
01:04 PM 63.9°F17.7°C 53.9°F12.2°C 70% 1.7 mph NNW2.7 kmh NNW 4.2 mph6.8 kmh 29.93 in1013.5 mb 0.00 in0.0 mm 0.00 in0.0 mm 0.30 in7.6 mm
01:03 PM 64.2°F17.9°C 53.4°F11.9°C 68% 1.7 mph WNW2.7 kmh WNW 4.2 mph6.8 kmh 29.93 in1013.5 mb 0.00 in0.0 mm 0.00 in0.0 mm 0.30 in7.6 mm
01:02 PM 65.3°F18.5°C 54.1°F12.3°C 67% 2.2 mph ESE3.5 kmh ESE 4.2 mph6.8 kmh 29.93 in1013.5 mb 0.00 in0.0 mm 0.00 in0.0 mm 0.30 in7.6 mm
01:01 PM 66.0°F18.9°C 54.7°F12.6°C 67% 2.7 mph WNW4.3 kmh WNW 4.2 mph6.8 kmh 29.93 in1013.5 mb 0.00 in0.0 mm 0.00 in0.0 mm 0.30 in7.6 mm
01:00 PM 66.0°F18.9°C 54.7°F12.6°C 67% 2.2 mph WNW3.5 kmh WNW 4.2 mph6.8 kmh 29.93 in1013.5 mb 0.00 in0.0 mm 0.00 in0.0 mm 0.30 in7.6 mm
12:59 PM 66.4°F19.1°C 55.1°F12.8°C 67% 3.2 mph NNW5.1 kmh NNW 4.2 mph6.8 kmh 29.93 in1013.5 mb 0.00 in0.0 mm 0.00 in0.0 mm 0.30 in7.6 mm
12:58 PM 66.7°F19.3°C 55.0°F12.8°C 66% 4.2 mph NNW6.8 kmh NNW 4.2 mph6.8 kmh 29.93 in1013.5 mb 0.00 in0.0 mm 0.00 in0.0 mm 0.30 in7.6 mm
12:57 PM 67.1°F19.5°C 55.8°F13.2°C 67% 1.7 mph NE2.7 kmh NE 3.2 mph5.1 kmh 29.93 in1013.5 mb 0.00 in0.0 mm 0.00 in0.0 mm 0.30 in7.6 mm
12:56 PM 66.6°F19.2°C 55.7°F13.2°C 68% 1.7 mph NW2.7 kmh NW 3.2 mph5.1 kmh 29.93 in1013.5 mb 0.00 in0.0 mm 0.00 in0.0 mm 0.30 in7.6 mm
12:55 PM 66.6°F19.2°C 55.7°F13.2°C 68% 2.2 mph NNE3.5 kmh NNE 3.2 mph5.1 kmh 29.93 in1013.5 mb 0.00 in0.0 mm 0.00 in0.0 mm 0.30 in7.6 mm
12:54 PM 66.4°F19.1°C 55.5°F13.1°C 68% 1.7 mph WNW2.7 kmh WNW 3.2 mph5.1 kmh 29.93 in1013.5 mb 0.00 in0.0 mm 0.00 in0.0 mm 0.30 in7.6 mm
12:53 PM 66.4°F19.1°C 55.5°F13.1°C 68% 2.2 mph NW3.5 kmh NW 3.2 mph5.1 kmh 29.93 in1013.5 mb 0.00 in0.0 mm 0.00 in0.0 mm 0.30 in7.6 mm
12:52 PM 66.2°F19.0°C 55.3°F12.9°C 68% 2.2 mph NNE3.5 kmh NNE 3.2 mph5.1 kmh 29.93 in1013.5 mb 0.00 in0.0 mm 0.00 in0.0 mm 0.30 in7.6 mm
12:51 PM 65.7°F18.7°C 55.2°F12.9°C 69% 2.7 mph NNE4.3 kmh NNE 3.2 mph5.1 kmh 29.94 in1013.9 mb 0.00 in0.0 mm 0.00 in0.0 mm 0.30 in7.6 mm
12:50 PM 65.7°F18.7°C 55.2°F12.9°C 69% 1.7 mph WNW2.7 kmh WNW 3.2 mph5.1 kmh 29.94 in1013.9 mb 0.00 in0.0 mm 0.00 in0.0 mm 0.30 in7.6 mm
12:49 PM 65.3°F18.5°C 55.3°F12.9°C 70% 2.2 mph NW3.5 kmh NW 3.2 mph5.1 kmh 29.94 in1013.9 mb 0.00 in0.0 mm 0.00 in0.0 mm 0.30 in7.6 mm
12:48 PM 64.8°F18.2°C 54.4°F12.4°C 69% 2.2 mph NW3.5 kmh NW 3.2 mph5.1 kmh 29.94 in1013.9 mb 0.00 in0.0 mm 0.00 in0.0 mm 0.30 in7.6 mm
12:47 PM 64.2°F17.9°C 54.2°F12.3°C 70% 3.2 mph WNW5.1 kmh WNW 3.2 mph5.1 kmh 29.94 in1013.9 mb 0.00 in0.0 mm 0.00 in0.0 mm 0.30 in7.6 mm
12:46 PM 64.0°F17.8°C 54.8°F12.7°C 72% 2.2 mph N3.5 kmh N 3.2 mph5.1 kmh 29.94 in1013.9 mb 0.00 in0.0 mm 0.00 in0.0 mm 0.30 in7.6 mm
12:45 PM 64.0°F17.8°C 54.8°F12.7°C 72% 2.2 mph NW3.5 kmh NW 3.2 mph5.1 kmh 29.94 in1013.9 mb 0.00 in0.0 mm 0.00 in0.0 mm 0.30 in7.6 mm
12:44 PM 64.4°F18.0°C 54.8°F12.7°C 71% 1.1 mph W1.8 kmh W 3.2 mph5.1 kmh 29.94 in1013.9 mb 0.00 in0.0 mm 0.00 in0.0 mm 0.30 in7.6 mm
12:43 PM 64.2°F17.9°C 55.0°F12.8°C 72% 2.2 mph NNW3.5 kmh NNW 2.7 mph4.3 kmh 29.94 in1013.9 mb 0.00 in0.0 mm 0.00 in0.0 mm 0.30 in7.6 mm
12:42 PM 64.4°F18.0°C 54.8°F12.7°C 71% 1.7 mph SW2.7 kmh SW 4.2 mph6.8 kmh 29.94 in1013.9 mb 0.00 in0.0 mm 0.00 in0.0 mm 0.30 in7.6 mm
12:41 PM 64.0°F17.8°C 54.4°F12.4°C 71% 1.7 mph NNW2.7 kmh NNW 4.2 mph6.8 kmh 29.94 in1013.9 mb 0.00 in0.0 mm 0.00 in0.0 mm 0.30 in7.6 mm
12:40 PM 64.0°F17.8°C 54.8°F12.7°C 72% 1.7 mph NW2.7 kmh NW 4.2 mph6.8 kmh 29.94 in1013.9 mb 0.00 in0.0 mm 0.00 in0.0 mm 0.30 in7.6 mm
12:39 PM 63.7°F17.6°C 54.5°F12.5°C 72% 2.2 mph NW3.5 kmh NW 4.2 mph6.8 kmh 29.94 in1013.9 mb 0.00 in0.0 mm 0.00 in0.0 mm 0.30 in7.6 mm
12:38 PM 63.7°F17.6°C 54.5°F12.5°C 72% 2.2 mph W3.5 kmh W 4.2 mph6.8 kmh 29.95 in1014.2 mb 0.00 in0.0 mm 0.00 in0.0 mm 0.30 in7.6 mm
12:37 PM 63.3°F17.4°C 54.5°F12.5°C 73% 2.2 mph W3.5 kmh W 4.2 mph6.8 kmh 29.95 in1014.2 mb 0.00 in0.0 mm 0.00 in0.0 mm 0.30 in7.6 mm
12:36 PM 62.8°F17.1°C 54.0°F12.2°C 73% 1.7 mph NNW2.7 kmh NNW 4.7 mph7.6 kmh 29.95 in1014.2 mb 0.00 in0.0 mm 0.00 in0.0 mm 0.30 in7.6 mm
12:35 PM 62.4°F16.9°C 53.6°F12.0°C 73% 2.2 mph NNW3.5 kmh NNW 4.7 mph7.6 kmh 29.95 in1014.2 mb 0.00 in0.0 mm 0.00 in0.0 mm 0.30 in7.6 mm
12:34 PM 62.1°F16.7°C 53.3°F11.8°C 73% 2.7 mph NW4.3 kmh NW 4.7 mph7.6 kmh 29.95 in1014.2 mb 0.00 in0.0 mm 0.00 in0.0 mm 0.30 in7.6 mm
12:33 PM 62.1°F16.7°C 53.3°F11.8°C 73% 2.7 mph NNE4.3 kmh NNE 4.7 mph7.6 kmh 29.95 in1014.2 mb 0.00 in0.0 mm 0.00 in0.0 mm 0.30 in7.6 mm
12:32 PM 62.1°F16.7°C 53.7°F12.1°C 74% 2.7 mph NNW4.3 kmh NNW 4.7 mph7.6 kmh 29.95 in1014.2 mb 0.00 in0.0 mm 0.00 in0.0 mm 0.30 in7.6 mm
12:31 PM 61.7°F16.5°C 53.3°F11.8°C 74% 2.2 mph NNW3.5 kmh NNW 4.7 mph7.6 kmh 29.95 in1014.2 mb 0.00 in0.0 mm 0.00 in0.0 mm 0.30 in7.6 mm
12:30 PM 61.5°F16.4°C 53.1°F11.7°C 74% 3.2 mph N5.1 kmh N 4.7 mph7.6 kmh 29.95 in1014.2 mb 0.00 in0.0 mm 0.00 in0.0 mm 0.30 in7.6 mm
12:29 PM 61.7°F16.5°C 53.3°F11.8°C 74% 3.7 mph NW6.0 kmh NW 4.7 mph7.6 kmh 29.95 in1014.2 mb 0.00 in0.0 mm 0.00 in0.0 mm 0.30 in7.6 mm
12:28 PM 61.7°F16.5°C 53.7°F12.1°C 75% 2.2 mph N3.5 kmh N 4.7 mph7.6 kmh 29.95 in1014.2 mb 0.00 in0.0 mm 0.00 in0.0 mm 0.30 in7.6 mm
12:27 PM 61.7°F16.5°C 53.3°F11.8°C 74% 2.2 mph E3.5 kmh E 4.7 mph7.6 kmh 29.95 in1014.2 mb 0.00 in0.0 mm 0.00 in0.0 mm 0.30 in7.6 mm
12:26 PM 61.9°F16.6°C 53.5°F11.9°C 74% 4.7 mph NE7.6 kmh NE 4.7 mph7.6 kmh 29.95 in1014.2 mb 0.00 in0.0 mm 0.00 in0.0 mm 0.30 in7.6 mm
12:25 PM 61.7°F16.5°C 53.3°F11.8°C 74% 2.7 mph NNW4.3 kmh NNW 4.2 mph6.8 kmh 29.95 in1014.2 mb 0.00 in0.0 mm 0.00 in0.0 mm 0.30 in7.6 mm
12:24 PM 61.5°F16.4°C 53.1°F11.7°C 74% 3.7 mph NNW6.0 kmh NNW 4.2 mph6.8 kmh 29.95 in1014.2 mb 0.00 in0.0 mm 0.00 in0.0 mm 0.30 in7.6 mm
12:23 PM 61.5°F16.4°C 53.1°F11.7°C 74% 3.7 mph WNW6.0 kmh WNW 4.2 mph6.8 kmh 29.95 in1014.2 mb 0.00 in0.0 mm 0.00 in0.0 mm 0.30 in7.6 mm
12:22 PM 61.5°F16.4°C 52.8°F11.6°C 73% 3.2 mph ENE5.1 kmh ENE 4.2 mph6.8 kmh 29.95 in1014.2 mb 0.00 in0.0 mm 0.00 in0.0 mm 0.30 in7.6 mm
12:21 PM 61.7°F16.5°C 53.3°F11.8°C 74% 4.2 mph N6.8 kmh N 4.2 mph6.8 kmh 29.95 in1014.2 mb 0.00 in0.0 mm 0.00 in0.0 mm 0.30 in7.6 mm
12:20 PM 61.5°F16.4°C 53.1°F11.7°C 74% 2.7 mph NNW4.3 kmh NNW 4.7 mph7.6 kmh 29.95 in1014.2 mb 0.00 in0.0 mm 0.00 in0.0 mm 0.30 in7.6 mm
12:19 PM 61.7°F16.5°C 53.0°F11.7°C 73% 2.7 mph NNW4.3 kmh NNW 4.7 mph7.6 kmh 29.95 in1014.2 mb 0.00 in0.0 mm 0.00 in0.0 mm 0.30 in7.6 mm
12:18 PM 62.1°F16.7°C 53.3°F11.8°C 73% 2.7 mph NW4.3 kmh NW 4.7 mph7.6 kmh 29.95 in1014.2 mb 0.00 in0.0 mm 0.00 in0.0 mm 0.30 in7.6 mm
12:17 PM 61.9°F16.6°C 53.1°F11.7°C 73% 2.7 mph NW4.3 kmh NW 4.7 mph7.6 kmh 29.95 in1014.2 mb 0.00 in0.0 mm 0.00 in0.0 mm 0.30 in7.6 mm
12:16 PM 62.1°F16.7°C 53.7°F12.1°C 74% 2.7 mph WNW4.3 kmh WNW 4.7 mph7.6 kmh 29.95 in1014.2 mb 0.00 in0.0 mm 0.00 in0.0 mm 0.30 in7.6 mm
12:15 PM 62.1°F16.7°C 53.7°F12.1°C 74% 3.2 mph WNW5.1 kmh WNW 4.7 mph7.6 kmh 29.95 in1014.2 mb 0.00 in0.0 mm 0.00 in0.0 mm 0.30 in7.6 mm
12:14 PM 61.9°F16.6°C 53.5°F11.9°C 74% 2.7 mph NW4.3 kmh NW 4.7 mph7.6 kmh 29.94 in1013.9 mb 0.00 in0.0 mm 0.00 in0.0 mm 0.30 in7.6 mm
12:13 PM 61.9°F16.6°C 53.5°F11.9°C 74% 3.2 mph NW5.1 kmh NW 4.7 mph7.6 kmh 29.94 in1013.9 mb 0.00 in0.0 mm 0.00 in0.0 mm 0.30 in7.6 mm
12:12 PM 61.7°F16.5°C 53.3°F11.8°C 74% 2.7 mph WSW4.3 kmh WSW 4.7 mph7.6 kmh 29.94 in1013.9 mb 0.00 in0.0 mm 0.00 in0.0 mm 0.30 in7.6 mm
12:11 PM 61.9°F16.6°C 53.1°F11.7°C 73% 4.2 mph WNW6.8 kmh WNW 4.7 mph7.6 kmh 29.94 in1013.9 mb 0.00 in0.0 mm 0.00 in0.0 mm 0.30 in7.6 mm
12:10 PM 62.1°F16.7°C 53.3°F11.8°C 73% 3.2 mph N5.1 kmh N 4.2 mph6.8 kmh 29.94 in1013.9 mb 0.00 in0.0 mm 0.00 in0.0 mm 0.30 in7.6 mm
12:09 PM 62.1°F16.7°C 53.7°F12.1°C 74% 3.2 mph N5.1 kmh N 4.2 mph6.8 kmh 29.94 in1013.9 mb 0.00 in0.0 mm 0.00 in0.0 mm 0.30 in7.6 mm
12:08 PM 62.2°F16.8°C 53.8°F12.1°C 74% 3.2 mph W5.1 kmh W 4.2 mph6.8 kmh 29.94 in1013.9 mb 0.00 in0.0 mm 0.00 in0.0 mm 0.30 in7.6 mm
12:07 PM 62.2°F16.8°C 53.8°F12.1°C 74% 2.2 mph WNW3.5 kmh WNW 4.2 mph6.8 kmh 29.94 in1013.9 mb 0.00 in0.0 mm 0.00 in0.0 mm 0.30 in7.6 mm
12:06 PM 62.1°F16.7°C 53.7°F12.1°C 74% 2.2 mph WNW3.5 kmh WNW 4.2 mph6.8 kmh 29.94 in1013.9 mb 0.00 in0.0 mm 0.00 in0.0 mm 0.30 in7.6 mm
12:05 PM 62.4°F16.9°C 53.6°F12.0°C 73% 4.2 mph NNW6.8 kmh NNW 4.2 mph6.8 kmh 29.94 in1013.9 mb 0.00 in0.0 mm 0.00 in0.0 mm 0.30 in7.6 mm
12:04 PM 62.6°F17.0°C 53.8°F12.1°C 73% 3.7 mph NW6.0 kmh NW 5.3 mph8.5 kmh 29.94 in1013.9 mb 0.00 in0.0 mm 0.00 in0.0 mm 0.30 in7.6 mm
12:03 PM 63.1°F17.3°C 54.3°F12.4°C 73% 1.1 mph W1.8 kmh W 5.3 mph8.5 kmh 29.95 in1014.2 mb 0.00 in0.0 mm 0.00 in0.0 mm 0.30 in7.6 mm
12:02 PM 63.0°F17.2°C 54.9°F12.7°C 75% 2.7 mph W4.3 kmh W 5.3 mph8.5 kmh 29.95 in1014.2 mb 0.00 in0.0 mm 0.00 in0.0 mm 0.30 in7.6 mm
12:01 PM 62.8°F17.1°C 54.8°F12.7°C 75% 1.7 mph NW2.7 kmh NW 5.3 mph8.5 kmh 29.95 in1014.2 mb 0.00 in0.0 mm 0.00 in0.0 mm 0.30 in7.6 mm
12:00 PM 62.2°F16.8°C 54.2°F12.3°C 75% 1.7 mph W2.7 kmh W 5.3 mph8.5 kmh 29.95 in1014.2 mb 0.00 in0.0 mm 0.00 in0.0 mm 0.30 in7.6 mm
11:59 AM 62.1°F16.7°C 54.4°F12.4°C 76% 1.7 mph NNE2.7 kmh NNE 5.3 mph8.5 kmh 29.95 in1014.2 mb 0.00 in0.0 mm 0.00 in0.0 mm 0.30 in7.6 mm
11:58 AM 62.1°F16.7°C 54.1°F12.3°C 75% 3.2 mph WNW5.1 kmh WNW 5.3 mph8.5 kmh 29.95 in1014.2 mb 0.00 in0.0 mm 0.00 in0.0 mm 0.30 in7.6 mm
11:57 AM 61.7°F16.5°C 53.7°F12.1°C 75% 1.7 mph NW2.7 kmh NW 5.3 mph8.5 kmh 29.95 in1014.2 mb 0.00 in0.0 mm 0.00 in0.0 mm 0.30 in7.6 mm
11:56 AM 61.7°F16.5°C 53.7°F12.1°C 75% 2.7 mph NW4.3 kmh NW 5.3 mph8.5 kmh 29.95 in1014.2 mb 0.00 in0.0 mm 0.00 in0.0 mm 0.30 in7.6 mm
11:55 AM 61.7°F16.5°C 53.3°F11.8°C 74% 2.7 mph NNW4.3 kmh NNW 5.3 mph8.5 kmh 29.95 in1014.2 mb 0.00 in0.0 mm 0.00 in0.0 mm 0.30 in7.6 mm
11:54 AM 61.7°F16.5°C 53.3°F11.8°C 74% 5.3 mph N8.5 kmh N 5.3 mph8.5 kmh 29.95 in1014.2 mb 0.00 in0.0 mm 0.00 in0.0 mm 0.30 in7.6 mm
11:53 AM 62.1°F16.7°C 53.7°F12.1°C 74% 4.2 mph NNW6.8 kmh NNW 4.2 mph6.8 kmh 29.95 in1014.2 mb 0.00 in0.0 mm 0.00 in0.0 mm 0.30 in7.6 mm
11:52 AM 62.1°F16.7°C 53.7°F12.1°C 74% 2.7 mph NNE4.3 kmh NNE 3.7 mph6.0 kmh 29.95 in1014.2 mb 0.00 in0.0 mm 0.00 in0.0 mm 0.30 in7.6 mm
11:51 AM 62.1°F16.7°C 53.7°F12.1°C 74% 2.2 mph N3.5 kmh N 3.7 mph6.0 kmh 29.95 in1014.2 mb 0.00 in0.0 mm 0.00 in0.0 mm 0.30 in7.6 mm
11:50 AM 62.2°F16.8°C 53.8°F12.1°C 74% 3.7 mph NW6.0 kmh NW 3.7 mph6.0 kmh 29.95 in1014.2 mb 0.00 in0.0 mm 0.00 in0.0 mm 0.30 in7.6 mm
11:49 AM 62.2°F16.8°C 53.8°F12.1°C 74% 2.2 mph NE3.5 kmh NE 3.7 mph6.0 kmh 29.95 in1014.2 mb 0.00 in0.0 mm 0.00 in0.0 mm 0.30 in7.6 mm
11:48 AM 62.4°F16.9°C 54.0°F12.2°C 74% 2.7 mph N4.3 kmh N 3.7 mph6.0 kmh 29.95 in1014.2 mb 0.00 in0.0 mm 0.00 in0.0 mm 0.30 in7.6 mm
11:47 AM 62.6°F17.0°C 54.2°F12.3°C 74% 2.7 mph WNW4.3 kmh WNW 3.7 mph6.0 kmh 29.95 in1014.2 mb 0.00 in0.0 mm 0.00 in0.0 mm 0.30 in7.6 mm
11:46 AM 62.6°F17.0°C 54.2°F12.3°C 74% 2.7 mph NW4.3 kmh NW 3.7 mph6.0 kmh 29.95 in1014.2 mb 0.00 in0.0 mm 0.00 in0.0 mm 0.30 in7.6 mm
11:45 AM 62.6°F17.0°C 53.8°F12.1°C 73% 2.7 mph WNW4.3 kmh WNW 3.7 mph6.0 kmh 29.95 in1014.2 mb 0.00 in0.0 mm 0.00 in0.0 mm 0.30 in7.6 mm
11:44 AM 62.8°F17.1°C 54.4°F12.4°C 74% 3.2 mph WNW5.1 kmh WNW 3.7 mph6.0 kmh 29.95 in1014.2 mb 0.00 in0.0 mm 0.00 in0.0 mm 0.30 in7.6 mm
11:43 AM 63.0°F17.2°C 54.6°F12.6°C 74% 1.7 mph NNE2.7 kmh NNE 3.7 mph6.0 kmh 29.95 in1014.2 mb 0.00 in0.0 mm 0.00 in0.0 mm 0.30 in7.6 mm
11:42 AM 62.8°F17.1°C 54.4°F12.4°C 74% 1.7 mph WNW2.7 kmh WNW 3.7 mph6.0 kmh 29.95 in1014.2 mb 0.00 in0.0 mm 0.00 in0.0 mm 0.30 in7.6 mm
11:41 AM 62.8°F17.1°C 54.0°F12.2°C 73% 1.1 mph NW1.8 kmh NW 3.7 mph6.0 kmh 29.95 in1014.2 mb 0.00 in0.0 mm 0.00 in0.0 mm 0.30 in7.6 mm
11:40 AM 62.8°F17.1°C 54.8°F12.7°C 75% 1.7 mph WNW2.7 kmh WNW 3.7 mph6.0 kmh 29.95 in1014.2 mb 0.00 in0.0 mm 0.00 in0.0 mm 0.30 in7.6 mm
11:39 AM 62.6°F17.0°C 54.6°F12.6°C 75% 3.7 mph SW6.0 kmh SW 3.7 mph6.0 kmh 29.95 in1014.2 mb 0.00 in0.0 mm 0.00 in0.0 mm 0.30 in7.6 mm
11:38 AM 62.8°F17.1°C 54.4°F12.4°C 74% 1.1 mph WNW1.8 kmh WNW 3.7 mph6.0 kmh 29.95 in1014.2 mb 0.00 in0.0 mm 0.00 in0.0 mm 0.30 in7.6 mm
11:37 AM 63.1°F17.3°C 54.7°F12.6°C 74% 2.7 mph W4.3 kmh W 3.7 mph6.0 kmh 29.95 in1014.2 mb 0.00 in0.0 mm 0.00 in0.0 mm 0.30 in7.6 mm
11:36 AM 62.8°F17.1°C 54.0°F12.2°C 73% Calm Calm 3.7 mph6.0 kmh 29.95 in1014.2 mb 0.00 in0.0 mm 0.00 in0.0 mm 0.30 in7.6 mm
11:35 AM 63.0°F17.2°C 53.8°F12.1°C 72% Calm Calm 3.7 mph6.0 kmh 29.95 in1014.2 mb 0.00 in0.0 mm 0.00 in0.0 mm 0.30 in7.6 mm
11:34 AM 63.1°F17.3°C 53.9°F12.2°C 72% 2.2 mph NW3.5 kmh NW 3.7 mph6.0 kmh 29.95 in1014.2 mb 0.00 in0.0 mm 0.00 in0.0 mm 0.30 in7.6 mm
11:33 AM 63.3°F17.4°C 54.1°F12.3°C 72% 1.7 mph NNW2.7 kmh NNW 2.7 mph4.3 kmh 29.95 in1014.2 mb 0.00 in0.0 mm 0.00 in0.0 mm 0.30 in7.6 mm
11:32 AM 63.1°F17.3°C 53.9°F12.2°C 72% 1.7 mph WNW2.7 kmh WNW 2.7 mph4.3 kmh 29.95 in1014.2 mb 0.00 in0.0 mm 0.00 in0.0 mm 0.30 in7.6 mm
11:31 AM 62.8°F17.1°C 54.0°F12.2°C 73% 1.7 mph WNW2.7 kmh WNW 2.7 mph4.3 kmh 29.95 in1014.2 mb 0.00 in0.0 mm 0.00 in0.0 mm 0.30 in7.6 mm
11:30 AM 63.3°F17.4°C 54.1°F12.3°C 72% 1.1 mph NNE1.8 kmh NNE 2.7 mph4.3 kmh 29.95 in1014.2 mb 0.00 in0.0 mm 0.00 in0.0 mm 0.30 in7.6 mm
11:29 AM 63.5°F17.5°C 54.3°F12.4°C 72% 2.2 mph NNW3.5 kmh NNW 2.7 mph4.3 kmh 29.95 in1014.2 mb 0.00 in0.0 mm 0.00 in0.0 mm 0.30 in7.6 mm
11:28 AM 63.9°F17.7°C 54.7°F12.6°C 72% 2.7 mph NNW4.3 kmh NNW 2.7 mph4.3 kmh 29.95 in1014.2 mb 0.00 in0.0 mm 0.00 in0.0 mm 0.30 in7.6 mm
11:27 AM 63.9°F17.7°C 55.1°F12.8°C 73% 2.2 mph NNW3.5 kmh NNW 3.2 mph5.1 kmh 29.95 in1014.2 mb 0.00 in0.0 mm 0.00 in0.0 mm 0.30 in7.6 mm
11:26 AM 63.7°F17.6°C 54.9°F12.7°C 73% 2.2 mph W3.5 kmh W 3.2 mph5.1 kmh 29.95 in1014.2 mb 0.00 in0.0 mm 0.00 in0.0 mm 0.30 in7.6 mm
11:25 AM 63.9°F17.7°C 54.7°F12.6°C 72% 1.1 mph NNW1.8 kmh NNW 3.2 mph5.1 kmh 29.95 in1014.2 mb 0.00 in0.0 mm 0.00 in0.0 mm 0.30 in7.6 mm
11:24 AM 63.9°F17.7°C 54.7°F12.6°C 72% 2.2 mph NNW3.5 kmh NNW 4.2 mph6.8 kmh 29.95 in1014.2 mb 0.00 in0.0 mm 0.00 in0.0 mm 0.30 in7.6 mm
11:23 AM 63.7°F17.6°C 54.9°F12.7°C 73% 1.7 mph NNW2.7 kmh NNW 4.2 mph6.8 kmh 29.95 in1014.2 mb 0.00 in0.0 mm 0.00 in0.0 mm 0.30 in7.6 mm
11:22 AM 63.5°F17.5°C 54.3°F12.4°C 72% 1.7 mph NNW2.7 kmh NNW 4.2 mph6.8 kmh 29.95 in1014.2 mb 0.00 in0.0 mm 0.00 in0.0 mm 0.30 in7.6 mm
11:21 AM 62.8°F17.1°C 53.6°F12.0°C 72% Calm Calm 4.2 mph6.8 kmh 29.95 in1014.2 mb 0.00 in0.0 mm 0.00 in0.0 mm 0.30 in7.6 mm
11:20 AM 63.1°F17.3°C 53.5°F11.9°C 71% 1.7 mph SSW2.7 kmh SSW 4.2 mph6.8 kmh 29.95 in1014.2 mb 0.00 in0.0 mm 0.00 in0.0 mm 0.30 in7.6 mm
11:19 AM 63.5°F17.5°C 53.5°F11.9°C 70% 2.2 mph SW3.5 kmh SW 4.2 mph6.8 kmh 29.95 in1014.2 mb 0.00 in0.0 mm 0.00 in0.0 mm 0.30 in7.6 mm
11:18 AM 63.9°F17.7°C 53.9°F12.2°C 70% 1.7 mph NW2.7 kmh NW 4.2 mph6.8 kmh 29.95 in1014.2 mb 0.00 in0.0 mm 0.00 in0.0 mm 0.30 in7.6 mm
11:17 AM 63.9°F17.7°C 54.3°F12.4°C 71% 3.2 mph NNW5.1 kmh NNW 4.2 mph6.8 kmh 29.95 in1014.2 mb 0.00 in0.0 mm 0.00 in0.0 mm 0.30 in7.6 mm
11:16 AM 64.2°F17.9°C 54.2°F12.3°C 70% 2.2 mph NNE3.5 kmh NNE 4.2 mph6.8 kmh 29.95 in1014.2 mb 0.00 in0.0 mm 0.00 in0.0 mm 0.30 in7.6 mm
11:15 AM 64.8°F18.2°C 54.4°F12.4°C 69% 2.7 mph NNE4.3 kmh NNE 4.2 mph6.8 kmh 29.94 in1013.9 mb 0.00 in0.0 mm 0.00 in0.0 mm 0.30 in7.6 mm
11:14 AM 64.9°F18.3°C 54.9°F12.7°C 70% 2.7 mph NW4.3 kmh NW 3.2 mph5.1 kmh 29.94 in1013.9 mb 0.00 in0.0 mm 0.00 in0.0 mm 0.30 in7.6 mm
11:13 AM 64.8°F18.2°C 54.8°F12.7°C 70% 1.1 mph NNW1.8 kmh NNW 3.2 mph5.1 kmh 29.94 in1013.9 mb 0.00 in0.0 mm 0.00 in0.0 mm 0.30 in7.6 mm
11:12 AM 64.9°F18.3°C 54.9°F12.7°C 70% 2.2 mph W3.5 kmh W 3.2 mph5.1 kmh 29.94 in1013.9 mb 0.00 in0.0 mm 0.00 in0.0 mm 0.30 in7.6 mm
11:11 AM 64.6°F18.1°C 54.6°F12.6°C 70% 1.7 mph NNW2.7 kmh NNW 3.2 mph5.1 kmh 29.94 in1013.9 mb 0.00 in0.0 mm 0.00 in0.0 mm 0.30 in7.6 mm
11:10 AM 64.8°F18.2°C 54.8°F12.7°C 70% 1.7 mph NNW2.7 kmh NNW 3.2 mph5.1 kmh 29.94 in1013.9 mb 0.00 in0.0 mm 0.00 in0.0 mm 0.30 in7.6 mm
11:09 AM 64.2°F17.9°C 54.2°F12.3°C 70% 2.2 mph ENE3.5 kmh ENE 3.2 mph5.1 kmh 29.94 in1013.9 mb 0.00 in0.0 mm 0.00 in0.0 mm 0.30 in7.6 mm
11:08 AM 64.2°F17.9°C 53.8°F12.1°C 69% 2.2 mph W3.5 kmh W 3.2 mph5.1 kmh 29.94 in1013.9 mb 0.00 in0.0 mm 0.00 in0.0 mm 0.30 in7.6 mm
11:07 AM 64.9°F18.3°C 54.1°F12.3°C 68% 1.1 mph S1.8 kmh S 3.2 mph5.1 kmh 29.94 in1013.9 mb 0.00 in0.0 mm 0.00 in0.0 mm 0.30 in7.6 mm
11:06 AM 66.2°F19.0°C 55.7°F13.2°C 69% 2.7 mph NW4.3 kmh NW 2.7 mph4.3 kmh 29.94 in1013.9 mb 0.00 in0.0 mm 0.00 in0.0 mm 0.30 in7.6 mm
11:05 AM 66.4°F19.1°C 55.9°F13.3°C 69% 2.7 mph NW4.3 kmh NW 2.7 mph4.3 kmh 29.94 in1013.9 mb 0.00 in0.0 mm 0.00 in0.0 mm 0.30 in7.6 mm
11:04 AM 66.2°F19.0°C 55.7°F13.2°C 69% 2.2 mph WNW3.5 kmh WNW 2.7 mph4.3 kmh 29.94 in1013.9 mb 0.00 in0.0 mm 0.00 in0.0 mm 0.30 in7.6 mm
11:03 AM 66.0°F18.9°C 55.9°F13.3°C 70% 2.7 mph WNW4.3 kmh WNW 2.7 mph4.3 kmh 29.94 in1013.9 mb 0.00 in0.0 mm 0.00 in0.0 mm 0.30 in7.6 mm
11:02 AM 65.8°F18.8°C 54.9°F12.7°C 68% 2.7 mph NNW4.3 kmh NNW 3.2 mph5.1 kmh 29.94 in1013.9 mb 0.00 in0.0 mm 0.00 in0.0 mm 0.30 in7.6 mm
11:01 AM 65.1°F18.4°C 55.1°F12.8°C 70% 1.7 mph WNW2.7 kmh WNW 3.2 mph5.1 kmh 29.94 in1013.9 mb 0.00 in0.0 mm 0.00 in0.0 mm 0.30 in7.6 mm
11:00 AM 64.4°F18.0°C 55.2°F12.9°C 72% 1.7 mph NNE2.7 kmh NNE 3.2 mph5.1 kmh 29.94 in1013.9 mb 0.00 in0.0 mm 0.00 in0.0 mm 0.30 in7.6 mm
10:59 AM 63.5°F17.5°C 53.9°F12.2°C 71% 2.2 mph W3.5 kmh W 3.2 mph5.1 kmh 29.94 in1013.9 mb 0.00 in0.0 mm 0.00 in0.0 mm 0.30 in7.6 mm
10:58 AM 63.9°F17.7°C 53.9°F12.2°C 70% 2.2 mph ESE3.5 kmh ESE 3.2 mph5.1 kmh 29.94 in1013.9 mb 0.00 in0.0 mm 0.00 in0.0 mm 0.30 in7.6 mm
10:57 AM 63.9°F17.7°C 53.9°F12.2°C 70% 2.2 mph WNW3.5 kmh WNW 3.2 mph5.1 kmh 29.94 in1013.9 mb 0.00 in0.0 mm 0.00 in0.0 mm 0.30 in7.6 mm
10:56 AM 63.7°F17.6°C 53.7°F12.1°C 70% 1.1 mph SSE1.8 kmh SSE 3.2 mph5.1 kmh 29.94 in1013.9 mb 0.00 in0.0 mm 0.00 in0.0 mm 0.30 in7.6 mm
10:55 AM 64.2°F17.9°C 53.8°F12.1°C 69% 1.7 mph W2.7 kmh W 3.2 mph5.1 kmh 29.94 in1013.9 mb 0.00 in0.0 mm 0.00 in0.0 mm 0.30 in7.6 mm
10:54 AM 63.7°F17.6°C 54.1°F12.3°C 71% 2.7 mph NNW4.3 kmh NNW 3.2 mph5.1 kmh 29.94 in1013.9 mb 0.00 in0.0 mm 0.00 in0.0 mm 0.30 in7.6 mm
10:53 AM 63.9°F17.7°C 53.9°F12.2°C 70% 3.2 mph WNW5.1 kmh WNW 3.2 mph5.1 kmh 29.94 in1013.9 mb 0.00 in0.0 mm 0.00 in0.0 mm 0.30 in7.6 mm
10:52 AM 64.2°F17.9°C 53.8°F12.1°C 69% 1.7 mph SW2.7 kmh SW 2.7 mph4.3 kmh 29.94 in1013.9 mb 0.00 in0.0 mm 0.00 in0.0 mm 0.30 in7.6 mm
10:51 AM 64.8°F18.2°C 55.2°F12.9°C 71% 2.2 mph NNW3.5 kmh NNW 4.2 mph6.8 kmh 29.94 in1013.9 mb 0.00 in0.0 mm 0.00 in0.0 mm 0.30 in7.6 mm
10:50 AM 64.6°F18.1°C 55.0°F12.8°C 71% 2.2 mph WNW3.5 kmh WNW 4.2 mph6.8 kmh 29.94 in1013.9 mb 0.00 in0.0 mm 0.00 in0.0 mm 0.30 in7.6 mm
10:49 AM 65.1°F18.4°C 54.7°F12.6°C 69% 2.7 mph W4.3 kmh W 4.2 mph6.8 kmh 29.94 in1013.9 mb 0.00 in0.0 mm 0.00 in0.0 mm 0.30 in7.6 mm
10:48 AM 65.3°F18.5°C 55.3°F12.9°C 70% 1.7 mph NNE2.7 kmh NNE 4.2 mph6.8 kmh 29.94 in1013.9 mb 0.00 in0.0 mm 0.00 in0.0 mm 0.30 in7.6 mm
10:47 AM 64.9°F18.3°C 55.7°F13.2°C 72% 2.7 mph NW4.3 kmh NW 4.2 mph6.8 kmh 29.94 in1013.9 mb 0.00 in0.0 mm 0.00 in0.0 mm 0.30 in7.6 mm
10:46 AM 64.8°F18.2°C 54.8°F12.7°C 70% 1.7 mph WSW2.7 kmh WSW 4.2 mph6.8 kmh 29.94 in1013.9 mb 0.00 in0.0 mm 0.00 in0.0 mm 0.30 in7.6 mm
10:45 AM 64.2°F17.9°C 54.2°F12.3°C 70% 1.7 mph N2.7 kmh N 4.2 mph6.8 kmh 29.94 in1013.9 mb 0.00 in0.0 mm 0.00 in0.0 mm 0.30 in7.6 mm
10:44 AM 64.2°F17.9°C 54.6°F12.6°C 71% 2.2 mph WNW3.5 kmh WNW 4.2 mph6.8 kmh 29.94 in1013.9 mb 0.00 in0.0 mm 0.00 in0.0 mm 0.30 in7.6 mm
10:43 AM 64.4°F18.0°C 54.4°F12.4°C 70% 1.1 mph S1.8 kmh S 4.2 mph6.8 kmh 29.94 in1013.9 mb 0.00 in0.0 mm 0.00 in0.0 mm 0.30 in7.6 mm
10:42 AM 64.9°F18.3°C 54.9°F12.7°C 70% 2.2 mph S3.5 kmh S 4.2 mph6.8 kmh 29.94 in1013.9 mb 0.00 in0.0 mm 0.00 in0.0 mm 0.30 in7.6 mm
10:41 AM 64.0°F17.8°C 55.2°F12.9°C 73% 4.2 mph W6.8 kmh W 4.2 mph6.8 kmh 29.94 in1013.9 mb 0.00 in0.0 mm 0.00 in0.0 mm 0.30 in7.6 mm
10:40 AM 63.5°F17.5°C 55.1°F12.8°C 74% Calm Calm 3.7 mph6.0 kmh 29.94 in1013.9 mb 0.00 in0.0 mm 0.00 in0.0 mm 0.30 in7.6 mm
10:39 AM 63.5°F17.5°C 54.3°F12.4°C 72% 2.2 mph W3.5 kmh W 3.7 mph6.0 kmh 29.95 in1014.2 mb 0.00 in0.0 mm 0.00 in0.0 mm 0.30 in7.6 mm
10:38 AM 63.5°F17.5°C 54.3°F12.4°C 72% 1.7 mph SSE2.7 kmh SSE 3.7 mph6.0 kmh 29.95 in1014.2 mb 0.00 in0.0 mm 0.00 in0.0 mm 0.30 in7.6 mm
10:37 AM 64.0°F17.8°C 54.8°F12.7°C 72% 2.2 mph W3.5 kmh W 4.2 mph6.8 kmh 29.95 in1014.2 mb 0.00 in0.0 mm 0.00 in0.0 mm 0.30 in7.6 mm
10:36 AM 64.0°F17.8°C 54.0°F12.2°C 70% 2.2 mph NNW3.5 kmh NNW 4.2 mph6.8 kmh 29.95 in1014.2 mb 0.00 in0.0 mm 0.00 in0.0 mm 0.30 in7.6 mm
10:35 AM 63.9°F17.7°C 54.7°F12.6°C 72% 3.2 mph NW5.1 kmh NW 4.2 mph6.8 kmh 29.95 in1014.2 mb 0.00 in0.0 mm 0.00 in0.0 mm 0.30 in7.6 mm
10:34 AM 63.0°F17.2°C 53.4°F11.9°C 71% 1.7 mph W2.7 kmh W 4.2 mph6.8 kmh 29.95 in1014.2 mb 0.00 in0.0 mm 0.00 in0.0 mm 0.30 in7.6 mm
10:33 AM 63.1°F17.3°C 53.5°F11.9°C 71% 2.2 mph SW3.5 kmh SW 4.2 mph6.8 kmh 29.95 in1014.2 mb 0.00 in0.0 mm 0.00 in0.0 mm 0.30 in7.6 mm
10:32 AM 63.3°F17.4°C 54.5°F12.5°C 73% 2.2 mph WNW3.5 kmh WNW 4.2 mph6.8 kmh 29.95 in1014.2 mb 0.00 in0.0 mm 0.00 in0.0 mm 0.30 in7.6 mm
10:31 AM 63.3°F17.4°C 53.7°F12.1°C 71% 1.7 mph WNW2.7 kmh WNW 4.2 mph6.8 kmh 29.95 in1014.2 mb 0.00 in0.0 mm 0.00 in0.0 mm 0.30 in7.6 mm
10:30 AM 63.9°F17.7°C 54.3°F12.4°C 71% 1.7 mph SSW2.7 kmh SSW 4.2 mph6.8 kmh 29.95 in1014.2 mb 0.00 in0.0 mm 0.00 in0.0 mm 0.30 in7.6 mm
10:29 AM 64.0°F17.8°C 55.2°F12.9°C 73% 2.2 mph W3.5 kmh W 4.2 mph6.8 kmh 29.95 in1014.2 mb 0.00 in0.0 mm 0.00 in0.0 mm 0.30 in7.6 mm
10:28 AM 63.5°F17.5°C 54.7°F12.6°C 73% 2.2 mph NNW3.5 kmh NNW 4.2 mph6.8 kmh 29.95 in1014.2 mb 0.00 in0.0 mm 0.00 in0.0 mm 0.30 in7.6 mm
10:27 AM 63.0°F17.2°C 53.8°F12.1°C 72% 4.2 mph WSW6.8 kmh WSW 4.2 mph6.8 kmh 29.95 in1014.2 mb 0.00 in0.0 mm 0.00 in0.0 mm 0.30 in7.6 mm
10:26 AM 63.0°F17.2°C 53.8°F12.1°C 72% 2.2 mph SE3.5 kmh SE 3.2 mph5.1 kmh 29.95 in1014.2 mb 0.00 in0.0 mm 0.00 in0.0 mm 0.30 in7.6 mm
10:25 AM 62.8°F17.1°C 53.6°F12.0°C 72% 1.1 mph NNE1.8 kmh NNE 3.2 mph5.1 kmh 29.95 in1014.2 mb 0.00 in0.0 mm 0.00 in0.0 mm 0.30 in7.6 mm
10:24 AM 62.4°F16.9°C 53.3°F11.8°C 72% 1.7 mph ESE2.7 kmh ESE 3.2 mph5.1 kmh 29.95 in1014.2 mb 0.00 in0.0 mm 0.00 in0.0 mm 0.30 in7.6 mm
10:23 AM 62.6°F17.0°C 53.1°F11.7°C 71% 2.2 mph SE3.5 kmh SE 3.2 mph5.1 kmh 29.95 in1014.2 mb 0.00 in0.0 mm 0.00 in0.0 mm 0.30 in7.6 mm
10:22 AM 62.8°F17.1°C 53.3°F11.8°C 71% 1.7 mph SSE2.7 kmh SSE 3.2 mph5.1 kmh 29.95 in1014.2 mb 0.00 in0.0 mm 0.00 in0.0 mm 0.30 in7.6 mm
10:21 AM 64.0°F17.8°C 54.4°F12.4°C 71% 2.2 mph WNW3.5 kmh WNW 3.2 mph5.1 kmh 29.95 in1014.2 mb 0.00 in0.0 mm 0.00 in0.0 mm 0.30 in7.6 mm
10:20 AM 63.7°F17.6°C 54.5°F12.5°C 72% 1.7 mph WNW2.7 kmh WNW 3.2 mph5.1 kmh 29.95 in1014.2 mb 0.00 in0.0 mm 0.00 in0.0 mm 0.30 in7.6 mm
10:19 AM 63.1°F17.3°C 54.3°F12.4°C 73% 2.7 mph W4.3 kmh W 3.2 mph5.1 kmh 29.95 in1014.2 mb 0.00 in0.0 mm 0.00 in0.0 mm 0.30 in7.6 mm
10:18 AM 63.1°F17.3°C 54.3°F12.4°C 73% 2.2 mph W3.5 kmh W 3.2 mph5.1 kmh 29.95 in1014.2 mb 0.00 in0.0 mm 0.00 in0.0 mm 0.30 in7.6 mm
10:17 AM 62.6°F17.0°C 53.8°F12.1°C 73% 1.7 mph WNW2.7 kmh WNW 3.2 mph5.1 kmh 29.95 in1014.2 mb 0.00 in0.0 mm 0.00 in0.0 mm 0.30 in7.6 mm
10:16 AM 62.1°F16.7°C 53.3°F11.8°C 73% 2.7 mph W4.3 kmh W 3.2 mph5.1 kmh 29.95 in1014.2 mb 0.00 in0.0 mm 0.00 in0.0 mm 0.30 in7.6 mm
10:15 AM 61.9°F16.6°C 53.1°F11.7°C 73% 2.7 mph NNW4.3 kmh NNW 3.2 mph5.1 kmh 29.95 in1014.2 mb 0.00 in0.0 mm 0.00 in0.0 mm 0.30 in7.6 mm
10:14 AM 62.4°F16.9°C 52.9°F11.6°C 71% 2.7 mph SSW4.3 kmh SSW 3.2 mph5.1 kmh 29.95 in1014.2 mb 0.00 in0.0 mm 0.00 in0.0 mm 0.30 in7.6 mm
10:13 AM 62.6°F17.0°C 53.4°F11.9°C 72% 2.2 mph WSW3.5 kmh WSW 3.2 mph5.1 kmh 29.95 in1014.2 mb 0.00 in0.0 mm 0.00 in0.0 mm 0.30 in7.6 mm
10:12 AM 61.9°F16.6°C 53.1°F11.7°C 73% 2.2 mph WSW3.5 kmh WSW 3.2 mph5.1 kmh 29.95 in1014.2 mb 0.00 in0.0 mm 0.00 in0.0 mm 0.30 in7.6 mm
10:11 AM 61.9°F16.6°C 53.5°F11.9°C 74% 2.7 mph SW4.3 kmh SW 2.7 mph4.3 kmh 29.95 in1014.2 mb 0.00 in0.0 mm 0.00 in0.0 mm 0.30 in7.6 mm
10:10 AM 61.9°F16.6°C 53.5°F11.9°C 74% 2.2 mph ESE3.5 kmh ESE 2.7 mph4.3 kmh 29.95 in1014.2 mb 0.00 in0.0 mm 0.00 in0.0 mm 0.30 in7.6 mm
10:09 AM 61.9°F16.6°C 53.9°F12.2°C 75% 1.1 mph WNW1.8 kmh WNW 2.7 mph4.3 kmh 29.95 in1014.2 mb 0.00 in0.0 mm 0.00 in0.0 mm 0.30 in7.6 mm
10:08 AM 61.7°F16.5°C 53.7°F12.1°C 75% 1.7 mph NNE2.7 kmh NNE 4.2 mph6.8 kmh 29.95 in1014.2 mb 0.00 in0.0 mm 0.00 in0.0 mm 0.30 in7.6 mm
10:07 AM 61.2°F16.2°C 53.2°F11.8°C 75% Calm Calm 4.2 mph6.8 kmh 29.95 in1014.2 mb 0.00 in0.0 mm 0.00 in0.0 mm 0.30 in7.6 mm
10:06 AM 61.0°F16.1°C 53.0°F11.7°C 75% 2.2 mph WSW3.5 kmh WSW 4.2 mph6.8 kmh 29.95 in1014.2 mb 0.00 in0.0 mm 0.00 in0.0 mm 0.30 in7.6 mm
10:05 AM 61.5°F16.4°C 53.9°F12.2°C 76% 2.2 mph WNW3.5 kmh WNW 4.2 mph6.8 kmh 29.95 in1014.2 mb 0.00 in0.0 mm 0.00 in0.0 mm 0.30 in7.6 mm
10:04 AM 61.2°F16.2°C 53.2°F11.8°C 75% 2.2 mph N3.5 kmh N 4.2 mph6.8 kmh 29.95 in1014.2 mb 0.00 in0.0 mm 0.00 in0.0 mm 0.30 in7.6 mm
10:03 AM 61.2°F16.2°C 53.2°F11.8°C 75% 2.2 mph NNE3.5 kmh NNE 4.2 mph6.8 kmh 29.95 in1014.2 mb 0.00 in0.0 mm 0.00 in0.0 mm 0.30 in7.6 mm
10:02 AM 60.6°F15.9°C 52.6°F11.4°C 75% 1.7 mph ENE2.7 kmh ENE 4.2 mph6.8 kmh 29.95 in1014.2 mb 0.00 in0.0 mm 0.00 in0.0 mm 0.30 in7.6 mm
10:01 AM 61.0°F16.1°C 53.7°F12.1°C 77% 2.7 mph W4.3 kmh W 4.2 mph6.8 kmh 29.95 in1014.2 mb 0.00 in0.0 mm 0.00 in0.0 mm 0.30 in7.6 mm
10:00 AM 61.3°F16.3°C 54.0°F12.2°C 77% 1.7 mph W2.7 kmh W 4.2 mph6.8 kmh 29.95 in1014.2 mb 0.00 in0.0 mm 0.00 in0.0 mm 0.30 in7.6 mm
09:59 AM 61.2°F16.2°C 53.6°F12.0°C 76% 2.7 mph WSW4.3 kmh WSW 4.2 mph6.8 kmh 29.95 in1014.2 mb 0.00 in0.0 mm 0.00 in0.0 mm 0.30 in7.6 mm
09:58 AM 61.3°F16.3°C 53.7°F12.1°C 76% 4.2 mph SW6.8 kmh SW 4.2 mph6.8 kmh 29.95 in1014.2 mb 0.00 in0.0 mm 0.00 in0.0 mm 0.30 in7.6 mm
09:57 AM 61.5°F16.4°C 53.9°F12.2°C 76% 2.2 mph W3.5 kmh W 3.7 mph6.0 kmh 29.95 in1014.2 mb 0.00 in0.0 mm 0.00 in0.0 mm 0.30 in7.6 mm
09:56 AM 61.9°F16.6°C 54.2°F12.3°C 76% 1.7 mph NW2.7 kmh NW 3.7 mph6.0 kmh 29.95 in1014.2 mb 0.00 in0.0 mm 0.00 in0.0 mm 0.30 in7.6 mm
09:55 AM 61.9°F16.6°C 54.2°F12.3°C 76% 1.7 mph NW2.7 kmh NW 3.7 mph6.0 kmh 29.95 in1014.2 mb 0.00 in0.0 mm 0.00 in0.0 mm 0.30 in7.6 mm
09:54 AM 61.0°F16.1°C 53.7°F12.1°C 77% 1.1 mph N1.8 kmh N 3.7 mph6.0 kmh 29.95 in1014.2 mb 0.00 in0.0 mm 0.00 in0.0 mm 0.30 in7.6 mm
09:53 AM 60.8°F16.0°C 53.5°F11.9°C 77% 2.2 mph NW3.5 kmh NW 3.7 mph6.0 kmh 29.95 in1014.2 mb 0.00 in0.0 mm 0.00 in0.0 mm 0.30 in7.6 mm
09:52 AM 60.6°F15.9°C 53.7°F12.1°C 78% 2.2 mph NW3.5 kmh NW 3.7 mph6.0 kmh 29.95 in1014.2 mb 0.00 in0.0 mm 0.00 in0.0 mm 0.30 in7.6 mm
09:51 AM 60.6°F15.9°C 53.3°F11.8°C 77% 1.7 mph W2.7 kmh W 3.7 mph6.0 kmh 29.95 in1014.2 mb 0.00 in0.0 mm 0.00 in0.0 mm 0.30 in7.6 mm
09:50 AM 60.4°F15.8°C 53.2°F11.8°C 77% 2.2 mph NE3.5 kmh NE 3.7 mph6.0 kmh 29.95 in1014.2 mb 0.00 in0.0 mm 0.00 in0.0 mm 0.30 in7.6 mm
09:49 AM 60.4°F15.8°C 53.5°F11.9°C 78% 2.2 mph NNW3.5 kmh NNW 3.7 mph6.0 kmh 29.95 in1014.2 mb 0.00 in0.0 mm 0.00 in0.0 mm 0.30 in7.6 mm
09:48 AM 60.3°F15.7°C 53.8°F12.1°C 79% 2.2 mph NNW3.5 kmh NNW 4.7 mph7.6 kmh 29.95 in1014.2 mb 0.00 in0.0 mm 0.00 in0.0 mm 0.30 in7.6 mm
09:47 AM 59.9°F15.5°C 53.7°F12.1°C 80% Calm Calm 4.7 mph7.6 kmh 29.95 in1014.2 mb 0.00 in0.0 mm 0.00 in0.0 mm 0.30 in7.6 mm
09:46 AM 60.1°F15.6°C 53.6°F12.0°C 79% 1.7 mph W2.7 kmh W 4.7 mph7.6 kmh 29.95 in1014.2 mb 0.00 in0.0 mm 0.00 in0.0 mm 0.30 in7.6 mm
09:45 AM 60.3°F15.7°C 54.1°F12.3°C 80% 1.7 mph WNW2.7 kmh WNW 4.7 mph7.6 kmh 29.95 in1014.2 mb 0.00 in0.0 mm 0.00 in0.0 mm 0.30 in7.6 mm
09:44 AM 59.9°F15.5°C 54.1°F12.3°C 81% 1.7 mph WNW2.7 kmh WNW 4.7 mph7.6 kmh 29.95 in1014.2 mb 0.00 in0.0 mm 0.00 in0.0 mm 0.30 in7.6 mm
09:43 AM 59.5°F15.3°C 53.7°F12.1°C 81% 1.7 mph WSW2.7 kmh WSW 4.7 mph7.6 kmh 29.95 in1014.2 mb 0.00 in0.0 mm 0.00 in0.0 mm 0.30 in7.6 mm
09:42 AM 59.0°F15.0°C 53.2°F11.8°C 81% Calm Calm 4.7 mph7.6 kmh 29.95 in1014.2 mb 0.00 in0.0 mm 0.00 in0.0 mm 0.30 in7.6 mm
09:41 AM 58.8°F14.9°C 52.6°F11.4°C 80% 2.7 mph S4.3 kmh S 4.7 mph7.6 kmh 29.95 in1014.2 mb 0.00 in0.0 mm 0.00 in0.0 mm 0.30 in7.6 mm
09:40 AM 59.4°F15.2°C 53.2°F11.8°C 80% 1.7 mph ENE2.7 kmh ENE 4.7 mph7.6 kmh 29.95 in1014.2 mb 0.00 in0.0 mm 0.00 in0.0 mm 0.30 in7.6 mm
09:39 AM 59.2°F15.1°C 53.0°F11.7°C 80% 3.7 mph ENE6.0 kmh ENE 4.7 mph7.6 kmh 29.95 in1014.2 mb 0.00 in0.0 mm 0.00 in0.0 mm 0.30 in7.6 mm
09:38 AM 59.4°F15.2°C 53.2°F11.8°C 80% 4.7 mph SSW7.6 kmh SSW 4.7 mph7.6 kmh 29.95 in1014.2 mb 0.00 in0.0 mm 0.00 in0.0 mm 0.30 in7.6 mm
09:37 AM 59.7°F15.4°C 53.5°F11.9°C 80% 1.7 mph WSW2.7 kmh WSW 3.7 mph6.0 kmh 29.95 in1014.2 mb 0.00 in0.0 mm 0.00 in0.0 mm 0.30 in7.6 mm
09:36 AM 59.5°F15.3°C 53.3°F11.8°C 80% 2.2 mph W3.5 kmh W 3.7 mph6.0 kmh 29.95 in1014.2 mb 0.00 in0.0 mm 0.00 in0.0 mm 0.30 in7.6 mm
09:35 AM 59.5°F15.3°C 53.0°F11.7°C 79% 1.7 mph ESE2.7 kmh ESE 3.7 mph6.0 kmh 29.95 in1014.2 mb 0.00 in0.0 mm 0.00 in0.0 mm 0.30 in7.6 mm
09:34 AM 59.5°F15.3°C 53.0°F11.7°C 79% 1.7 mph SSW2.7 kmh SSW 3.7 mph6.0 kmh 29.95 in1014.2 mb 0.00 in0.0 mm 0.00 in0.0 mm 0.30 in7.6 mm
09:33 AM 59.5°F15.3°C 53.3°F11.8°C 80% 1.1 mph W1.8 kmh W 3.7 mph6.0 kmh 29.95 in1014.2 mb 0.00 in0.0 mm 0.00 in0.0 mm 0.30 in7.6 mm
09:32 AM 59.7°F15.4°C 53.5°F11.9°C 80% 1.7 mph W2.7 kmh W 3.7 mph6.0 kmh 29.95 in1014.2 mb 0.00 in0.0 mm 0.00 in0.0 mm 0.30 in7.6 mm
09:31 AM 59.2°F15.1°C 53.0°F11.7°C 80% 1.7 mph NW2.7 kmh NW 3.7 mph6.0 kmh 29.95 in1014.2 mb 0.00 in0.0 mm 0.00 in0.0 mm 0.30 in7.6 mm
09:30 AM 59.0°F15.0°C 52.8°F11.6°C 80% 2.2 mph SW3.5 kmh SW 3.7 mph6.0 kmh 29.95 in1014.2 mb 0.00 in0.0 mm 0.00 in0.0 mm 0.30 in7.6 mm
09:29 AM 58.8°F14.9°C 53.0°F11.7°C 81% 3.7 mph WSW6.0 kmh WSW 3.7 mph6.0 kmh 29.95 in1014.2 mb 0.00 in0.0 mm 0.00 in0.0 mm 0.30 in7.6 mm
09:28 AM 59.0°F15.0°C 53.5°F11.9°C 82% 2.7 mph W4.3 kmh W 3.7 mph6.0 kmh 29.95 in1014.2 mb 0.00 in0.0 mm 0.00 in0.0 mm 0.30 in7.6 mm
09:27 AM 58.6°F14.8°C 53.1°F11.7°C 82% Calm Calm 3.7 mph6.0 kmh 29.95 in1014.2 mb 0.00 in0.0 mm 0.00 in0.0 mm 0.30 in7.6 mm
09:26 AM 58.8°F14.9°C 53.0°F11.7°C 81% 1.7 mph SSE2.7 kmh SSE 3.7 mph6.0 kmh 29.95 in1014.2 mb 0.00 in0.0 mm 0.00 in0.0 mm 0.30 in7.6 mm
09:25 AM 58.8°F14.9°C 52.6°F11.4°C 80% 3.7 mph W6.0 kmh W 3.7 mph6.0 kmh 29.95 in1014.2 mb 0.00 in0.0 mm 0.00 in0.0 mm 0.30 in7.6 mm
09:24 AM 59.0°F15.0°C 53.2°F11.8°C 81% 2.2 mph ENE3.5 kmh ENE 3.2 mph5.1 kmh 29.95 in1014.2 mb 0.00 in0.0 mm 0.00 in0.0 mm 0.30 in7.6 mm
09:23 AM 59.0°F15.0°C 53.5°F11.9°C 82% 1.7 mph WNW2.7 kmh WNW 3.2 mph5.1 kmh 29.95 in1014.2 mb 0.00 in0.0 mm 0.00 in0.0 mm 0.30 in7.6 mm
09:22 AM 59.0°F15.0°C 53.5°F11.9°C 82% 2.7 mph NW4.3 kmh NW 3.7 mph6.0 kmh 29.95 in1014.2 mb 0.00 in0.0 mm 0.00 in0.0 mm 0.30 in7.6 mm
09:21 AM 58.5°F14.7°C 53.0°F11.7°C 82% 1.7 mph W2.7 kmh W 3.7 mph6.0 kmh 29.95 in1014.2 mb 0.00 in0.0 mm 0.00 in0.0 mm 0.30 in7.6 mm
09:20 AM 58.5°F14.7°C 53.0°F11.7°C 82% 3.2 mph W5.1 kmh W 3.7 mph6.0 kmh 29.95 in1014.2 mb 0.00 in0.0 mm 0.00 in0.0 mm 0.30 in7.6 mm
09:19 AM 59.0°F15.0°C 53.8°F12.1°C 83% 2.7 mph W4.3 kmh W 3.7 mph6.0 kmh 29.95 in1014.2 mb 0.00 in0.0 mm 0.00 in0.0 mm 0.30 in7.6 mm
09:18 AM 59.0°F15.0°C 53.8°F12.1°C 83% Calm Calm 3.7 mph6.0 kmh 29.95 in1014.2 mb 0.00 in0.0 mm 0.00 in0.0 mm 0.30 in7.6 mm
09:17 AM 58.6°F14.8°C 53.1°F11.7°C 82% 1.1 mph WNW1.8 kmh WNW 3.7 mph6.0 kmh 29.95 in1014.2 mb 0.00 in0.0 mm 0.00 in0.0 mm 0.30 in7.6 mm
09:16 AM 58.3°F14.6°C 53.2°F11.8°C 83% 2.7 mph WNW4.3 kmh WNW 3.7 mph6.0 kmh 29.95 in1014.2 mb 0.00 in0.0 mm 0.00 in0.0 mm 0.30 in7.6 mm
09:15 AM 58.3°F14.6°C 53.2°F11.8°C 83% 2.2 mph WNW3.5 kmh WNW 3.7 mph6.0 kmh 29.96 in1014.6 mb 0.00 in0.0 mm 0.00 in0.0 mm 0.30 in7.6 mm
09:14 AM 57.9°F14.4°C 52.4°F11.3°C 82% 2.2 mph N3.5 kmh N 3.7 mph6.0 kmh 29.96 in1014.6 mb 0.00 in0.0 mm 0.00 in0.0 mm 0.30 in7.6 mm
09:13 AM 58.1°F14.5°C 52.6°F11.4°C 82% 2.2 mph SW3.5 kmh SW 3.7 mph6.0 kmh 29.96 in1014.6 mb 0.00 in0.0 mm 0.00 in0.0 mm 0.30 in7.6 mm
09:12 AM 58.1°F14.5°C 52.6°F11.4°C 82% 3.7 mph W6.0 kmh W 3.7 mph6.0 kmh 29.96 in1014.6 mb 0.00 in0.0 mm 0.00 in0.0 mm 0.30 in7.6 mm
09:11 AM 58.3°F14.6°C 52.5°F11.4°C 81% 2.7 mph ESE4.3 kmh ESE 2.7 mph4.3 kmh 29.96 in1014.6 mb 0.00 in0.0 mm 0.00 in0.0 mm 0.30 in7.6 mm
09:10 AM 58.6°F14.8°C 53.1°F11.7°C 82% 2.7 mph W4.3 kmh W 2.7 mph4.3 kmh 29.96 in1014.6 mb 0.00 in0.0 mm 0.00 in0.0 mm 0.30 in7.6 mm
09:09 AM 58.3°F14.6°C 52.8°F11.6°C 82% 1.7 mph NW2.7 kmh NW 2.7 mph4.3 kmh 29.96 in1014.6 mb 0.00 in0.0 mm 0.00 in0.0 mm 0.30 in7.6 mm
09:08 AM 57.9°F14.4°C 52.8°F11.6°C 83% 1.1 mph NW1.8 kmh NW 2.7 mph4.3 kmh 29.96 in1014.6 mb 0.00 in0.0 mm 0.00 in0.0 mm 0.30 in7.6 mm
09:07 AM 57.4°F14.1°C 52.3°F11.3°C 83% Calm Calm 2.7 mph4.3 kmh 29.96 in1014.6 mb 0.00 in0.0 mm 0.00 in0.0 mm 0.30 in7.6 mm
09:06 AM 57.0°F13.9°C 51.9°F11.1°C 83% 2.7 mph W4.3 kmh W 3.7 mph6.0 kmh 29.96 in1014.6 mb 0.00 in0.0 mm 0.00 in0.0 mm 0.30 in7.6 mm
09:05 AM 57.0°F13.9°C 51.9°F11.1°C 83% 1.1 mph SSW1.8 kmh SSW 3.7 mph6.0 kmh 29.96 in1014.6 mb 0.00 in0.0 mm 0.00 in0.0 mm 0.30 in7.6 mm
09:04 AM 56.8°F13.8°C 52.0°F11.1°C 84% Calm Calm 3.7 mph6.0 kmh 29.96 in1014.6 mb 0.00 in0.0 mm 0.00 in0.0 mm 0.30 in7.6 mm
09:03 AM 56.8°F13.8°C 52.3°F11.3°C 85% 1.7 mph W2.7 kmh W 3.7 mph6.0 kmh 29.96 in1014.6 mb 0.00 in0.0 mm 0.00 in0.0 mm 0.30 in7.6 mm
09:02 AM 57.0°F13.9°C 52.5°F11.4°C 85% 1.7 mph W2.7 kmh W 3.7 mph6.0 kmh 29.96 in1014.6 mb 0.00 in0.0 mm 0.00 in0.0 mm 0.30 in7.6 mm
09:01 AM 56.8°F13.8°C 52.7°F11.5°C 86% 1.7 mph WNW2.7 kmh WNW 3.7 mph6.0 kmh 29.96 in1014.6 mb 0.00 in0.0 mm 0.00 in0.0 mm 0.30 in7.6 mm
09:00 AM 56.7°F13.7°C 52.6°F11.4°C 86% Calm Calm 3.7 mph6.0 kmh 29.96 in1014.6 mb 0.00 in0.0 mm 0.00 in0.0 mm 0.30 in7.6 mm
08:59 AM 56.8°F13.8°C 52.3°F11.3°C 85% 1.7 mph SW2.7 kmh SW 3.7 mph6.0 kmh 29.96 in1014.6 mb 0.00 in0.0 mm 0.00 in0.0 mm 0.30 in7.6 mm
08:58 AM 57.0°F13.9°C 52.5°F11.4°C 85% 1.1 mph W1.8 kmh W 3.7 mph6.0 kmh 29.96 in1014.6 mb 0.00 in0.0 mm 0.00 in0.0 mm 0.30 in7.6 mm
08:57 AM 56.8°F13.8°C 52.0°F11.1°C 84% 1.7 mph NW2.7 kmh NW 3.7 mph6.0 kmh 29.96 in1014.6 mb 0.00 in0.0 mm 0.00 in0.0 mm 0.30 in7.6 mm
08:56 AM 56.8°F13.8°C 52.0°F11.1°C 84% 1.7 mph NE2.7 kmh NE 3.7 mph6.0 kmh 29.96 in1014.6 mb 0.00 in0.0 mm 0.00 in0.0 mm 0.30 in7.6 mm
08:55 AM 56.8°F13.8°C 52.3°F11.3°C 85% 2.7 mph W4.3 kmh W 3.7 mph6.0 kmh 29.96 in1014.6 mb 0.00 in0.0 mm 0.00 in0.0 mm 0.30 in7.6 mm
08:54 AM 56.8°F13.8°C 52.3°F11.3°C 85% 3.2 mph ESE5.1 kmh ESE 3.7 mph6.0 kmh 29.96 in1014.6 mb 0.00 in0.0 mm 0.00 in0.0 mm 0.30 in7.6 mm
08:53 AM 57.0°F13.9°C 52.5°F11.4°C 85% 1.7 mph NW2.7 kmh NW 3.7 mph6.0 kmh 29.96 in1014.6 mb 0.00 in0.0 mm 0.00 in0.0 mm 0.30 in7.6 mm
08:52 AM 57.0°F13.9°C 52.5°F11.4°C 85% 1.7 mph WNW2.7 kmh WNW 3.7 mph6.0 kmh 29.96 in1014.6 mb 0.00 in0.0 mm 0.00 in0.0 mm 0.30 in7.6 mm
08:51 AM 56.7°F13.7°C 52.2°F11.2°C 85% Calm Calm 3.7 mph6.0 kmh 29.96 in1014.6 mb 0.00 in0.0 mm 0.00 in0.0 mm 0.30 in7.6 mm
08:50 AM 56.5°F13.6°C 52.4°F11.3°C 86% Calm Calm 3.7 mph6.0 kmh 29.96 in1014.6 mb 0.00 in0.0 mm 0.00 in0.0 mm 0.30 in7.6 mm
08:49 AM 56.1°F13.4°C 52.0°F11.1°C 86% Calm Calm 3.7 mph6.0 kmh 29.96 in1014.6 mb 0.00 in0.0 mm 0.00 in0.0 mm 0.30 in7.6 mm
08:48 AM 56.1°F13.4°C 52.0°F11.1°C 86% 2.2 mph NNW3.5 kmh NNW 3.7 mph6.0 kmh 29.96 in1014.6 mb 0.00 in0.0 mm 0.00 in0.0 mm 0.30 in7.6 mm
08:47 AM 55.9°F13.3°C 51.8°F11.0°C 86% 2.7 mph W4.3 kmh W 3.7 mph6.0 kmh 29.96 in1014.6 mb 0.00 in0.0 mm 0.00 in0.0 mm 0.30 in7.6 mm
08:46 AM 55.9°F13.3°C 51.8°F11.0°C 86% 3.7 mph W6.0 kmh W 3.7 mph6.0 kmh 29.96 in1014.6 mb 0.00 in0.0 mm 0.00 in0.0 mm 0.30 in7.6 mm
08:45 AM 55.9°F13.3°C 51.8°F11.0°C 86% 2.2 mph ESE3.5 kmh ESE 3.2 mph5.1 kmh 29.96 in1014.6 mb 0.00 in0.0 mm 0.00 in0.0 mm 0.30 in7.6 mm
08:44 AM 56.3°F13.5°C 52.5°F11.4°C 87% 2.7 mph NNW4.3 kmh NNW 3.2 mph5.1 kmh 29.96 in1014.6 mb 0.00 in0.0 mm 0.00 in0.0 mm 0.30 in7.6 mm
08:43 AM 56.1°F13.4°C 52.0°F11.1°C 86% 1.7 mph NE2.7 kmh NE 3.2 mph5.1 kmh 29.96 in1014.6 mb 0.00 in0.0 mm 0.00 in0.0 mm 0.30 in7.6 mm
08:42 AM 56.1°F13.4°C 52.3°F11.3°C 87% 2.7 mph ESE4.3 kmh ESE 3.2 mph5.1 kmh 29.96 in1014.6 mb 0.00 in0.0 mm 0.00 in0.0 mm 0.30 in7.6 mm
08:41 AM 55.9°F13.3°C 52.1°F11.2°C 87% 1.7 mph W2.7 kmh W 3.2 mph5.1 kmh 29.96 in1014.6 mb 0.00 in0.0 mm 0.00 in0.0 mm 0.30 in7.6 mm
08:40 AM 56.1°F13.4°C 52.3°F11.3°C 87% 2.7 mph W4.3 kmh W 3.2 mph5.1 kmh 29.96 in1014.6 mb 0.00 in0.0 mm 0.00 in0.0 mm 0.30 in7.6 mm
08:39 AM 56.5°F13.6°C 53.0°F11.7°C 88% 2.2 mph S3.5 kmh S 3.2 mph5.1 kmh 29.96 in1014.6 mb 0.00 in0.0 mm 0.00 in0.0 mm 0.30 in7.6 mm
08:38 AM 56.5°F13.6°C 53.0°F11.7°C 88% 1.1 mph W1.8 kmh W 3.2 mph5.1 kmh 29.96 in1014.6 mb 0.00 in0.0 mm 0.00 in0.0 mm 0.30 in7.6 mm
08:37 AM 56.1°F13.4°C 52.3°F11.3°C 87% 1.1 mph W1.8 kmh W 3.2 mph5.1 kmh 29.96 in1014.6 mb 0.00 in0.0 mm 0.00 in0.0 mm 0.30 in7.6 mm
08:36 AM 55.6°F13.1°C 52.1°F11.2°C 88% 2.2 mph W3.5 kmh W 3.2 mph5.1 kmh 29.96 in1014.6 mb 0.00 in0.0 mm 0.00 in0.0 mm 0.30 in7.6 mm
08:35 AM 55.2°F12.9°C 51.4°F10.8°C 87% 1.7 mph NNW2.7 kmh NNW 3.7 mph6.0 kmh 29.96 in1014.6 mb 0.00 in0.0 mm 0.00 in0.0 mm 0.30 in7.6 mm
08:34 AM 55.2°F12.9°C 51.4°F10.8°C 87% 2.7 mph W4.3 kmh W 3.7 mph6.0 kmh 29.96 in1014.6 mb 0.00 in0.0 mm 0.00 in0.0 mm 0.30 in7.6 mm
08:33 AM 55.2°F12.9°C 51.7°F10.9°C 88% 2.2 mph W3.5 kmh W 3.7 mph6.0 kmh 29.96 in1014.6 mb 0.00 in0.0 mm 0.00 in0.0 mm 0.30 in7.6 mm
08:32 AM 55.4°F13.0°C 51.9°F11.1°C 88% 2.7 mph SW4.3 kmh SW 3.7 mph6.0 kmh 29.96 in1014.6 mb 0.00 in0.0 mm 0.00 in0.0 mm 0.30 in7.6 mm
08:31 AM 55.0°F12.8°C 51.2°F10.7°C 87% 2.2 mph NNE3.5 kmh NNE 3.7 mph6.0 kmh 29.96 in1014.6 mb 0.00 in0.0 mm 0.00 in0.0 mm 0.30 in7.6 mm
08:30 AM 54.7°F12.6°C 51.2°F10.7°C 88% 1.1 mph W1.8 kmh W 3.7 mph6.0 kmh 29.96 in1014.6 mb 0.00 in0.0 mm 0.00 in0.0 mm 0.30 in7.6 mm
08:29 AM 54.7°F12.6°C 51.2°F10.7°C 88% 1.7 mph N2.7 kmh N 3.7 mph6.0 kmh 29.96 in1014.6 mb 0.00 in0.0 mm 0.00 in0.0 mm 0.30 in7.6 mm
08:28 AM 54.7°F12.6°C 51.8°F11.0°C 90% 1.1 mph W1.8 kmh W 3.7 mph6.0 kmh 29.96 in1014.6 mb 0.00 in0.0 mm 0.00 in0.0 mm 0.30 in7.6 mm
08:27 AM 54.5°F12.5°C 51.6°F10.9°C 90% 1.7 mph W2.7 kmh W 3.7 mph6.0 kmh 29.96 in1014.6 mb 0.00 in0.0 mm 0.00 in0.0 mm 0.30 in7.6 mm
08:26 AM 54.1°F12.3°C 50.9°F10.5°C 89% 2.7 mph SE4.3 kmh SE 3.7 mph6.0 kmh 29.97 in1014.9 mb 0.00 in0.0 mm 0.00 in0.0 mm 0.30 in7.6 mm
08:25 AM 54.5°F12.5°C 51.6°F10.9°C 90% 2.2 mph SW3.5 kmh SW 3.7 mph6.0 kmh 29.97 in1014.9 mb 0.00 in0.0 mm 0.00 in0.0 mm 0.30 in7.6 mm
08:24 AM 54.3°F12.4°C 51.1°F10.6°C 89% 3.2 mph NW5.1 kmh NW 3.7 mph6.0 kmh 29.97 in1014.9 mb 0.00 in0.0 mm 0.00 in0.0 mm 0.30 in7.6 mm
08:23 AM 54.3°F12.4°C 51.7°F10.9°C 91% 1.7 mph WNW2.7 kmh WNW 3.7 mph6.0 kmh 29.97 in1014.9 mb 0.00 in0.0 mm 0.00 in0.0 mm 0.30 in7.6 mm
08:22 AM 54.1°F12.3°C 51.2°F10.7°C 90% 2.2 mph W3.5 kmh W 3.7 mph6.0 kmh 29.97 in1014.9 mb 0.00 in0.0 mm 0.00 in0.0 mm 0.30 in7.6 mm
08:21 AM 54.3°F12.4°C 51.4°F10.8°C 90% 2.2 mph W3.5 kmh W 3.7 mph6.0 kmh 29.97 in1014.9 mb 0.00 in0.0 mm 0.00 in0.0 mm 0.30 in7.6 mm
08:20 AM 53.8°F12.1°C 50.9°F10.5°C 90% 2.2 mph W3.5 kmh W 3.7 mph6.0 kmh 29.97 in1014.9 mb 0.00 in0.0 mm 0.00 in0.0 mm 0.30 in7.6 mm
08:19 AM 53.8°F12.1°C 50.9°F10.5°C 90% 3.2 mph NNE5.1 kmh NNE 3.7 mph6.0 kmh 29.97 in1014.9 mb 0.00 in0.0 mm 0.00 in0.0 mm 0.30 in7.6 mm
08:18 AM 54.0°F12.2°C 51.4°F10.8°C 91% 2.7 mph SSW4.3 kmh SSW 3.7 mph6.0 kmh 29.97 in1014.9 mb 0.00 in0.0 mm 0.00 in0.0 mm 0.30 in7.6 mm
08:17 AM 53.8°F12.1°C 51.5°F10.8°C 92% Calm Calm 4.7 mph7.6 kmh 29.97 in1014.9 mb 0.00 in0.0 mm 0.00 in0.0 mm 0.30 in7.6 mm
08:16 AM 53.8°F12.1°C 51.5°F10.8°C 92% 1.7 mph NW2.7 kmh NW 4.7 mph7.6 kmh 29.97 in1014.9 mb 0.00 in0.0 mm 0.00 in0.0 mm 0.30 in7.6 mm
08:15 AM 53.4°F11.9°C 50.8°F10.4°C 91% 1.1 mph SSW1.8 kmh SSW 4.7 mph7.6 kmh 29.97 in1014.9 mb 0.00 in0.0 mm 0.00 in0.0 mm 0.30 in7.6 mm
08:14 AM 53.2°F11.8°C 50.6°F10.3°C 91% 1.1 mph SSW1.8 kmh SSW 4.7 mph7.6 kmh 29.97 in1014.9 mb 0.00 in0.0 mm 0.00 in0.0 mm 0.30 in7.6 mm
08:13 AM 53.1°F11.7°C 50.5°F10.3°C 91% 2.2 mph E3.5 kmh E 4.7 mph7.6 kmh 29.97 in1014.9 mb 0.00 in0.0 mm 0.00 in0.0 mm 0.30 in7.6 mm
08:12 AM 52.9°F11.6°C 50.3°F10.2°C 91% 1.7 mph ESE2.7 kmh ESE 4.7 mph7.6 kmh 29.97 in1014.9 mb 0.00 in0.0 mm 0.00 in0.0 mm 0.30 in7.6 mm
08:11 AM 52.9°F11.6°C 50.0°F10.0°C 90% 2.7 mph W4.3 kmh W 4.7 mph7.6 kmh 29.97 in1014.9 mb 0.00 in0.0 mm 0.00 in0.0 mm 0.30 in7.6 mm
08:10 AM 53.1°F11.7°C 50.5°F10.3°C 91% 3.7 mph W6.0 kmh W 4.7 mph7.6 kmh 29.97 in1014.9 mb 0.00 in0.0 mm 0.00 in0.0 mm 0.30 in7.6 mm
08:09 AM 53.1°F11.7°C 50.2°F10.1°C 90% 1.7 mph N2.7 kmh N 4.7 mph7.6 kmh 29.97 in1014.9 mb 0.00 in0.0 mm 0.00 in0.0 mm 0.30 in7.6 mm
08:08 AM 53.4°F11.9°C 50.5°F10.3°C 90% 2.7 mph NW4.3 kmh NW 4.7 mph7.6 kmh 29.97 in1014.9 mb 0.00 in0.0 mm 0.00 in0.0 mm 0.30 in7.6 mm
08:07 AM 53.8°F12.1°C 50.9°F10.5°C 90% 2.7 mph W4.3 kmh W 3.7 mph6.0 kmh 29.97 in1014.9 mb 0.00 in0.0 mm 0.00 in0.0 mm 0.30 in7.6 mm
08:06 AM 54.0°F12.2°C 51.1°F10.6°C 90% 1.7 mph W2.7 kmh W 3.7 mph6.0 kmh 29.97 in1014.9 mb 0.00 in0.0 mm 0.00 in0.0 mm 0.30 in7.6 mm
08:05 AM 54.0°F12.2°C 51.4°F10.8°C 91% 2.2 mph S3.5 kmh S 3.7 mph6.0 kmh 29.97 in1014.9 mb 0.00 in0.0 mm 0.00 in0.0 mm 0.30 in7.6 mm
08:04 AM 54.0°F12.2°C 51.4°F10.8°C 91% 1.7 mph W2.7 kmh W 3.7 mph6.0 kmh 29.97 in1014.9 mb 0.00 in0.0 mm 0.00 in0.0 mm 0.30 in7.6 mm
08:03 AM 53.6°F12.0°C 51.0°F10.6°C 91% Calm Calm 3.7 mph6.0 kmh 29.97 in1014.9 mb 0.00 in0.0 mm 0.00 in0.0 mm 0.30 in7.6 mm
08:02 AM 53.4°F11.9°C 50.8°F10.4°C 91% 2.2 mph W3.5 kmh W 3.7 mph6.0 kmh 29.98 in1015.2 mb 0.00 in0.0 mm 0.00 in0.0 mm 0.30 in7.6 mm
08:01 AM 53.4°F11.9°C 51.1°F10.6°C 92% 3.2 mph W5.1 kmh W 3.7 mph6.0 kmh 29.98 in1015.2 mb 0.00 in0.0 mm 0.00 in0.0 mm 0.30 in7.6 mm
08:00 AM 53.2°F11.8°C 50.9°F10.5°C 92% Calm Calm 3.7 mph6.0 kmh 29.98 in1015.2 mb 0.00 in0.0 mm 0.00 in0.0 mm 0.30 in7.6 mm
07:59 AM 53.2°F11.8°C 50.9°F10.5°C 92% 3.7 mph SSW6.0 kmh SSW 3.7 mph6.0 kmh 29.98 in1015.2 mb 0.00 in0.0 mm 0.00 in0.0 mm 0.30 in7.6 mm
07:58 AM 53.1°F11.7°C 50.8°F10.4°C 92% 1.7 mph W2.7 kmh W 3.7 mph6.0 kmh 29.98 in1015.2 mb 0.00 in0.0 mm 0.00 in0.0 mm 0.30 in7.6 mm
07:57 AM 52.9°F11.6°C 50.9°F10.5°C 93% 2.2 mph W3.5 kmh W 3.7 mph6.0 kmh 29.98 in1015.2 mb 0.00 in0.0 mm 0.00 in0.0 mm 0.30 in7.6 mm
07:56 AM 52.7°F11.5°C 50.7°F10.4°C 93% 2.7 mph SSW4.3 kmh SSW 4.2 mph6.8 kmh 29.98 in1015.2 mb 0.00 in0.0 mm 0.00 in0.0 mm 0.30 in7.6 mm
07:55 AM 52.7°F11.5°C 50.7°F10.4°C 93% 1.7 mph WNW2.7 kmh WNW 4.2 mph6.8 kmh 29.98 in1015.2 mb 0.00 in0.0 mm 0.00 in0.0 mm 0.30 in7.6 mm
07:54 AM 52.5°F11.4°C 50.5°F10.3°C 93% 2.2 mph NE3.5 kmh NE 4.2 mph6.8 kmh 29.98 in1015.2 mb 0.00 in0.0 mm 0.00 in0.0 mm 0.30 in7.6 mm
07:53 AM 52.3°F11.3°C 50.3°F10.2°C 93% 1.7 mph NNW2.7 kmh NNW 4.2 mph6.8 kmh 29.98 in1015.2 mb 0.00 in0.0 mm 0.00 in0.0 mm 0.30 in7.6 mm
07:52 AM 52.3°F11.3°C 50.3°F10.2°C 93% 2.7 mph NE4.3 kmh NE 4.2 mph6.8 kmh 29.98 in1015.2 mb 0.00 in0.0 mm 0.00 in0.0 mm 0.30 in7.6 mm
07:51 AM 52.2°F11.2°C 50.2°F10.1°C 93% Calm Calm 4.2 mph6.8 kmh 29.98 in1015.2 mb 0.00 in0.0 mm 0.00 in0.0 mm 0.30 in7.6 mm
07:50 AM 52.0°F11.1°C 50.0°F10.0°C 93% 1.1 mph WNW1.8 kmh WNW 4.2 mph6.8 kmh 29.98 in1015.2 mb 0.00 in0.0 mm 0.00 in0.0 mm 0.30 in7.6 mm
07:49 AM 51.8°F11.0°C 49.8°F9.9°C 93% 2.7 mph SW4.3 kmh SW 4.2 mph6.8 kmh 29.98 in1015.2 mb 0.00 in0.0 mm 0.00 in0.0 mm 0.30 in7.6 mm
07:48 AM 51.6°F10.9°C 49.6°F9.8°C 93% 3.7 mph W6.0 kmh W 4.2 mph6.8 kmh 29.98 in1015.2 mb 0.00 in0.0 mm 0.00 in0.0 mm 0.30 in7.6 mm
07:47 AM 51.6°F10.9°C 49.6°F9.8°C 93% 1.7 mph W2.7 kmh W 4.2 mph6.8 kmh 29.98 in1015.2 mb 0.00 in0.0 mm 0.00 in0.0 mm 0.30 in7.6 mm
07:46 AM 51.6°F10.9°C 49.9°F9.9°C 94% 2.2 mph W3.5 kmh W 4.2 mph6.8 kmh 29.98 in1015.2 mb 0.00 in0.0 mm 0.00 in0.0 mm 0.30 in7.6 mm
07:45 AM 51.6°F10.9°C 49.9°F9.9°C 94% 1.7 mph N2.7 kmh N 4.2 mph6.8 kmh 29.98 in1015.2 mb 0.00 in0.0 mm 0.00 in0.0 mm 0.30 in7.6 mm
07:44 AM 51.6°F10.9°C 49.9°F9.9°C 94% 3.7 mph W6.0 kmh W 4.2 mph6.8 kmh 29.98 in1015.2 mb 0.00 in0.0 mm 0.00 in0.0 mm 0.30 in7.6 mm
07:43 AM 51.8°F11.0°C 50.4°F10.2°C 95% 3.7 mph W6.0 kmh W 4.2 mph6.8 kmh 29.98 in1015.2 mb 0.00 in0.0 mm 0.00 in0.0 mm 0.30 in7.6 mm
07:42 AM 51.8°F11.0°C 50.4°F10.2°C 95% 1.1 mph NE1.8 kmh NE 4.2 mph6.8 kmh 29.98 in1015.2 mb 0.00 in0.0 mm 0.00 in0.0 mm 0.30 in7.6 mm
07:41 AM 51.6°F10.9°C 50.2°F10.1°C 95% Calm Calm 4.7 mph7.6 kmh 29.98 in1015.2 mb 0.00 in0.0 mm 0.00 in0.0 mm 0.30 in7.6 mm
07:40 AM 51.6°F10.9°C 50.2°F10.1°C 95% Calm Calm 4.7 mph7.6 kmh 29.98 in1015.2 mb 0.00 in0.0 mm 0.00 in0.0 mm 0.30 in7.6 mm
07:39 AM 51.4°F10.8°C 50.0°F10.0°C 95% 1.1 mph WNW1.8 kmh WNW 4.7 mph7.6 kmh 29.98 in1015.2 mb 0.00 in0.0 mm 0.00 in0.0 mm 0.30 in7.6 mm
07:38 AM 51.4°F10.8°C 50.0°F10.0°C 95% 4.2 mph SW6.8 kmh SW 4.7 mph7.6 kmh 29.98 in1015.2 mb 0.00 in0.0 mm 0.00 in0.0 mm 0.30 in7.6 mm
07:37 AM 51.4°F10.8°C 50.0°F10.0°C 95% Calm Calm 4.7 mph7.6 kmh 29.98 in1015.2 mb 0.00 in0.0 mm 0.00 in0.0 mm 0.30 in7.6 mm
07:36 AM 51.3°F10.7°C 49.9°F9.9°C 95% Calm Calm 5.3 mph8.5 kmh 29.98 in1015.2 mb 0.00 in0.0 mm 0.00 in0.0 mm 0.30 in7.6 mm
07:35 AM 51.1°F10.6°C 49.7°F9.8°C 95% 1.7 mph SE2.7 kmh SE 5.3 mph8.5 kmh 29.98 in1015.2 mb 0.00 in0.0 mm 0.00 in0.0 mm 0.30 in7.6 mm
07:34 AM 50.9°F10.5°C 49.5°F9.7°C 95% 1.7 mph WNW2.7 kmh WNW 5.3 mph8.5 kmh 29.98 in1015.2 mb 0.00 in0.0 mm 0.00 in0.0 mm 0.30 in7.6 mm
07:33 AM 50.9°F10.5°C 49.5°F9.7°C 95% 1.7 mph SSE2.7 kmh SSE 5.3 mph8.5 kmh 29.98 in1015.2 mb 0.00 in0.0 mm 0.00 in0.0 mm 0.30 in7.6 mm
07:32 AM 50.9°F10.5°C 49.5°F9.7°C 95% 3.7 mph SW6.0 kmh SW 5.3 mph8.5 kmh 29.98 in1015.2 mb 0.00 in0.0 mm 0.00 in0.0 mm 0.30 in7.6 mm
07:31 AM 50.9°F10.5°C 49.5°F9.7°C 95% 3.7 mph WSW6.0 kmh WSW 5.3 mph8.5 kmh 29.98 in1015.2 mb 0.00 in0.0 mm 0.00 in0.0 mm 0.30 in7.6 mm
07:30 AM 51.1°F10.6°C 49.7°F9.8°C 95% 3.2 mph SSW5.1 kmh SSW 5.3 mph8.5 kmh 29.98 in1015.2 mb 0.00 in0.0 mm 0.00 in0.0 mm 0.30 in7.6 mm
07:29 AM 51.1°F10.6°C 49.7°F9.8°C 95% 2.2 mph NW3.5 kmh NW 5.3 mph8.5 kmh 29.98 in1015.2 mb 0.00 in0.0 mm 0.00 in0.0 mm 0.30 in7.6 mm
07:28 AM 51.1°F10.6°C 49.7°F9.8°C 95% 2.2 mph ESE3.5 kmh ESE 5.3 mph8.5 kmh 29.98 in1015.2 mb 0.00 in0.0 mm 0.00 in0.0 mm 0.30 in7.6 mm
07:27 AM 51.1°F10.6°C 49.7°F9.8°C 95% 3.7 mph SW6.0 kmh SW 5.3 mph8.5 kmh 29.98 in1015.2 mb 0.00 in0.0 mm 0.00 in0.0 mm 0.30 in7.6 mm
07:26 AM 51.3°F10.7°C 50.2°F10.1°C 96% 4.7 mph NNW7.6 kmh NNW 5.3 mph8.5 kmh 29.98 in1015.2 mb 0.00 in0.0 mm 0.00 in0.0 mm 0.30 in7.6 mm
07:25 AM 51.3°F10.7°C 50.2°F10.1°C 96% 2.2 mph W3.5 kmh W 5.3 mph8.5 kmh 29.98 in1015.2 mb 0.00 in0.0 mm 0.00 in0.0 mm 0.30 in7.6 mm
07:24 AM 51.3°F10.7°C 50.5°F10.3°C 97% 4.2 mph W6.8 kmh W 4.2 mph6.8 kmh 29.98 in1015.2 mb 0.00 in0.0 mm 0.00 in0.0 mm 0.30 in7.6 mm
07:23 AM 51.1°F10.6°C 50.3°F10.2°C 97% 1.7 mph W2.7 kmh W 4.7 mph7.6 kmh 29.98 in1015.2 mb 0.00 in0.0 mm 0.00 in0.0 mm 0.30 in7.6 mm
07:22 AM 51.1°F10.6°C 50.3°F10.2°C 97% 1.1 mph NW1.8 kmh NW 4.7 mph7.6 kmh 29.98 in1015.2 mb 0.00 in0.0 mm 0.00 in0.0 mm 0.30 in7.6 mm
07:21 AM 50.9°F10.5°C 50.1°F10.1°C 97% 2.2 mph NNW3.5 kmh NNW 4.7 mph7.6 kmh 29.98 in1015.2 mb 0.00 in0.0 mm 0.00 in0.0 mm 0.30 in7.6 mm
07:20 AM 50.9°F10.5°C 50.1°F10.1°C 97% 2.2 mph SE3.5 kmh SE 4.7 mph7.6 kmh 29.98 in1015.2 mb 0.00 in0.0 mm 0.00 in0.0 mm 0.30 in7.6 mm
07:19 AM 50.7°F10.4°C 49.9°F9.9°C 97% 1.7 mph ESE2.7 kmh ESE 4.7 mph7.6 kmh 29.98 in1015.2 mb 0.00 in0.0 mm 0.00 in0.0 mm 0.30 in7.6 mm
07:18 AM 50.7°F10.4°C 49.9°F9.9°C 97% 2.7 mph WSW4.3 kmh WSW 6.8 mph10.9 kmh 29.98 in1015.2 mb 0.00 in0.0 mm 0.00 in0.0 mm 0.30 in7.6 mm
07:17 AM 50.5°F10.3°C 49.7°F9.8°C 97% Calm Calm 6.8 mph10.9 kmh 29.98 in1015.2 mb 0.00 in0.0 mm 0.00 in0.0 mm 0.30 in7.6 mm
07:16 AM 50.4°F10.2°C 49.6°F9.8°C 97% 1.7 mph WNW2.7 kmh WNW 6.8 mph10.9 kmh 29.98 in1015.2 mb 0.00 in0.0 mm 0.00 in0.0 mm 0.30 in7.6 mm
07:15 AM 50.2°F10.1°C 49.4°F9.7°C 97% 2.7 mph WSW4.3 kmh WSW 6.8 mph10.9 kmh 29.99 in1015.6 mb 0.00 in0.0 mm 0.00 in0.0 mm 0.30 in7.6 mm
07:14 AM 50.2°F10.1°C 49.4°F9.7°C 97% 3.7 mph NW6.0 kmh NW 6.8 mph10.9 kmh 29.99 in1015.6 mb 0.00 in0.0 mm 0.00 in0.0 mm 0.30 in7.6 mm
07:13 AM 50.2°F10.1°C 49.4°F9.7°C 97% 1.1 mph W1.8 kmh W 6.8 mph10.9 kmh 29.99 in1015.6 mb 0.00 in0.0 mm 0.00 in0.0 mm 0.30 in7.6 mm
07:12 AM 50.0°F10.0°C 49.2°F9.6°C 97% 2.2 mph W3.5 kmh W 6.8 mph10.9 kmh 29.99 in1015.6 mb 0.00 in0.0 mm 0.00 in0.0 mm 0.30 in7.6 mm
07:11 AM 50.0°F10.0°C 49.2°F9.6°C 97% 2.2 mph NNW3.5 kmh NNW 6.8 mph10.9 kmh 29.99 in1015.6 mb 0.00 in0.0 mm 0.00 in0.0 mm 0.30 in7.6 mm
07:10 AM 49.8°F9.9°C 49.0°F9.4°C 97% 3.2 mph W5.1 kmh W 6.8 mph10.9 kmh 29.99 in1015.6 mb 0.00 in0.0 mm 0.00 in0.0 mm 0.30 in7.6 mm
07:09 AM 49.8°F9.9°C 49.0°F9.4°C 97% 4.7 mph WNW7.6 kmh WNW 6.8 mph10.9 kmh 29.99 in1015.6 mb 0.00 in0.0 mm 0.00 in0.0 mm 0.30 in7.6 mm
07:08 AM 49.8°F9.9°C 49.3°F9.6°C 98% 6.8 mph SW10.9 kmh SW 6.8 mph10.9 kmh 29.99 in1015.6 mb 0.00 in0.0 mm 0.00 in0.0 mm 0.30 in7.6 mm
07:07 AM 49.8°F9.9°C 49.3°F9.6°C 98% 3.7 mph WSW6.0 kmh WSW 5.3 mph8.5 kmh 29.99 in1015.6 mb 0.00 in0.0 mm 0.00 in0.0 mm 0.30 in7.6 mm
07:06 AM 49.8°F9.9°C 49.3°F9.6°C 98% 3.2 mph SW5.1 kmh SW 5.3 mph8.5 kmh 29.99 in1015.6 mb 0.00 in0.0 mm 0.00 in0.0 mm 0.30 in7.6 mm
07:05 AM 49.6°F9.8°C 49.1°F9.5°C 98% 1.7 mph WSW2.7 kmh WSW 5.3 mph8.5 kmh 29.99 in1015.6 mb 0.00 in0.0 mm 0.00 in0.0 mm 0.30 in7.6 mm
07:04 AM 49.6°F9.8°C 49.1°F9.5°C 98% 3.7 mph ESE6.0 kmh ESE 5.3 mph8.5 kmh 29.99 in1015.6 mb 0.00 in0.0 mm 0.00 in0.0 mm 0.30 in7.6 mm
07:03 AM 49.6°F9.8°C 49.1°F9.5°C 98% 3.7 mph WNW6.0 kmh WNW 5.3 mph8.5 kmh 29.99 in1015.6 mb 0.00 in0.0 mm 0.00 in0.0 mm 0.30 in7.6 mm
07:02 AM 49.6°F9.8°C 49.1°F9.5°C 98% 3.7 mph W6.0 kmh W 5.3 mph8.5 kmh 29.98 in1015.2 mb 0.00 in0.0 mm 0.00 in0.0 mm 0.30 in7.6 mm
07:01 AM 49.5°F9.7°C 49.0°F9.4°C 98% 2.7 mph E4.3 kmh E 5.3 mph8.5 kmh 29.98 in1015.2 mb 0.00 in0.0 mm 0.00 in0.0 mm 0.30 in7.6 mm
07:00 AM 49.5°F9.7°C 49.0°F9.4°C 98% 4.2 mph W6.8 kmh W 5.3 mph8.5 kmh 29.98 in1015.2 mb 0.00 in0.0 mm 0.00 in0.0 mm 0.30 in7.6 mm
06:59 AM 49.5°F9.7°C 49.0°F9.4°C 98% 2.2 mph W3.5 kmh W 5.3 mph8.5 kmh 29.98 in1015.2 mb 0.00 in0.0 mm 0.00 in0.0 mm 0.30 in7.6 mm
06:58 AM 49.5°F9.7°C 49.0°F9.4°C 98% 5.3 mph SSW8.5 kmh SSW 5.3 mph8.5 kmh 29.98 in1015.2 mb 0.00 in0.0 mm 0.00 in0.0 mm 0.30 in7.6 mm
06:57 AM 49.3°F9.6°C 48.8°F9.3°C 98% 2.2 mph W3.5 kmh W 3.2 mph5.1 kmh 29.98 in1015.2 mb 0.00 in0.0 mm 0.00 in0.0 mm 0.30 in7.6 mm
06:56 AM 49.3°F9.6°C 48.8°F9.3°C 98% 2.2 mph SSW3.5 kmh SSW 3.2 mph5.1 kmh 29.98 in1015.2 mb 0.00 in0.0 mm 0.00 in0.0 mm 0.30 in7.6 mm
06:55 AM 49.3°F9.6°C 48.8°F9.3°C 98% 2.2 mph NE3.5 kmh NE 3.2 mph5.1 kmh 29.98 in1015.2 mb 0.00 in0.0 mm 0.00 in0.0 mm 0.30 in7.6 mm
06:54 AM 49.3°F9.6°C 48.8°F9.3°C 98% 1.7 mph WSW2.7 kmh WSW 3.2 mph5.1 kmh 29.98 in1015.2 mb 0.00 in0.0 mm 0.00 in0.0 mm 0.30 in7.6 mm
06:53 AM 49.3°F9.6°C 48.8°F9.3°C 98% 1.7 mph E2.7 kmh E 3.2 mph5.1 kmh 29.98 in1015.2 mb 0.00 in0.0 mm 0.00 in0.0 mm 0.30 in7.6 mm
06:52 AM 49.3°F9.6°C 48.8°F9.3°C 98% 2.2 mph W3.5 kmh W 3.2 mph5.1 kmh 29.98 in1015.2 mb 0.00 in0.0 mm 0.00 in0.0 mm 0.30 in7.6 mm
06:51 AM 49.3°F9.6°C 48.8°F9.3°C 98% Calm Calm 3.2 mph5.1 kmh 29.99 in1015.6 mb 0.00 in0.0 mm 0.00 in0.0 mm 0.30 in7.6 mm
06:50 AM 49.3°F9.6°C 48.8°F9.3°C 98% 1.7 mph W2.7 kmh W 3.2 mph5.1 kmh 29.99 in1015.6 mb 0.00 in0.0 mm 0.00 in0.0 mm 0.30 in7.6 mm
06:49 AM 49.1°F9.5°C 48.6°F9.2°C 98% Calm Calm 3.2 mph5.1 kmh 29.99 in1015.6 mb 0.00 in0.0 mm 0.00 in0.0 mm 0.30 in7.6 mm
06:48 AM 49.1°F9.5°C 48.6°F9.2°C 98% Calm Calm 3.2 mph5.1 kmh 29.99 in1015.6 mb 0.00 in0.0 mm 0.00 in0.0 mm 0.30 in7.6 mm
06:47 AM 49.1°F9.5°C 48.6°F9.2°C 98% 1.7 mph ESE2.7 kmh ESE 3.2 mph5.1 kmh 29.99 in1015.6 mb 0.00 in0.0 mm 0.00 in0.0 mm 0.30 in7.6 mm
06:46 AM 49.1°F9.5°C 48.6°F9.2°C 98% 1.7 mph SW2.7 kmh SW 3.2 mph5.1 kmh 29.99 in1015.6 mb 0.00 in0.0 mm 0.00 in0.0 mm 0.30 in7.6 mm
06:45 AM 49.1°F9.5°C 48.6°F9.2°C 98% 1.1 mph W1.8 kmh W 3.2 mph5.1 kmh 29.99 in1015.6 mb 0.00 in0.0 mm 0.00 in0.0 mm 0.30 in7.6 mm
06:44 AM 49.1°F9.5°C 48.6°F9.2°C 98% Calm Calm 3.2 mph5.1 kmh 29.99 in1015.6 mb 0.00 in0.0 mm 0.00 in0.0 mm 0.30 in7.6 mm
06:43 AM 49.1°F9.5°C 48.6°F9.2°C 98% Calm Calm 3.2 mph5.1 kmh 29.99 in1015.6 mb 0.00 in0.0 mm 0.00 in0.0 mm 0.30 in7.6 mm
06:42 AM 49.1°F9.5°C 48.8°F9.3°C 99% 2.7 mph WNW4.3 kmh WNW 2.7 mph4.3 kmh 29.99 in1015.6 mb 0.00 in0.0 mm 0.00 in0.0 mm 0.30 in7.6 mm
06:41 AM 49.1°F9.5°C 48.8°F9.3°C 99% 1.1 mph NNW1.8 kmh NNW 2.7 mph4.3 kmh 29.99 in1015.6 mb 0.00 in0.0 mm 0.00 in0.0 mm 0.30 in7.6 mm
06:40 AM 49.1°F9.5°C 48.8°F9.3°C 99% 1.7 mph WNW2.7 kmh WNW 2.7 mph4.3 kmh 29.99 in1015.6 mb 0.00 in0.0 mm 0.00 in0.0 mm 0.30 in7.6 mm
06:39 AM 49.1°F9.5°C 48.8°F9.3°C 99% 1.7 mph W2.7 kmh W 2.7 mph4.3 kmh 29.99 in1015.6 mb 0.00 in0.0 mm 0.00 in0.0 mm 0.30 in7.6 mm
06:38 AM 49.1°F9.5°C 48.8°F9.3°C 99% 1.7 mph WSW2.7 kmh WSW 2.2 mph3.5 kmh 29.99 in1015.6 mb 0.00 in0.0 mm 0.00 in0.0 mm 0.30 in7.6 mm
06:37 AM 48.9°F9.4°C 48.6°F9.2°C 99% 1.7 mph NW2.7 kmh NW 2.7 mph4.3 kmh 29.99 in1015.6 mb 0.00 in0.0 mm 0.00 in0.0 mm 0.30 in7.6 mm
06:36 AM 48.9°F9.4°C 48.6°F9.2°C 99% Calm Calm 2.7 mph4.3 kmh 29.99 in1015.6 mb 0.00 in0.0 mm 0.00 in0.0 mm 0.30 in7.6 mm
06:35 AM 48.9°F9.4°C 48.6°F9.2°C 99% Calm Calm 2.7 mph4.3 kmh 29.99 in1015.6 mb 0.00 in0.0 mm 0.00 in0.0 mm 0.30 in7.6 mm
06:34 AM 48.9°F9.4°C 48.6°F9.2°C 99% Calm Calm 2.7 mph4.3 kmh 29.99 in1015.6 mb 0.00 in0.0 mm 0.00 in0.0 mm 0.30 in7.6 mm
06:33 AM 48.9°F9.4°C 48.6°F9.2°C 99% 1.1 mph NNW1.8 kmh NNW 2.7 mph4.3 kmh 29.99 in1015.6 mb 0.00 in0.0 mm 0.00 in0.0 mm 0.30 in7.6 mm
06:32 AM 48.7°F9.3°C 48.4°F9.1°C 99% 1.7 mph W2.7 kmh W 3.2 mph5.1 kmh 29.99 in1015.6 mb 0.00 in0.0 mm 0.00 in0.0 mm 0.30 in7.6 mm
06:31 AM 48.7°F9.3°C 48.4°F9.1°C 99% Calm Calm 3.2 mph5.1 kmh 29.99 in1015.6 mb 0.00 in0.0 mm 0.00 in0.0 mm 0.30 in7.6 mm
06:30 AM 48.7°F9.3°C 48.4°F9.1°C 99% 2.2 mph ESE3.5 kmh ESE 3.7 mph6.0 kmh 29.99 in1015.6 mb 0.00 in0.0 mm 0.00 in0.0 mm 0.30 in7.6 mm
06:29 AM 48.7°F9.3°C 48.4°F9.1°C 99% 1.7 mph E2.7 kmh E 3.7 mph6.0 kmh 29.99 in1015.6 mb 0.00 in0.0 mm 0.00 in0.0 mm 0.30 in7.6 mm
06:28 AM 48.7°F9.3°C 48.4°F9.1°C 99% 2.2 mph WNW3.5 kmh WNW 3.7 mph6.0 kmh 29.99 in1015.6 mb 0.00 in0.0 mm 0.00 in0.0 mm 0.30 in7.6 mm
06:27 AM 48.7°F9.3°C 48.4°F9.1°C 99% 1.7 mph W2.7 kmh W 3.7 mph6.0 kmh 29.98 in1015.2 mb 0.00 in0.0 mm 0.00 in0.0 mm 0.30 in7.6 mm
06:26 AM 48.6°F9.2°C 48.3°F9.1°C 99% 1.7 mph NW2.7 kmh NW 3.7 mph6.0 kmh 29.98 in1015.2 mb 0.00 in0.0 mm 0.00 in0.0 mm 0.30 in7.6 mm
06:25 AM 48.6°F9.2°C 48.3°F9.1°C 99% 1.1 mph SW1.8 kmh SW 3.7 mph6.0 kmh 29.98 in1015.2 mb 0.00 in0.0 mm 0.00 in0.0 mm 0.30 in7.6 mm
06:24 AM 48.6°F9.2°C 48.3°F9.1°C 99% 1.7 mph SSE2.7 kmh SSE 3.7 mph6.0 kmh 29.98 in1015.2 mb 0.00 in0.0 mm 0.00 in0.0 mm 0.30 in7.6 mm
06:23 AM 48.6°F9.2°C 48.3°F9.1°C 99% 1.1 mph NE1.8 kmh NE 4.7 mph7.6 kmh 29.98 in1015.2 mb 0.00 in0.0 mm 0.00 in0.0 mm 0.30 in7.6 mm
06:22 AM 48.6°F9.2°C 48.3°F9.1°C 99% 3.2 mph WNW5.1 kmh WNW 4.7 mph7.6 kmh 29.98 in1015.2 mb 0.00 in0.0 mm 0.00 in0.0 mm 0.30 in7.6 mm
06:21 AM 48.6°F9.2°C 48.3°F9.1°C 99% 2.2 mph WSW3.5 kmh WSW 4.7 mph7.6 kmh 29.98 in1015.2 mb 0.00 in0.0 mm 0.00 in0.0 mm 0.30 in7.6 mm
06:20 AM 48.6°F9.2°C 48.3°F9.1°C 99% 2.2 mph ESE3.5 kmh ESE 4.7 mph7.6 kmh 29.98 in1015.2 mb 0.00 in0.0 mm 0.00 in0.0 mm 0.30 in7.6 mm
06:19 AM 48.6°F9.2°C 48.3°F9.1°C 99% 2.2 mph WSW3.5 kmh WSW 5.3 mph8.5 kmh 29.98 in1015.2 mb 0.00 in0.0 mm 0.00 in0.0 mm 0.30 in7.6 mm
06:18 AM 48.6°F9.2°C 48.3°F9.1°C 99% 1.1 mph WNW1.8 kmh WNW 5.3 mph8.5 kmh 29.98 in1015.2 mb 0.00 in0.0 mm 0.00 in0.0 mm 0.30 in7.6 mm
06:17 AM 48.4°F9.1°C 48.1°F8.9°C 99% 2.7 mph W4.3 kmh W 5.3 mph8.5 kmh 29.98 in1015.2 mb 0.00 in0.0 mm 0.00 in0.0 mm 0.30 in7.6 mm
06:16 AM 48.4°F9.1°C 48.1°F8.9°C 99% 3.2 mph SSW5.1 kmh SSW 5.8 mph9.3 kmh 29.98 in1015.2 mb 0.00 in0.0 mm 0.00 in0.0 mm 0.30 in7.6 mm
06:15 AM 48.4°F9.1°C 48.1°F8.9°C 99% 3.7 mph W6.0 kmh W 5.8 mph9.3 kmh 29.98 in1015.2 mb 0.00 in0.0 mm 0.00 in0.0 mm 0.30 in7.6 mm
06:14 AM 48.2°F9.0°C 47.9°F8.8°C 99% 2.2 mph SW3.5 kmh SW 5.8 mph9.3 kmh 29.97 in1014.9 mb 0.00 in0.0 mm 0.00 in0.0 mm 0.30 in7.6 mm
06:13 AM 48.2°F9.0°C 47.9°F8.8°C 99% 4.7 mph NNW7.6 kmh NNW 5.8 mph9.3 kmh 29.97 in1014.9 mb 0.00 in0.0 mm 0.00 in0.0 mm 0.30 in7.6 mm
06:12 AM 48.2°F9.0°C 47.9°F8.8°C 99% 3.7 mph NNW6.0 kmh NNW 5.8 mph9.3 kmh 29.97 in1014.9 mb 0.00 in0.0 mm 0.00 in0.0 mm 0.30 in7.6 mm
06:11 AM 48.2°F9.0°C 47.9°F8.8°C 99% 2.2 mph SW3.5 kmh SW 5.8 mph9.3 kmh 29.97 in1014.9 mb 0.00 in0.0 mm 0.00 in0.0 mm 0.30 in7.6 mm
06:10 AM 48.2°F9.0°C 47.9°F8.8°C 99% 3.7 mph SSW6.0 kmh SSW 5.8 mph9.3 kmh 29.97 in1014.9 mb 0.00 in0.0 mm 0.00 in0.0 mm 0.30 in7.6 mm
06:09 AM 48.2°F9.0°C 47.9°F8.8°C 99% 3.7 mph WNW6.0 kmh WNW 5.8 mph9.3 kmh 29.97 in1014.9 mb 0.00 in0.0 mm 0.00 in0.0 mm 0.30 in7.6 mm
06:08 AM 48.2°F9.0°C 47.9°F8.8°C 99% 3.7 mph W6.0 kmh W 5.8 mph9.3 kmh 29.97 in1014.9 mb 0.00 in0.0 mm 0.00 in0.0 mm 0.30 in7.6 mm
06:07 AM 48.0°F8.9°C 47.7°F8.7°C 99% 2.7 mph WNW4.3 kmh WNW 5.8 mph9.3 kmh 29.97 in1014.9 mb 0.00 in0.0 mm 0.00 in0.0 mm 0.30 in7.6 mm
06:06 AM 48.0°F8.9°C 47.7°F8.7°C 99% 5.8 mph W9.3 kmh W 5.8 mph9.3 kmh 29.97 in1014.9 mb 0.00 in0.0 mm 0.00 in0.0 mm 0.30 in7.6 mm
06:05 AM 48.0°F8.9°C 47.7°F8.7°C 99% 1.7 mph NW2.7 kmh NW 4.2 mph6.8 kmh 29.97 in1014.9 mb 0.00 in0.0 mm 0.00 in0.0 mm 0.30 in7.6 mm
06:04 AM 48.0°F8.9°C 47.7°F8.7°C 99% 2.2 mph WSW3.5 kmh WSW 4.2 mph6.8 kmh 29.97 in1014.9 mb 0.00 in0.0 mm 0.00 in0.0 mm 0.30 in7.6 mm
06:03 AM 48.0°F8.9°C 47.7°F8.7°C 99% 1.7 mph NNE2.7 kmh NNE 4.2 mph6.8 kmh 29.98 in1015.2 mb 0.00 in0.0 mm 0.00 in0.0 mm 0.30 in7.6 mm
06:02 AM 47.8°F8.8°C 47.5°F8.6°C 99% 3.7 mph WSW6.0 kmh WSW 4.2 mph6.8 kmh 29.98 in1015.2 mb 0.00 in0.0 mm 0.00 in0.0 mm 0.30 in7.6 mm
06:01 AM 47.7°F8.7°C 47.4°F8.6°C 99% 1.7 mph WSW2.7 kmh WSW 3.7 mph6.0 kmh 29.98 in1015.2 mb 0.00 in0.0 mm 0.00 in0.0 mm 0.30 in7.6 mm
06:00 AM 47.7°F8.7°C 47.4°F8.6°C 99% 2.2 mph WNW3.5 kmh WNW 3.7 mph6.0 kmh 29.98 in1015.2 mb 0.00 in0.0 mm 0.00 in0.0 mm 0.30 in7.6 mm
05:59 AM 47.7°F8.7°C 47.4°F8.6°C 99% 1.7 mph W2.7 kmh W 3.7 mph6.0 kmh 29.98 in1015.2 mb 0.00 in0.0 mm 0.00 in0.0 mm 0.30 in7.6 mm
05:58 AM 47.5°F8.6°C 47.2°F8.4°C 99% 2.7 mph WNW4.3 kmh WNW 3.7 mph6.0 kmh 29.98 in1015.2 mb 0.00 in0.0 mm 0.00 in0.0 mm 0.30 in7.6 mm
05:57 AM 47.5°F8.6°C 47.2°F8.4°C 99% 2.7 mph WSW4.3 kmh WSW 3.7 mph6.0 kmh 29.98 in1015.2 mb 0.00 in0.0 mm 0.00 in0.0 mm 0.30 in7.6 mm
05:56 AM 47.5°F8.6°C 47.2°F8.4°C 99% 2.7 mph W4.3 kmh W 3.7 mph6.0 kmh 29.98 in1015.2 mb 0.00 in0.0 mm 0.00 in0.0 mm 0.30 in7.6 mm
05:55 AM 47.5°F8.6°C 47.2°F8.4°C 99% 1.7 mph W2.7 kmh W 3.7 mph6.0 kmh 29.98 in1015.2 mb 0.00 in0.0 mm 0.00 in0.0 mm 0.30 in7.6 mm
05:54 AM 47.3°F8.5°C 47.0°F8.3°C 99% 2.2 mph W3.5 kmh W 3.7 mph6.0 kmh 29.98 in1015.2 mb 0.00 in0.0 mm 0.00 in0.0 mm 0.30 in7.6 mm
05:53 AM 47.3°F8.5°C 47.0°F8.3°C 99% 1.1 mph SSE1.8 kmh SSE 3.7 mph6.0 kmh 29.98 in1015.2 mb 0.00 in0.0 mm 0.00 in0.0 mm 0.30 in7.6 mm
05:52 AM 47.1°F8.4°C 46.8°F8.2°C 99% 2.2 mph W3.5 kmh W 3.7 mph6.0 kmh 29.98 in1015.2 mb 0.00 in0.0 mm 0.00 in0.0 mm 0.30 in7.6 mm
05:51 AM 47.1°F8.4°C 46.8°F8.2°C 99% 2.7 mph WSW4.3 kmh WSW 3.7 mph6.0 kmh 29.98 in1015.2 mb 0.00 in0.0 mm 0.00 in0.0 mm 0.30 in7.6 mm
05:50 AM 47.1°F8.4°C 46.8°F8.2°C 99% 1.7 mph SSW2.7 kmh SSW 3.7 mph6.0 kmh 29.98 in1015.2 mb 0.00 in0.0 mm 0.00 in0.0 mm 0.30 in7.6 mm
05:49 AM 47.1°F8.4°C 46.8°F8.2°C 99% 2.7 mph W4.3 kmh W 4.7 mph7.6 kmh 29.98 in1015.2 mb 0.00 in0.0 mm 0.00 in0.0 mm 0.30 in7.6 mm
05:48 AM 47.1°F8.4°C 46.8°F8.2°C 99% 1.7 mph E2.7 kmh E 4.7 mph7.6 kmh 29.98 in1015.2 mb 0.00 in0.0 mm 0.00 in0.0 mm 0.30 in7.6 mm
05:47 AM 47.1°F8.4°C 46.8°F8.2°C 99% 1.7 mph E2.7 kmh E 4.7 mph7.6 kmh 29.98 in1015.2 mb 0.00 in0.0 mm 0.00 in0.0 mm 0.30 in7.6 mm
05:46 AM 47.1°F8.4°C 46.8°F8.2°C 99% 2.2 mph WSW3.5 kmh WSW 4.7 mph7.6 kmh 29.98 in1015.2 mb 0.00 in0.0 mm 0.00 in0.0 mm 0.30 in7.6 mm
05:45 AM 47.1°F8.4°C 46.8°F8.2°C 99% 1.7 mph SSW2.7 kmh SSW 4.7 mph7.6 kmh 29.98 in1015.2 mb 0.00 in0.0 mm 0.00 in0.0 mm 0.30 in7.6 mm
05:44 AM 46.9°F8.3°C 46.6°F8.1°C 99% 2.2 mph W3.5 kmh W 4.7 mph7.6 kmh 29.98 in1015.2 mb 0.00 in0.0 mm 0.00 in0.0 mm 0.30 in7.6 mm
05:43 AM 46.9°F8.3°C 46.6°F8.1°C 99% 2.2 mph NW3.5 kmh NW 4.7 mph7.6 kmh 29.98 in1015.2 mb 0.00 in0.0 mm 0.00 in0.0 mm 0.30 in7.6 mm
05:42 AM 46.9°F8.3°C 46.6°F8.1°C 99% 3.7 mph NE6.0 kmh NE 5.8 mph9.3 kmh 29.98 in1015.2 mb 0.00 in0.0 mm 0.00 in0.0 mm 0.30 in7.6 mm
05:41 AM 46.8°F8.2°C 46.5°F8.1°C 99% 2.2 mph SSW3.5 kmh SSW 5.8 mph9.3 kmh 29.98 in1015.2 mb 0.00 in0.0 mm 0.00 in0.0 mm 0.30 in7.6 mm
05:40 AM 46.8°F8.2°C 46.5°F8.1°C 99% 4.2 mph WSW6.8 kmh WSW 5.8 mph9.3 kmh 29.98 in1015.2 mb 0.00 in0.0 mm 0.00 in0.0 mm 0.30 in7.6 mm
05:39 AM 46.8°F8.2°C 46.5°F8.1°C 99% 4.7 mph SW7.6 kmh SW 5.8 mph9.3 kmh 29.98 in1015.2 mb 0.00 in0.0 mm 0.00 in0.0 mm 0.30 in7.6 mm
05:38 AM 46.8°F8.2°C 46.5°F8.1°C 99% 2.7 mph SSW4.3 kmh SSW 5.8 mph9.3 kmh 29.99 in1015.6 mb 0.00 in0.0 mm 0.00 in0.0 mm 0.30 in7.6 mm
05:37 AM 46.8°F8.2°C 46.5°F8.1°C 99% 2.2 mph WNW3.5 kmh WNW 5.8 mph9.3 kmh 29.99 in1015.6 mb 0.00 in0.0 mm 0.00 in0.0 mm 0.30 in7.6 mm
05:36 AM 46.6°F8.1°C 46.3°F7.9°C 99% 4.2 mph SW6.8 kmh SW 5.8 mph9.3 kmh 29.99 in1015.6 mb 0.00 in0.0 mm 0.00 in0.0 mm 0.30 in7.6 mm
05:35 AM 46.6°F8.1°C 46.3°F7.9°C 99% 1.1 mph WNW1.8 kmh WNW 5.8 mph9.3 kmh 29.99 in1015.6 mb 0.00 in0.0 mm 0.00 in0.0 mm 0.30 in7.6 mm
05:34 AM 46.6°F8.1°C 46.3°F7.9°C 99% 3.2 mph NNE5.1 kmh NNE 5.8 mph9.3 kmh 29.99 in1015.6 mb 0.00 in0.0 mm 0.00 in0.0 mm 0.30 in7.6 mm
05:33 AM 46.6°F8.1°C 46.3°F7.9°C 99% 2.7 mph SSW4.3 kmh SSW 5.8 mph9.3 kmh 29.99 in1015.6 mb 0.00 in0.0 mm 0.00 in0.0 mm 0.30 in7.6 mm
05:32 AM 46.6°F8.1°C 46.3°F7.9°C 99% 3.2 mph ESE5.1 kmh ESE 4.2 mph6.8 kmh 29.99 in1015.6 mb 0.00 in0.0 mm 0.00 in0.0 mm 0.30 in7.6 mm
05:31 AM 46.6°F8.1°C 46.3°F7.9°C 99% 3.2 mph WSW5.1 kmh WSW 4.2 mph6.8 kmh 29.99 in1015.6 mb 0.00 in0.0 mm 0.00 in0.0 mm 0.30 in7.6 mm
05:30 AM 46.6°F8.1°C 46.3°F7.9°C 99% 1.7 mph W2.7 kmh W 4.2 mph6.8 kmh 29.99 in1015.6 mb 0.00 in0.0 mm 0.00 in0.0 mm 0.30 in7.6 mm
05:29 AM 46.6°F8.1°C 46.3°F7.9°C 99% 2.2 mph SW3.5 kmh SW 4.2 mph6.8 kmh 29.99 in1015.6 mb 0.00 in0.0 mm 0.00 in0.0 mm 0.30 in7.6 mm
05:28 AM 46.6°F8.1°C 46.3°F7.9°C 99% 2.7 mph W4.3 kmh W 4.2 mph6.8 kmh 29.99 in1015.6 mb 0.00 in0.0 mm 0.00 in0.0 mm 0.30 in7.6 mm
05:27 AM 46.6°F8.1°C 46.3°F7.9°C 99% 2.2 mph S3.5 kmh S 4.2 mph6.8 kmh 29.99 in1015.6 mb 0.00 in0.0 mm 0.00 in0.0 mm 0.30 in7.6 mm
05:26 AM 46.6°F8.1°C 46.3°F7.9°C 99% 2.2 mph S3.5 kmh S 5.3 mph8.5 kmh 30.00 in1015.9 mb 0.00 in0.0 mm 0.00 in0.0 mm 0.30 in7.6 mm
05:25 AM 46.6°F8.1°C 46.3°F7.9°C 99% 2.7 mph W4.3 kmh W 6.3 mph10.1 kmh 30.00 in1015.9 mb 0.00 in0.0 mm 0.00 in0.0 mm 0.30 in7.6 mm
05:24 AM 46.6°F8.1°C 46.3°F7.9°C 99% 4.2 mph SW6.8 kmh SW 6.3 mph10.1 kmh 30.00 in1015.9 mb 0.00 in0.0 mm 0.00 in0.0 mm 0.30 in7.6 mm
05:23 AM 46.6°F8.1°C 46.3°F7.9°C 99% 2.7 mph WSW4.3 kmh WSW 6.3 mph10.1 kmh 30.00 in1015.9 mb 0.00 in0.0 mm 0.00 in0.0 mm 0.30 in7.6 mm
05:22 AM 46.6°F8.1°C 46.3°F7.9°C 99% 1.7 mph W2.7 kmh W 6.3 mph10.1 kmh 30.00 in1015.9 mb 0.00 in0.0 mm 0.00 in0.0 mm 0.30 in7.6 mm
05:21 AM 46.4°F8.0°C 46.1°F7.8°C 99% 1.1 mph WNW1.8 kmh WNW 6.3 mph10.1 kmh 30.00 in1015.9 mb 0.00 in0.0 mm 0.00 in0.0 mm 0.30 in7.6 mm
05:20 AM 46.4°F8.0°C 46.1°F7.8°C 99% 2.2 mph SW3.5 kmh SW 6.3 mph10.1 kmh 30.00 in1015.9 mb 0.00 in0.0 mm 0.00 in0.0 mm 0.30 in7.6 mm
05:19 AM 46.4°F8.0°C 46.1°F7.8°C 99% 4.2 mph WNW6.8 kmh WNW 6.3 mph10.1 kmh 30.00 in1015.9 mb 0.00 in0.0 mm 0.00 in0.0 mm 0.30 in7.6 mm
05:18 AM 46.4°F8.0°C 46.1°F7.8°C 99% 1.7 mph S2.7 kmh S 6.3 mph10.1 kmh 30.00 in1015.9 mb 0.00 in0.0 mm 0.00 in0.0 mm 0.30 in7.6 mm
05:17 AM 46.4°F8.0°C 46.1°F7.8°C 99% 2.7 mph WSW4.3 kmh WSW 6.3 mph10.1 kmh 30.00 in1015.9 mb 0.00 in0.0 mm 0.00 in0.0 mm 0.30 in7.6 mm
05:16 AM 46.4°F8.0°C 46.1°F7.8°C 99% 6.3 mph W10.1 kmh W 6.3 mph10.1 kmh 30.00 in1015.9 mb 0.00 in0.0 mm 0.00 in0.0 mm 0.30 in7.6 mm
05:15 AM 46.4°F8.0°C 46.1°F7.8°C 99% 3.7 mph W6.0 kmh W 4.2 mph6.8 kmh 30.00 in1015.9 mb 0.00 in0.0 mm 0.00 in0.0 mm 0.30 in7.6 mm
05:14 AM 46.4°F8.0°C 46.1°F7.8°C 99% 3.2 mph WNW5.1 kmh WNW 4.2 mph6.8 kmh 30.00 in1015.9 mb 0.00 in0.0 mm 0.00 in0.0 mm 0.30 in7.6 mm
05:13 AM 46.4°F8.0°C 46.1°F7.8°C 99% 2.2 mph WSW3.5 kmh WSW 3.7 mph6.0 kmh 30.00 in1015.9 mb 0.00 in0.0 mm 0.00 in0.0 mm 0.30 in7.6 mm
05:12 AM 46.4°F8.0°C 46.1°F7.8°C 99% 2.7 mph W4.3 kmh W 3.7 mph6.0 kmh 30.00 in1015.9 mb 0.00 in0.0 mm 0.00 in0.0 mm 0.30 in7.6 mm
05:11 AM 46.4°F8.0°C 46.1°F7.8°C 99% 2.2 mph W3.5 kmh W 3.7 mph6.0 kmh 30.00 in1015.9 mb 0.00 in0.0 mm 0.00 in0.0 mm 0.30 in7.6 mm
05:10 AM 46.4°F8.0°C 46.1°F7.8°C 99% 1.7 mph WSW2.7 kmh WSW 4.7 mph7.6 kmh 30.00 in1015.9 mb 0.00 in0.0 mm 0.00 in0.0 mm 0.30 in7.6 mm
05:09 AM 46.4°F8.0°C 46.1°F7.8°C 99% 2.7 mph SSE4.3 kmh SSE 4.7 mph7.6 kmh 30.00 in1015.9 mb 0.00 in0.0 mm 0.00 in0.0 mm 0.30 in7.6 mm
05:08 AM 46.4°F8.0°C 46.1°F7.8°C 99% 1.7 mph NNE2.7 kmh NNE 4.7 mph7.6 kmh 30.00 in1015.9 mb 0.00 in0.0 mm 0.00 in0.0 mm 0.30 in7.6 mm
05:07 AM 46.4°F8.0°C 46.1°F7.8°C 99% 1.7 mph WNW2.7 kmh WNW 4.7 mph7.6 kmh 30.00 in1015.9 mb 0.00 in0.0 mm 0.00 in0.0 mm 0.30 in7.6 mm
05:06 AM 46.4°F8.0°C 46.1°F7.8°C 99% 2.2 mph S3.5 kmh S 4.7 mph7.6 kmh 30.00 in1015.9 mb 0.00 in0.0 mm 0.00 in0.0 mm 0.30 in7.6 mm
05:05 AM 46.4°F8.0°C 46.1°F7.8°C 99% 2.2 mph W3.5 kmh W 4.7 mph7.6 kmh 30.00 in1015.9 mb 0.00 in0.0 mm 0.00 in0.0 mm 0.30 in7.6 mm
05:04 AM 46.4°F8.0°C 46.1°F7.8°C 99% 2.2 mph WSW3.5 kmh WSW 4.7 mph7.6 kmh 30.00 in1015.9 mb 0.00 in0.0 mm 0.00 in0.0 mm 0.30 in7.6 mm
05:03 AM 46.4°F8.0°C 46.1°F7.8°C 99% 2.2 mph WSW3.5 kmh WSW 4.7 mph7.6 kmh 30.00 in1015.9 mb 0.00 in0.0 mm 0.00 in0.0 mm 0.30 in7.6 mm
05:02 AM 46.4°F8.0°C 46.1°F7.8°C 99% 2.7 mph W4.3 kmh W 4.7 mph7.6 kmh 30.00 in1015.9 mb 0.00 in0.0 mm 0.00 in0.0 mm 0.30 in7.6 mm
05:01 AM 46.4°F8.0°C 46.1°F7.8°C 99% 3.2 mph W5.1 kmh W 4.7 mph7.6 kmh 30.00 in1015.9 mb 0.00 in0.0 mm 0.00 in0.0 mm 0.30 in7.6 mm
05:00 AM 46.4°F8.0°C 46.1°F7.8°C 99% 2.7 mph W4.3 kmh W 3.2 mph5.1 kmh 30.00 in1015.9 mb 0.00 in0.0 mm 0.00 in0.0 mm 0.30 in7.6 mm
04:59 AM 46.4°F8.0°C 46.1°F7.8°C 99% 2.7 mph W4.3 kmh W 3.2 mph5.1 kmh 30.00 in1015.9 mb 0.00 in0.0 mm 0.00 in0.0 mm 0.30 in7.6 mm
04:58 AM 46.4°F8.0°C 46.1°F7.8°C 99% Calm Calm 3.2 mph5.1 kmh 30.00 in1015.9 mb 0.00 in0.0 mm 0.00 in0.0 mm 0.30 in7.6 mm
04:57 AM 46.4°F8.0°C 46.1°F7.8°C 99% 1.1 mph W1.8 kmh W 3.2 mph5.1 kmh 30.00 in1015.9 mb 0.00 in0.0 mm 0.00 in0.0 mm 0.30 in7.6 mm
04:56 AM 46.4°F8.0°C 46.1°F7.8°C 99% 2.2 mph W3.5 kmh W 3.2 mph5.1 kmh 30.00 in1015.9 mb 0.00 in0.0 mm 0.00 in0.0 mm 0.30 in7.6 mm
04:55 AM 46.4°F8.0°C 46.1°F7.8°C 99% 1.7 mph W2.7 kmh W 3.2 mph5.1 kmh 30.00 in1015.9 mb 0.00 in0.0 mm 0.00 in0.0 mm 0.30 in7.6 mm
04:54 AM 46.4°F8.0°C 46.1°F7.8°C 99% 2.7 mph SSW4.3 kmh SSW 2.7 mph4.3 kmh 30.00 in1015.9 mb 0.00 in0.0 mm 0.00 in0.0 mm 0.30 in7.6 mm
04:53 AM 46.4°F8.0°C 46.1°F7.8°C 99% 1.7 mph ESE2.7 kmh ESE 2.7 mph4.3 kmh 30.00 in1015.9 mb 0.00 in0.0 mm 0.00 in0.0 mm 0.30 in7.6 mm
04:52 AM 46.4°F8.0°C 46.1°F7.8°C 99% Calm Calm 2.7 mph4.3 kmh 30.00 in1015.9 mb 0.00 in0.0 mm 0.00 in0.0 mm 0.30 in7.6 mm
04:51 AM 46.4°F8.0°C 46.1°F7.8°C 99% 1.7 mph ENE2.7 kmh ENE 2.7 mph4.3 kmh 30.00 in1015.9 mb 0.00 in0.0 mm 0.00 in0.0 mm 0.30 in7.6 mm
04:50 AM 46.2°F7.9°C 45.9°F7.7°C 99% Calm Calm 2.7 mph4.3 kmh 30.00 in1015.9 mb 0.00 in0.0 mm 0.00 in0.0 mm 0.30 in7.6 mm
04:49 AM 46.2°F7.9°C 45.9°F7.7°C 99% 2.2 mph WNW3.5 kmh WNW 2.7 mph4.3 kmh 30.00 in1015.9 mb 0.00 in0.0 mm 0.00 in0.0 mm 0.30 in7.6 mm
04:48 AM 46.2°F7.9°C 45.9°F7.7°C 99% 1.7 mph S2.7 kmh S 2.7 mph4.3 kmh 30.00 in1015.9 mb 0.00 in0.0 mm 0.00 in0.0 mm 0.30 in7.6 mm
04:47 AM 46.2°F7.9°C 45.9°F7.7°C 99% 1.1 mph WNW1.8 kmh WNW 3.2 mph5.1 kmh 30.00 in1015.9 mb 0.00 in0.0 mm 0.00 in0.0 mm 0.30 in7.6 mm
04:46 AM 46.2°F7.9°C 45.9°F7.7°C 99% 1.7 mph NNE2.7 kmh NNE 4.2 mph6.8 kmh 30.00 in1015.9 mb 0.00 in0.0 mm 0.00 in0.0 mm 0.30 in7.6 mm
04:45 AM 46.2°F7.9°C 45.9°F7.7°C 99% 2.7 mph NE4.3 kmh NE 4.2 mph6.8 kmh 30.00 in1015.9 mb 0.00 in0.0 mm 0.00 in0.0 mm 0.30 in7.6 mm
04:44 AM 46.2°F7.9°C 45.9°F7.7°C 99% 1.1 mph W1.8 kmh W 4.2 mph6.8 kmh 30.00 in1015.9 mb 0.00 in0.0 mm 0.00 in0.0 mm 0.30 in7.6 mm
04:43 AM 46.2°F7.9°C 45.9°F7.7°C 99% 1.1 mph NNE1.8 kmh NNE 4.2 mph6.8 kmh 30.00 in1015.9 mb 0.00 in0.0 mm 0.00 in0.0 mm 0.30 in7.6 mm
04:42 AM 46.2°F7.9°C 45.9°F7.7°C 99% 1.1 mph W1.8 kmh W 4.2 mph6.8 kmh 30.00 in1015.9 mb 0.00 in0.0 mm 0.00 in0.0 mm 0.30 in7.6 mm
04:41 AM 46.2°F7.9°C 45.9°F7.7°C 99% 2.7 mph W4.3 kmh W 4.2 mph6.8 kmh 30.00 in1015.9 mb 0.00 in0.0 mm 0.00 in0.0 mm 0.30 in7.6 mm
04:40 AM 46.2°F7.9°C 45.9°F7.7°C 99% 2.2 mph WSW3.5 kmh WSW 4.2 mph6.8 kmh 30.00 in1015.9 mb 0.00 in0.0 mm 0.00 in0.0 mm 0.30 in7.6 mm
04:39 AM 46.2°F7.9°C 45.9°F7.7°C 99% 2.7 mph SW4.3 kmh SW 4.2 mph6.8 kmh 30.00 in1015.9 mb 0.00 in0.0 mm 0.00 in0.0 mm 0.30 in7.6 mm
04:38 AM 46.2°F7.9°C 45.9°F7.7°C 99% 1.1 mph SE1.8 kmh SE 4.2 mph6.8 kmh 30.00 in1015.9 mb 0.00 in0.0 mm 0.00 in0.0 mm 0.30 in7.6 mm
04:37 AM 46.2°F7.9°C 45.9°F7.7°C 99% 3.2 mph W5.1 kmh W 4.2 mph6.8 kmh 30.00 in1015.9 mb 0.00 in0.0 mm 0.00 in0.0 mm 0.30 in7.6 mm
04:36 AM 46.2°F7.9°C 45.9°F7.7°C 99% 2.7 mph WNW4.3 kmh WNW 4.2 mph6.8 kmh 30.00 in1015.9 mb 0.00 in0.0 mm 0.00 in0.0 mm 0.30 in7.6 mm
04:35 AM 46.2°F7.9°C 45.9°F7.7°C 99% 3.7 mph WSW6.0 kmh WSW 4.2 mph6.8 kmh 30.00 in1015.9 mb 0.00 in0.0 mm 0.00 in0.0 mm 0.30 in7.6 mm
04:34 AM 46.2°F7.9°C 45.9°F7.7°C 99% 1.1 mph WNW1.8 kmh WNW 4.2 mph6.8 kmh 30.00 in1015.9 mb 0.00 in0.0 mm 0.00 in0.0 mm 0.30 in7.6 mm
04:33 AM 46.2°F7.9°C 45.9°F7.7°C 99% 2.2 mph S3.5 kmh S 4.2 mph6.8 kmh 30.00 in1015.9 mb 0.00 in0.0 mm 0.00 in0.0 mm 0.30 in7.6 mm
04:32 AM 46.2°F7.9°C 45.9°F7.7°C 99% 2.7 mph W4.3 kmh W 4.2 mph6.8 kmh 30.00 in1015.9 mb 0.00 in0.0 mm 0.00 in0.0 mm 0.30 in7.6 mm
04:31 AM 46.2°F7.9°C 45.9°F7.7°C 99% 4.2 mph WSW6.8 kmh WSW 4.2 mph6.8 kmh 30.00 in1015.9 mb 0.00 in0.0 mm 0.00 in0.0 mm 0.30 in7.6 mm
04:30 AM 46.2°F7.9°C 45.9°F7.7°C 99% Calm Calm 3.2 mph5.1 kmh 30.00 in1015.9 mb 0.00 in0.0 mm 0.00 in0.0 mm 0.30 in7.6 mm
04:29 AM 46.0°F7.8°C 45.7°F7.6°C 99% 1.7 mph ENE2.7 kmh ENE 3.2 mph5.1 kmh 30.00 in1015.9 mb 0.00 in0.0 mm 0.00 in0.0 mm 0.30 in7.6 mm
04:28 AM 46.0°F7.8°C 45.7°F7.6°C 99% 2.7 mph NNW4.3 kmh NNW 3.2 mph5.1 kmh 30.00 in1015.9 mb 0.00 in0.0 mm 0.00 in0.0 mm 0.30 in7.6 mm
04:27 AM 46.0°F7.8°C 45.7°F7.6°C 99% 1.7 mph S2.7 kmh S 3.2 mph5.1 kmh 30.00 in1015.9 mb 0.00 in0.0 mm 0.00 in0.0 mm 0.30 in7.6 mm
04:26 AM 46.0°F7.8°C 45.7°F7.6°C 99% 3.2 mph W5.1 kmh W 3.2 mph5.1 kmh 29.99 in1015.6 mb 0.00 in0.0 mm 0.00 in0.0 mm 0.30 in7.6 mm
04:25 AM 46.0°F7.8°C 45.7°F7.6°C 99% 1.7 mph SW2.7 kmh SW 3.2 mph5.1 kmh 29.99 in1015.6 mb 0.00 in0.0 mm 0.00 in0.0 mm 0.30 in7.6 mm
04:24 AM 46.0°F7.8°C 45.7°F7.6°C 99% 1.7 mph SSW2.7 kmh SSW 3.2 mph5.1 kmh 29.99 in1015.6 mb 0.00 in0.0 mm 0.00 in0.0 mm 0.30 in7.6 mm
04:23 AM 46.0°F7.8°C 45.7°F7.6°C 99% Calm Calm 3.2 mph5.1 kmh 29.99 in1015.6 mb 0.00 in0.0 mm 0.00 in0.0 mm 0.30 in7.6 mm
04:22 AM 46.0°F7.8°C 45.7°F7.6°C 99% 1.1 mph WSW1.8 kmh WSW 3.2 mph5.1 kmh 29.99 in1015.6 mb 0.00 in0.0 mm 0.00 in0.0 mm 0.30 in7.6 mm
04:21 AM 46.0°F7.8°C 45.7°F7.6°C 99% 2.2 mph SSE3.5 kmh SSE 3.2 mph5.1 kmh 29.99 in1015.6 mb 0.00 in0.0 mm 0.00 in0.0 mm 0.30 in7.6 mm
04:20 AM 46.0°F7.8°C 45.7°F7.6°C 99% 2.7 mph WSW4.3 kmh WSW 3.2 mph5.1 kmh 29.99 in1015.6 mb 0.00 in0.0 mm 0.00 in0.0 mm 0.30 in7.6 mm
04:19 AM 46.0°F7.8°C 45.7°F7.6°C 99% 2.7 mph S4.3 kmh S 2.7 mph4.3 kmh 29.99 in1015.6 mb 0.00 in0.0 mm 0.00 in0.0 mm 0.30 in7.6 mm
04:18 AM 46.0°F7.8°C 45.7°F7.6°C 99% 1.7 mph SW2.7 kmh SW 2.7 mph4.3 kmh 29.99 in1015.6 mb 0.00 in0.0 mm 0.00 in0.0 mm 0.30 in7.6 mm
04:17 AM 46.0°F7.8°C 45.7°F7.6°C 99% 1.7 mph WSW2.7 kmh WSW 2.7 mph4.3 kmh 29.99 in1015.6 mb 0.00 in0.0 mm 0.00 in0.0 mm 0.30 in7.6 mm
04:16 AM 46.0°F7.8°C 45.7°F7.6°C 99% 1.7 mph ESE2.7 kmh ESE 3.2 mph5.1 kmh 29.99 in1015.6 mb 0.00 in0.0 mm 0.00 in0.0 mm 0.30 in7.6 mm
04:15 AM 46.0°F7.8°C 45.7°F7.6°C 99% Calm Calm 3.2 mph5.1 kmh 30.00 in1015.9 mb 0.00 in0.0 mm 0.00 in0.0 mm 0.30 in7.6 mm
04:14 AM 46.0°F7.8°C 45.7°F7.6°C 99% 2.2 mph E3.5 kmh E 3.2 mph5.1 kmh 30.00 in1015.9 mb 0.00 in0.0 mm 0.00 in0.0 mm 0.30 in7.6 mm
04:13 AM 46.0°F7.8°C 45.7°F7.6°C 99% Calm Calm 3.2 mph5.1 kmh 30.00 in1015.9 mb 0.00 in0.0 mm 0.00 in0.0 mm 0.30 in7.6 mm
04:12 AM 46.0°F7.8°C 45.7°F7.6°C 99% 2.2 mph SSE3.5 kmh SSE 4.2 mph6.8 kmh 30.00 in1015.9 mb 0.00 in0.0 mm 0.00 in0.0 mm 0.30 in7.6 mm
04:11 AM 46.0°F7.8°C 45.7°F7.6°C 99% 1.7 mph NNW2.7 kmh NNW 4.2 mph6.8 kmh 30.00 in1015.9 mb 0.00 in0.0 mm 0.00 in0.0 mm 0.30 in7.6 mm
04:10 AM 46.0°F7.8°C 45.7°F7.6°C 99% Calm Calm 4.2 mph6.8 kmh 30.00 in1015.9 mb 0.00 in0.0 mm 0.00 in0.0 mm 0.30 in7.6 mm
04:09 AM 46.0°F7.8°C 45.7°F7.6°C 99% Calm Calm 4.2 mph6.8 kmh 30.00 in1015.9 mb 0.00 in0.0 mm 0.00 in0.0 mm 0.30 in7.6 mm
04:08 AM 46.0°F7.8°C 45.7°F7.6°C 99% 1.1 mph ESE1.8 kmh ESE 4.2 mph6.8 kmh 30.00 in1015.9 mb 0.00 in0.0 mm 0.00 in0.0 mm 0.30 in7.6 mm
04:07 AM 46.0°F7.8°C 45.7°F7.6°C 99% 2.2 mph ESE3.5 kmh ESE 4.2 mph6.8 kmh 30.00 in1015.9 mb 0.00 in0.0 mm 0.00 in0.0 mm 0.30 in7.6 mm
04:06 AM 46.0°F7.8°C 45.7°F7.6°C 99% 2.7 mph WSW4.3 kmh WSW 4.2 mph6.8 kmh 30.00 in1015.9 mb 0.00 in0.0 mm 0.00 in0.0 mm 0.30 in7.6 mm
04:05 AM 46.0°F7.8°C 45.7°F7.6°C 99% 1.1 mph NE1.8 kmh NE 4.2 mph6.8 kmh 30.00 in1015.9 mb 0.00 in0.0 mm 0.00 in0.0 mm 0.30 in7.6 mm
04:04 AM 45.9°F7.7°C 45.6°F7.6°C 99% Calm Calm 4.7 mph7.6 kmh 30.00 in1015.9 mb 0.00 in0.0 mm 0.00 in0.0 mm 0.30 in7.6 mm
04:03 AM 45.9°F7.7°C 45.6°F7.6°C 99% 2.2 mph W3.5 kmh W 5.8 mph9.3 kmh 30.00 in1015.9 mb 0.00 in0.0 mm 0.00 in0.0 mm 0.30 in7.6 mm
04:02 AM 45.9°F7.7°C 45.6°F7.6°C 99% 4.2 mph NW6.8 kmh NW 5.8 mph9.3 kmh 30.00 in1015.9 mb 0.00 in0.0 mm 0.00 in0.0 mm 0.30 in7.6 mm
04:01 AM 45.9°F7.7°C 45.6°F7.6°C 99% 1.1 mph ESE1.8 kmh ESE 5.8 mph9.3 kmh 30.00 in1015.9 mb 0.00 in0.0 mm 0.00 in0.0 mm 0.30 in7.6 mm
04:00 AM 45.9°F7.7°C 45.6°F7.6°C 99% 1.1 mph W1.8 kmh W 5.8 mph9.3 kmh 30.00 in1015.9 mb 0.00 in0.0 mm 0.00 in0.0 mm 0.30 in7.6 mm
03:59 AM 45.9°F7.7°C 45.6°F7.6°C 99% 1.7 mph ENE2.7 kmh ENE 5.8 mph9.3 kmh 30.00 in1015.9 mb 0.00 in0.0 mm 0.00 in0.0 mm 0.30 in7.6 mm
03:58 AM 45.9°F7.7°C 45.6°F7.6°C 99% 1.7 mph S2.7 kmh S 5.8 mph9.3 kmh 30.00 in1015.9 mb 0.00 in0.0 mm 0.00 in0.0 mm 0.30 in7.6 mm
03:57 AM 45.9°F7.7°C 45.6°F7.6°C 99% 2.2 mph SSE3.5 kmh SSE 5.8 mph9.3 kmh 30.00 in1015.9 mb 0.00 in0.0 mm 0.00 in0.0 mm 0.30 in7.6 mm
03:56 AM 45.9°F7.7°C 45.6°F7.6°C 99% 1.7 mph ESE2.7 kmh ESE 5.8 mph9.3 kmh 30.00 in1015.9 mb 0.00 in0.0 mm 0.00 in0.0 mm 0.30 in7.6 mm
03:55 AM 45.9°F7.7°C 45.6°F7.6°C 99% 4.2 mph W6.8 kmh W 5.8 mph9.3 kmh 30.00 in1015.9 mb 0.00 in0.0 mm 0.00 in0.0 mm 0.30 in7.6 mm
03:54 AM 45.9°F7.7°C 45.6°F7.6°C 99% 2.2 mph W3.5 kmh W 5.8 mph9.3 kmh 30.00 in1015.9 mb 0.00 in0.0 mm 0.00 in0.0 mm 0.30 in7.6 mm
03:53 AM 45.9°F7.7°C 45.6°F7.6°C 99% 5.8 mph SW9.3 kmh SW 5.8 mph9.3 kmh 30.00 in1015.9 mb 0.00 in0.0 mm 0.00 in0.0 mm 0.30 in7.6 mm
03:52 AM 45.9°F7.7°C 45.6°F7.6°C 99% Calm Calm 4.7 mph7.6 kmh 30.00 in1015.9 mb 0.00 in0.0 mm 0.00 in0.0 mm 0.30 in7.6 mm
03:51 AM 45.9°F7.7°C 45.6°F7.6°C 99% 2.7 mph S4.3 kmh S 4.7 mph7.6 kmh 30.02 in1016.6 mb 0.00 in0.0 mm 0.00 in0.0 mm 0.30 in7.6 mm
03:50 AM 45.9°F7.7°C 45.6°F7.6°C 99% 2.2 mph W3.5 kmh W 4.7 mph7.6 kmh 30.02 in1016.6 mb 0.00 in0.0 mm 0.00 in0.0 mm 0.30 in7.6 mm
03:49 AM 45.9°F7.7°C 45.6°F7.6°C 99% 1.7 mph SSE2.7 kmh SSE 4.7 mph7.6 kmh 30.02 in1016.6 mb 0.00 in0.0 mm 0.00 in0.0 mm 0.30 in7.6 mm
03:48 AM 45.9°F7.7°C 45.6°F7.6°C 99% 3.2 mph W5.1 kmh W 4.7 mph7.6 kmh 30.02 in1016.6 mb 0.00 in0.0 mm 0.00 in0.0 mm 0.30 in7.6 mm
03:47 AM 45.9°F7.7°C 45.6°F7.6°C 99% 2.7 mph SSE4.3 kmh SSE 4.7 mph7.6 kmh 30.02 in1016.6 mb 0.00 in0.0 mm 0.00 in0.0 mm 0.30 in7.6 mm
03:46 AM 45.9°F7.7°C 45.6°F7.6°C 99% 4.2 mph SW6.8 kmh SW 4.7 mph7.6 kmh 30.02 in1016.6 mb 0.00 in0.0 mm 0.00 in0.0 mm 0.30 in7.6 mm
03:45 AM 45.9°F7.7°C 45.6°F7.6°C 99% 1.7 mph SSW2.7 kmh SSW 4.7 mph7.6 kmh 30.02 in1016.6 mb 0.00 in0.0 mm 0.00 in0.0 mm 0.30 in7.6 mm
03:44 AM 45.9°F7.7°C 45.6°F7.6°C 99% 4.7 mph ESE7.6 kmh ESE 4.7 mph7.6 kmh 30.02 in1016.6 mb 0.00 in0.0 mm 0.00 in0.0 mm 0.30 in7.6 mm
03:43 AM 45.9°F7.7°C 45.6°F7.6°C 99% 3.7 mph SW6.0 kmh SW 3.7 mph6.0 kmh 30.02 in1016.6 mb 0.00 in0.0 mm 0.00 in0.0 mm 0.30 in7.6 mm
03:42 AM 45.9°F7.7°C 45.6°F7.6°C 99% 1.1 mph E1.8 kmh E 5.3 mph8.5 kmh 30.02 in1016.6 mb 0.00 in0.0 mm 0.00 in0.0 mm 0.30 in7.6 mm
03:41 AM 45.9°F7.7°C 45.6°F7.6°C 99% 2.2 mph WSW3.5 kmh WSW 5.3 mph8.5 kmh 30.02 in1016.6 mb 0.00 in0.0 mm 0.00 in0.0 mm 0.30 in7.6 mm
03:40 AM 45.9°F7.7°C 45.6°F7.6°C 99% 3.2 mph NNE5.1 kmh NNE 5.3 mph8.5 kmh 30.02 in1016.6 mb 0.00 in0.0 mm 0.00 in0.0 mm 0.30 in7.6 mm
03:39 AM 45.9°F7.7°C 45.6°F7.6°C 99% 3.2 mph W5.1 kmh W 5.3 mph8.5 kmh 30.03 in1016.9 mb 0.00 in0.0 mm 0.00 in0.0 mm 0.30 in7.6 mm
03:38 AM 45.9°F7.7°C 45.6°F7.6°C 99% 2.7 mph W4.3 kmh W 5.3 mph8.5 kmh 30.03 in1016.9 mb 0.00 in0.0 mm 0.00 in0.0 mm 0.30 in7.6 mm
03:37 AM 45.7°F7.6°C 45.4°F7.4°C 99% 2.2 mph E3.5 kmh E 5.3 mph8.5 kmh 30.03 in1016.9 mb 0.00 in0.0 mm 0.00 in0.0 mm 0.30 in7.6 mm
03:36 AM 45.7°F7.6°C 45.4°F7.4°C 99% 2.2 mph NNE3.5 kmh NNE 5.3 mph8.5 kmh 30.03 in1016.9 mb 0.00 in0.0 mm 0.00 in0.0 mm 0.30 in7.6 mm
03:35 AM 45.7°F7.6°C 45.4°F7.4°C 99% 2.2 mph W3.5 kmh W 5.3 mph8.5 kmh 30.03 in1016.9 mb 0.00 in0.0 mm 0.00 in0.0 mm 0.30 in7.6 mm
03:34 AM 45.7°F7.6°C 45.4°F7.4°C 99% 2.2 mph SW3.5 kmh SW 5.3 mph8.5 kmh 30.03 in1016.9 mb 0.00 in0.0 mm 0.00 in0.0 mm 0.30 in7.6 mm
03:33 AM 45.7°F7.6°C 45.4°F7.4°C 99% 2.7 mph S4.3 kmh S 5.3 mph8.5 kmh 30.03 in1016.9 mb 0.00 in0.0 mm 0.00 in0.0 mm 0.30 in7.6 mm
03:32 AM 45.7°F7.6°C 45.4°F7.4°C 99% 1.7 mph W2.7 kmh W 5.3 mph8.5 kmh 30.03 in1016.9 mb 0.00 in0.0 mm 0.00 in0.0 mm 0.30 in7.6 mm
03:31 AM 45.7°F7.6°C 45.4°F7.4°C 99% 2.7 mph W4.3 kmh W 5.3 mph8.5 kmh 30.03 in1016.9 mb 0.00 in0.0 mm 0.00 in0.0 mm 0.30 in7.6 mm
03:30 AM 45.7°F7.6°C 45.4°F7.4°C 99% 2.7 mph W4.3 kmh W 5.3 mph8.5 kmh 30.03 in1016.9 mb 0.00 in0.0 mm 0.00 in0.0 mm 0.30 in7.6 mm
03:29 AM 45.7°F7.6°C 45.4°F7.4°C 99% 4.2 mph W6.8 kmh W 5.3 mph8.5 kmh 30.03 in1016.9 mb 0.00 in0.0 mm 0.00 in0.0 mm 0.30 in7.6 mm
03:28 AM 45.7°F7.6°C 45.4°F7.4°C 99% 2.2 mph SSW3.5 kmh SSW 5.3 mph8.5 kmh 30.03 in1016.9 mb 0.00 in0.0 mm 0.00 in0.0 mm 0.30 in7.6 mm
03:27 AM 45.7°F7.6°C 45.4°F7.4°C 99% 2.7 mph NNW4.3 kmh NNW 5.3 mph8.5 kmh 30.03 in1016.9 mb 0.00 in0.0 mm 0.00 in0.0 mm 0.30 in7.6 mm
03:26 AM 45.7°F7.6°C 45.4°F7.4°C 99% 5.3 mph W8.5 kmh W 5.3 mph8.5 kmh 30.03 in1016.9 mb 0.00 in0.0 mm 0.00 in0.0 mm 0.30 in7.6 mm
03:25 AM 45.7°F7.6°C 45.2°F7.3°C 98% 3.7 mph NE6.0 kmh NE 5.8 mph9.3 kmh 30.03 in1016.9 mb 0.00 in0.0 mm 0.00 in0.0 mm 0.30 in7.6 mm
03:24 AM 45.7°F7.6°C 45.2°F7.3°C 98% 3.2 mph WSW5.1 kmh WSW 7.8 mph12.6 kmh 30.03 in1016.9 mb 0.00 in0.0 mm 0.00 in0.0 mm 0.30 in7.6 mm
03:23 AM 45.5°F7.5°C 45.0°F7.2°C 98% 2.7 mph NW4.3 kmh NW 7.8 mph12.6 kmh 30.03 in1016.9 mb 0.00 in0.0 mm 0.00 in0.0 mm 0.30 in7.6 mm
03:22 AM 45.5°F7.5°C 45.0°F7.2°C 98% 1.1 mph SW1.8 kmh SW 7.8 mph12.6 kmh 30.03 in1016.9 mb 0.00 in0.0 mm 0.00 in0.0 mm 0.30 in7.6 mm
03:21 AM 45.5°F7.5°C 45.0°F7.2°C 98% 3.7 mph W6.0 kmh W 7.8 mph12.6 kmh 30.03 in1016.9 mb 0.00 in0.0 mm 0.00 in0.0 mm 0.30 in7.6 mm
03:20 AM 45.5°F7.5°C 45.0°F7.2°C 98% 3.7 mph W6.0 kmh W 7.8 mph12.6 kmh 30.03 in1016.9 mb 0.00 in0.0 mm 0.00 in0.0 mm 0.30 in7.6 mm
03:19 AM 45.5°F7.5°C 45.0°F7.2°C 98% 2.2 mph ESE3.5 kmh ESE 7.8 mph12.6 kmh 30.03 in1016.9 mb 0.00 in0.0 mm 0.00 in0.0 mm 0.30 in7.6 mm
03:18 AM 45.5°F7.5°C 45.0°F7.2°C 98% 4.7 mph ESE7.6 kmh ESE 7.8 mph12.6 kmh 30.03 in1016.9 mb 0.00 in0.0 mm 0.00 in0.0 mm 0.30 in7.6 mm
03:17 AM 45.5°F7.5°C 45.0°F7.2°C 98% 4.2 mph S6.8 kmh S 7.8 mph12.6 kmh 30.03 in1016.9 mb 0.00 in0.0 mm 0.00 in0.0 mm 0.30 in7.6 mm
03:16 AM 45.5°F7.5°C 45.0°F7.2°C 98% 4.2 mph E6.8 kmh E 7.8 mph12.6 kmh 30.03 in1016.9 mb 0.00 in0.0 mm 0.00 in0.0 mm 0.30 in7.6 mm
03:15 AM 45.5°F7.5°C 45.0°F7.2°C 98% 5.8 mph WSW9.3 kmh WSW 7.8 mph12.6 kmh 30.03 in1016.9 mb 0.00 in0.0 mm 0.00 in0.0 mm 0.30 in7.6 mm
03:14 AM 45.5°F7.5°C 45.0°F7.2°C 98% 5.3 mph WSW8.5 kmh WSW 7.8 mph12.6 kmh 30.03 in1016.9 mb 0.00 in0.0 mm 0.00 in0.0 mm 0.30 in7.6 mm
03:13 AM 45.5°F7.5°C 45.0°F7.2°C 98% 3.7 mph NNW6.0 kmh NNW 6.8 mph10.9 kmh 30.03 in1016.9 mb 0.00 in0.0 mm 0.00 in0.0 mm 0.30 in7.6 mm
03:12 AM 45.5°F7.5°C 45.0°F7.2°C 98% 4.2 mph NNW6.8 kmh NNW 6.8 mph10.9 kmh 30.03 in1016.9 mb 0.00 in0.0 mm 0.00 in0.0 mm 0.30 in7.6 mm
03:11 AM 45.5°F7.5°C 45.0°F7.2°C 98% 3.7 mph SSE6.0 kmh SSE 6.8 mph10.9 kmh 30.03 in1016.9 mb 0.00 in0.0 mm 0.00 in0.0 mm 0.30 in7.6 mm
03:10 AM 45.5°F7.5°C 45.0°F7.2°C 98% 6.8 mph WSW10.9 kmh WSW 6.8 mph10.9 kmh 30.03 in1016.9 mb 0.00 in0.0 mm 0.00 in0.0 mm 0.30 in7.6 mm
03:09 AM 45.5°F7.5°C 45.0°F7.2°C 98% 2.2 mph NE3.5 kmh NE 7.8 mph12.6 kmh 30.03 in1016.9 mb 0.00 in0.0 mm 0.00 in0.0 mm 0.30 in7.6 mm
03:08 AM 45.5°F7.5°C 45.0°F7.2°C 98% 1.7 mph ESE2.7 kmh ESE 7.8 mph12.6 kmh 30.03 in1016.9 mb 0.00 in0.0 mm 0.00 in0.0 mm 0.30 in7.6 mm
03:07 AM 45.5°F7.5°C 45.0°F7.2°C 98% 2.7 mph ENE4.3 kmh ENE 7.8 mph12.6 kmh 30.03 in1016.9 mb 0.00 in0.0 mm 0.00 in0.0 mm 0.30 in7.6 mm
03:06 AM 45.5°F7.5°C 45.0°F7.2°C 98% 1.1 mph W1.8 kmh W 7.8 mph12.6 kmh 30.03 in1016.9 mb 0.00 in0.0 mm 0.00 in0.0 mm 0.30 in7.6 mm
03:05 AM 45.5°F7.5°C 45.0°F7.2°C 98% 4.2 mph W6.8 kmh W 7.8 mph12.6 kmh 30.03 in1016.9 mb 0.00 in0.0 mm 0.00 in0.0 mm 0.30 in7.6 mm
03:04 AM 45.5°F7.5°C 45.0°F7.2°C 98% 6.3 mph WNW10.1 kmh WNW 7.8 mph12.6 kmh 30.03 in1016.9 mb 0.00 in0.0 mm 0.00 in0.0 mm 0.30 in7.6 mm
03:03 AM 45.5°F7.5°C 45.0°F7.2°C 98% 5.3 mph S8.5 kmh S 7.8 mph12.6 kmh 30.03 in1016.9 mb 0.00 in0.0 mm 0.00 in0.0 mm 0.30 in7.6 mm
03:02 AM 45.5°F7.5°C 45.0°F7.2°C 98% 5.3 mph W8.5 kmh W 7.8 mph12.6 kmh 30.02 in1016.6 mb 0.00 in0.0 mm 0.00 in0.0 mm 0.30 in7.6 mm
03:01 AM 45.5°F7.5°C 45.0°F7.2°C 98% 4.7 mph SE7.6 kmh SE 7.8 mph12.6 kmh 30.02 in1016.6 mb 0.00 in0.0 mm 0.00 in0.0 mm 0.30 in7.6 mm
03:00 AM 45.5°F7.5°C 45.0°F7.2°C 98% 4.2 mph SW6.8 kmh SW 7.8 mph12.6 kmh 30.02 in1016.6 mb 0.00 in0.0 mm 0.00 in0.0 mm 0.30 in7.6 mm
02:59 AM 45.5°F7.5°C 45.0°F7.2°C 98% 2.7 mph NNE4.3 kmh NNE 6.8 mph10.9 kmh 30.02 in1016.6 mb 0.00 in0.0 mm 0.00 in0.0 mm 0.30 in7.6 mm
02:58 AM 45.5°F7.5°C 45.0°F7.2°C 98% 3.2 mph W5.1 kmh W 6.8 mph10.9 kmh 30.02 in1016.6 mb 0.00 in0.0 mm 0.00 in0.0 mm 0.30 in7.6 mm
02:57 AM 45.5°F7.5°C 45.0°F7.2°C 98% 1.7 mph W2.7 kmh W 6.8 mph10.9 kmh 30.02 in1016.6 mb 0.00 in0.0 mm 0.00 in0.0 mm 0.30 in7.6 mm
02:56 AM 45.3°F7.4°C 44.8°F7.1°C 98% 3.7 mph NW6.0 kmh NW 8.9 mph14.3 kmh 30.02 in1016.6 mb 0.00 in0.0 mm 0.00 in0.0 mm 0.30 in7.6 mm
02:55 AM 45.3°F7.4°C 44.8°F7.1°C 98% 4.7 mph WNW7.6 kmh WNW 8.9 mph14.3 kmh 30.02 in1016.6 mb 0.00 in0.0 mm 0.00 in0.0 mm 0.30 in7.6 mm
02:54 AM 45.3°F7.4°C 44.8°F7.1°C 98% 4.2 mph ESE6.8 kmh ESE 8.9 mph14.3 kmh 30.02 in1016.6 mb 0.00 in0.0 mm 0.00 in0.0 mm 0.30 in7.6 mm
02:53 AM 45.3°F7.4°C 44.8°F7.1°C 98% 6.3 mph N10.1 kmh N 8.9 mph14.3 kmh 30.02 in1016.6 mb 0.00 in0.0 mm 0.00 in0.0 mm 0.30 in7.6 mm
02:52 AM 45.3°F7.4°C 44.8°F7.1°C 98% 4.7 mph SSW7.6 kmh SSW 8.9 mph14.3 kmh 30.02 in1016.6 mb 0.00 in0.0 mm 0.00 in0.0 mm 0.30 in7.6 mm
02:51 AM 45.3°F7.4°C 44.8°F7.1°C 98% 5.3 mph W8.5 kmh W 8.9 mph14.3 kmh 30.02 in1016.6 mb 0.00 in0.0 mm 0.00 in0.0 mm 0.30 in7.6 mm
02:50 AM 45.3°F7.4°C 44.8°F7.1°C 98% 2.7 mph S4.3 kmh S 8.9 mph14.3 kmh 30.02 in1016.6 mb 0.00 in0.0 mm 0.00 in0.0 mm 0.30 in7.6 mm
02:49 AM 45.3°F7.4°C 44.8°F7.1°C 98% 1.7 mph W2.7 kmh W 8.9 mph14.3 kmh 30.02 in1016.6 mb 0.00 in0.0 mm 0.00 in0.0 mm 0.30 in7.6 mm
02:48 AM 45.3°F7.4°C 44.8°F7.1°C 98% 1.7 mph S2.7 kmh S 8.9 mph14.3 kmh 30.02 in1016.6 mb 0.00 in0.0 mm 0.00 in0.0 mm 0.30 in7.6 mm
02:47 AM 45.3°F7.4°C 44.8°F7.1°C 98% 4.2 mph N6.8 kmh N 8.9 mph14.3 kmh 30.02 in1016.6 mb 0.00 in0.0 mm 0.00 in0.0 mm 0.30 in7.6 mm
02:46 AM 45.3°F7.4°C 44.8°F7.1°C 98% 3.7 mph NNW6.0 kmh NNW 6.3 mph10.1 kmh 30.02 in1016.6 mb 0.00 in0.0 mm 0.00 in0.0 mm 0.30 in7.6 mm
02:45 AM 45.3°F7.4°C 44.8°F7.1°C 98% 3.2 mph WNW5.1 kmh WNW 6.3 mph10.1 kmh 30.02 in1016.6 mb 0.00 in0.0 mm 0.00 in0.0 mm 0.30 in7.6 mm
02:44 AM 45.3°F7.4°C 44.8°F7.1°C 98% 5.3 mph WNW8.5 kmh WNW 6.3 mph10.1 kmh 30.02 in1016.6 mb 0.00 in0.0 mm 0.00 in0.0 mm 0.30 in7.6 mm
02:43 AM 45.3°F7.4°C 44.8°F7.1°C 98% 2.2 mph ESE3.5 kmh ESE 6.3 mph10.1 kmh 30.02 in1016.6 mb 0.01 in0.3 mm 0.00 in0.0 mm 0.30 in7.6 mm
02:42 AM 45.1°F7.3°C 44.6°F7.0°C 98% 4.7 mph SW7.6 kmh SW 6.8 mph10.9 kmh 30.02 in1016.6 mb 0.01 in0.3 mm 0.00 in0.0 mm 0.30 in7.6 mm
02:41 AM 45.1°F7.3°C 44.6°F7.0°C 98% 4.2 mph NE6.8 kmh NE 6.8 mph10.9 kmh 30.02 in1016.6 mb 0.01 in0.3 mm 0.00 in0.0 mm 0.30 in7.6 mm
02:40 AM 45.1°F7.3°C 44.6°F7.0°C 98% 4.2 mph W6.8 kmh W 6.8 mph10.9 kmh 30.02 in1016.6 mb 0.01 in0.3 mm 0.00 in0.0 mm 0.30 in7.6 mm
02:39 AM 45.1°F7.3°C 44.6°F7.0°C 98% 3.2 mph WSW5.1 kmh WSW 6.8 mph10.9 kmh 30.04 in1017.3 mb 0.01 in0.3 mm 0.00 in0.0 mm 0.30 in7.6 mm
02:38 AM 45.1°F7.3°C 44.6°F7.0°C 98% 3.7 mph W6.0 kmh W 6.8 mph10.9 kmh 30.04 in1017.3 mb 0.01 in0.3 mm 0.00 in0.0 mm 0.30 in7.6 mm
02:37 AM 45.1°F7.3°C 44.6°F7.0°C 98% 4.2 mph NNW6.8 kmh NNW 6.8 mph10.9 kmh 30.04 in1017.3 mb 0.01 in0.3 mm 0.00 in0.0 mm 0.30 in7.6 mm
02:36 AM 45.0°F7.2°C 44.5°F6.9°C 98% 2.7 mph ESE4.3 kmh ESE 6.8 mph10.9 kmh 30.04 in1017.3 mb 0.01 in0.3 mm 0.00 in0.0 mm 0.30 in7.6 mm
02:35 AM 45.0°F7.2°C 44.5°F6.9°C 98% 1.1 mph S1.8 kmh S 6.8 mph10.9 kmh 30.04 in1017.3 mb 0.01 in0.3 mm 0.00 in0.0 mm 0.30 in7.6 mm
02:34 AM 45.0°F7.2°C 44.5°F6.9°C 98% 1.7 mph W2.7 kmh W 6.8 mph10.9 kmh 30.04 in1017.3 mb 0.01 in0.3 mm 0.00 in0.0 mm 0.30 in7.6 mm
02:33 AM 45.0°F7.2°C 44.5°F6.9°C 98% 1.1 mph NE1.8 kmh NE 6.8 mph10.9 kmh 30.04 in1017.3 mb 0.01 in0.3 mm 0.00 in0.0 mm 0.30 in7.6 mm
02:32 AM 45.0°F7.2°C 44.5°F6.9°C 98% 6.8 mph W10.9 kmh W 6.8 mph10.9 kmh 30.04 in1017.3 mb 0.01 in0.3 mm 0.00 in0.0 mm 0.30 in7.6 mm
02:31 AM 45.0°F7.2°C 44.5°F6.9°C 98% 3.7 mph ESE6.0 kmh ESE 6.3 mph10.1 kmh 30.04 in1017.3 mb 0.01 in0.3 mm 0.00 in0.0 mm 0.30 in7.6 mm
02:30 AM 45.0°F7.2°C 44.5°F6.9°C 98% 2.2 mph NE3.5 kmh NE 5.8 mph9.3 kmh 30.04 in1017.3 mb 0.01 in0.3 mm 0.00 in0.0 mm 0.30 in7.6 mm
02:29 AM 45.0°F7.2°C 44.5°F6.9°C 98% 5.3 mph SSW8.5 kmh SSW 5.8 mph9.3 kmh 30.04 in1017.3 mb 0.02 in0.5 mm 0.00 in0.0 mm 0.30 in7.6 mm
02:28 AM 45.0°F7.2°C 44.5°F6.9°C 98% 3.2 mph ESE5.1 kmh ESE 5.8 mph9.3 kmh 30.04 in1017.3 mb 0.02 in0.5 mm 0.00 in0.0 mm 0.30 in7.6 mm
02:27 AM 45.0°F7.2°C 44.5°F6.9°C 98% 1.7 mph W2.7 kmh W 5.8 mph9.3 kmh 30.04 in1017.3 mb 0.02 in0.5 mm 0.00 in0.0 mm 0.30 in7.6 mm
02:26 AM 45.0°F7.2°C 44.5°F6.9°C 98% 2.7 mph WNW4.3 kmh WNW 5.8 mph9.3 kmh 30.05 in1017.6 mb 0.02 in0.5 mm 0.00 in0.0 mm 0.30 in7.6 mm
02:25 AM 45.0°F7.2°C 44.5°F6.9°C 98% 4.2 mph W6.8 kmh W 5.8 mph9.3 kmh 30.05 in1017.6 mb 0.03 in0.8 mm 0.00 in0.0 mm 0.30 in7.6 mm
02:24 AM 45.0°F7.2°C 44.5°F6.9°C 98% 4.2 mph W6.8 kmh W 5.8 mph9.3 kmh 30.05 in1017.6 mb 0.03 in0.8 mm 0.00 in0.0 mm 0.30 in7.6 mm
02:23 AM 45.0°F7.2°C 44.5°F6.9°C 98% 4.7 mph W7.6 kmh W 5.8 mph9.3 kmh 30.05 in1017.6 mb 0.03 in0.8 mm 0.00 in0.0 mm 0.30 in7.6 mm
02:22 AM 45.0°F7.2°C 44.5°F6.9°C 98% 5.3 mph W8.5 kmh W 5.3 mph8.5 kmh 30.05 in1017.6 mb 0.04 in1.0 mm 0.00 in0.0 mm 0.30 in7.6 mm
02:21 AM 45.0°F7.2°C 44.5°F6.9°C 98% 2.7 mph WNW4.3 kmh WNW 5.3 mph8.5 kmh 30.05 in1017.6 mb 0.04 in1.0 mm 0.00 in0.0 mm 0.30 in7.6 mm
02:20 AM 44.8°F7.1°C 44.3°F6.8°C 98% 2.7 mph WSW4.3 kmh WSW 5.3 mph8.5 kmh 30.05 in1017.6 mb 0.04 in1.0 mm 0.00 in0.0 mm 0.30 in7.6 mm
02:19 AM 44.8°F7.1°C 44.3°F6.8°C 98% 3.7 mph WSW6.0 kmh WSW 5.3 mph8.5 kmh 30.05 in1017.6 mb 0.04 in1.0 mm 0.00 in0.0 mm 0.30 in7.6 mm
02:18 AM 44.8°F7.1°C 44.3°F6.8°C 98% 3.7 mph NNW6.0 kmh NNW 5.3 mph8.5 kmh 30.05 in1017.6 mb 0.05 in1.3 mm 0.00 in0.0 mm 0.30 in7.6 mm
02:17 AM 44.8°F7.1°C 44.3°F6.8°C 98% 1.7 mph SW2.7 kmh SW 5.3 mph8.5 kmh 30.05 in1017.6 mb 0.05 in1.3 mm 0.00 in0.0 mm 0.30 in7.6 mm
02:16 AM 44.8°F7.1°C 44.3°F6.8°C 98% 2.2 mph WSW3.5 kmh WSW 5.3 mph8.5 kmh 30.05 in1017.6 mb 0.05 in1.3 mm 0.00 in0.0 mm 0.30 in7.6 mm
02:15 AM 44.8°F7.1°C 44.3°F6.8°C 98% 2.2 mph WSW3.5 kmh WSW 5.3 mph8.5 kmh 30.07 in1018.3 mb 0.05 in1.3 mm 0.00 in0.0 mm 0.30 in7.6 mm
02:14 AM 44.8°F7.1°C 44.3°F6.8°C 98% 3.7 mph WSW6.0 kmh WSW 5.3 mph8.5 kmh 30.07 in1018.3 mb 0.06 in1.5 mm 0.00 in0.0 mm 0.30 in7.6 mm
02:13 AM 44.8°F7.1°C 44.3°F6.8°C 98% 1.7 mph SW2.7 kmh SW 5.3 mph8.5 kmh 30.07 in1018.3 mb 0.06 in1.5 mm 0.00 in0.0 mm 0.30 in7.6 mm
02:12 AM 44.8°F7.1°C 44.3°F6.8°C 98% 2.2 mph W3.5 kmh W 5.3 mph8.5 kmh 30.07 in1018.3 mb 0.06 in1.5 mm 0.00 in0.0 mm 0.30 in7.6 mm
02:11 AM 44.8°F7.1°C 44.3°F6.8°C 98% 3.7 mph S6.0 kmh S 5.3 mph8.5 kmh 30.07 in1018.3 mb 0.06 in1.5 mm 0.00 in0.0 mm 0.30 in7.6 mm
02:10 AM 44.8°F7.1°C 44.3°F6.8°C 98% 3.7 mph W6.0 kmh W 4.2 mph6.8 kmh 30.07 in1018.3 mb 0.07 in1.8 mm 0.00 in0.0 mm 0.30 in7.6 mm
02:09 AM 44.8°F7.1°C 44.3°F6.8°C 98% 1.7 mph ESE2.7 kmh ESE 4.7 mph7.6 kmh 30.07 in1018.3 mb 0.07 in1.8 mm 0.00 in0.0 mm 0.30 in7.6 mm
02:08 AM 44.8°F7.1°C 44.3°F6.8°C 98% 2.2 mph SW3.5 kmh SW 4.7 mph7.6 kmh 30.07 in1018.3 mb 0.07 in1.8 mm 0.00 in0.0 mm 0.30 in7.6 mm
02:07 AM 44.8°F7.1°C 44.3°F6.8°C 98% 2.7 mph W4.3 kmh W 4.7 mph7.6 kmh 30.07 in1018.3 mb 0.08 in2.0 mm 0.00 in0.0 mm 0.30 in7.6 mm
02:06 AM 44.8°F7.1°C 44.3°F6.8°C 98% 2.2 mph E3.5 kmh E 4.7 mph7.6 kmh 30.07 in1018.3 mb 0.08 in2.0 mm 0.00 in0.0 mm 0.30 in7.6 mm
02:05 AM 44.8°F7.1°C 44.3°F6.8°C 98% 3.7 mph S6.0 kmh S 4.7 mph7.6 kmh 30.07 in1018.3 mb 0.08 in2.0 mm 0.00 in0.0 mm 0.30 in7.6 mm
02:04 AM 44.8°F7.1°C 44.3°F6.8°C 98% 2.2 mph WSW3.5 kmh WSW 4.7 mph7.6 kmh 30.07 in1018.3 mb 0.09 in2.3 mm 0.00 in0.0 mm 0.30 in7.6 mm
02:03 AM 44.8°F7.1°C 44.3°F6.8°C 98% 3.2 mph SW5.1 kmh SW 4.7 mph7.6 kmh 30.07 in1018.3 mb 0.09 in2.3 mm 0.00 in0.0 mm 0.30 in7.6 mm
02:02 AM 44.8°F7.1°C 44.3°F6.8°C 98% 2.7 mph SW4.3 kmh SW 4.7 mph7.6 kmh 30.06 in1017.9 mb 0.09 in2.3 mm 0.00 in0.0 mm 0.30 in7.6 mm
02:01 AM 44.8°F7.1°C 44.3°F6.8°C 98% 2.2 mph W3.5 kmh W 4.7 mph7.6 kmh 30.06 in1017.9 mb 0.09 in2.3 mm 0.00 in0.0 mm 0.30 in7.6 mm
02:00 AM 44.8°F7.1°C 44.3°F6.8°C 98% 4.2 mph SSW6.8 kmh SSW 4.7 mph7.6 kmh 30.06 in1017.9 mb 0.10 in2.5 mm 0.00 in0.0 mm 0.30 in7.6 mm
01:59 AM 44.8°F7.1°C 44.3°F6.8°C 98% 3.2 mph W5.1 kmh W 4.7 mph7.6 kmh 30.06 in1017.9 mb 0.10 in2.5 mm 0.00 in0.0 mm 0.30 in7.6 mm
01:58 AM 44.8°F7.1°C 44.3°F6.8°C 98% 3.2 mph WSW5.1 kmh WSW 4.7 mph7.6 kmh 30.06 in1017.9 mb 0.10 in2.5 mm 0.00 in0.0 mm 0.30 in7.6 mm
01:57 AM 44.8°F7.1°C 44.3°F6.8°C 98% 1.7 mph SE2.7 kmh SE 4.7 mph7.6 kmh 30.06 in1017.9 mb 0.11 in2.8 mm 0.00 in0.0 mm 0.30 in7.6 mm
01:56 AM 44.8°F7.1°C 44.3°F6.8°C 98% 1.1 mph NW1.8 kmh NW 4.7 mph7.6 kmh 30.06 in1017.9 mb 0.11 in2.8 mm 0.00 in0.0 mm 0.30 in7.6 mm
01:55 AM 44.8°F7.1°C 44.3°F6.8°C 98% 2.7 mph SW4.3 kmh SW 5.8 mph9.3 kmh 30.06 in1017.9 mb 0.12 in3.0 mm 0.00 in0.0 mm 0.30 in7.6 mm
01:54 AM 44.8°F7.1°C 44.3°F6.8°C 98% 2.7 mph ESE4.3 kmh ESE 5.8 mph9.3 kmh 30.06 in1017.9 mb 0.12 in3.0 mm 0.00 in0.0 mm 0.30 in7.6 mm
01:53 AM 44.8°F7.1°C 44.3°F6.8°C 98% 2.7 mph W4.3 kmh W 5.8 mph9.3 kmh 30.06 in1017.9 mb 0.12 in3.0 mm 0.00 in0.0 mm 0.30 in7.6 mm
01:52 AM 44.8°F7.1°C 44.3°F6.8°C 98% 3.7 mph W6.0 kmh W 5.8 mph9.3 kmh 30.06 in1017.9 mb 0.13 in3.3 mm 0.00 in0.0 mm 0.30 in7.6 mm
01:51 AM 44.6°F7.0°C 44.1°F6.7°C 98% 4.2 mph W6.8 kmh W 5.8 mph9.3 kmh 30.05 in1017.6 mb 0.13 in3.3 mm 0.00 in0.0 mm 0.30 in7.6 mm
01:50 AM 44.6°F7.0°C 43.8°F6.6°C 97% 4.2 mph W6.8 kmh W 5.8 mph9.3 kmh 30.05 in1017.6 mb 0.13 in3.3 mm 0.00 in0.0 mm 0.30 in